<?xml version="1.0" encoding="UTF-8" standalone="no" ?>
<gpx xmlns="http://www.topografix.com/GPX/1/1" xmlns:xsi="http://www.w3.org/2001/XMLSchema-instance" xsi:schemaLocation="http://www.topografix.com/GPX/1/1 http://www.topografix.com/GPX/1/1/gpx.xsd" version="1.1" creator="VisuGPX - https://www.visugpx.com">
  <metadata>
    <name>22 CCC Flémalle - Borgloon - Flémalle</name>
    <desc><![CDATA[Randonnée au départ de l'Auto5 de Flémalle.
Flémalle - Mons-Lez-Liège - Cahottes - Velroux - Voroux-Goreux - Villers-l'Evêque - Lauw - Tongres - Borgloon - Heers - Oleye - Waremme - Pousset - Recourt - Jeneffe - Hozémont - Awirs - Flémalle.
]]></desc>
  </metadata>
  <trk>
    <name><![CDATA[22 CCC]]></name>
    <extensions>
      <line xmlns="http://www.topografix.com/GPX/gpx_style/0/2">
        <color>0000FF</color>
        <width>4</width>
      </line>
    </extensions>
    <trkseg>
      <trkpt lat="50.60415" lon="5.48424">
        <ele>65</ele>
        <time>2018-11-01T19:45:37Z</time>
      </trkpt>
      <trkpt lat="50.60351" lon="5.48516">
        <ele>64</ele>
        <time>2018-11-01T19:46:37Z</time>
      </trkpt>
      <trkpt lat="50.60365" lon="5.48548">
        <ele>63</ele>
        <time>2018-11-01T19:47:37Z</time>
      </trkpt>
      <trkpt lat="50.60396" lon="5.48506">
        <ele>64</ele>
        <time>2018-11-01T19:48:37Z</time>
      </trkpt>
      <trkpt lat="50.60484" lon="5.48398">
        <ele>67</ele>
        <time>2018-11-01T19:49:37Z</time>
      </trkpt>
      <trkpt lat="50.60501" lon="5.48391">
        <ele>67</ele>
        <time>2018-11-01T19:50:37Z</time>
      </trkpt>
      <trkpt lat="50.60508" lon="5.48373">
        <ele>68</ele>
        <time>2018-11-01T19:51:37Z</time>
      </trkpt>
      <trkpt lat="50.60634" lon="5.48271">
        <ele>69</ele>
        <time>2018-11-01T19:52:37Z</time>
      </trkpt>
      <trkpt lat="50.60676" lon="5.48221">
        <ele>70</ele>
        <time>2018-11-01T19:53:37Z</time>
      </trkpt>
      <trkpt lat="50.60678" lon="5.48199">
        <ele>71</ele>
        <time>2018-11-01T19:54:37Z</time>
      </trkpt>
      <trkpt lat="50.60641" lon="5.48097">
        <ele>70</ele>
        <time>2018-11-01T19:55:37Z</time>
      </trkpt>
      <trkpt lat="50.60593" lon="5.47997">
        <ele>70</ele>
        <time>2018-11-01T19:56:37Z</time>
      </trkpt>
      <trkpt lat="50.60665" lon="5.47906">
        <ele>72</ele>
        <time>2018-11-01T19:57:37Z</time>
      </trkpt>
      <trkpt lat="50.60825" lon="5.47839">
        <ele>80</ele>
        <time>2018-11-01T19:58:37Z</time>
      </trkpt>
      <trkpt lat="50.60871" lon="5.47796">
        <ele>83</ele>
        <time>2018-11-01T19:59:37Z</time>
      </trkpt>
      <trkpt lat="50.60902" lon="5.47786">
        <ele>84</ele>
        <time>2018-11-01T20:00:37Z</time>
      </trkpt>
      <trkpt lat="50.60926" lon="5.47797">
        <ele>85</ele>
        <time>2018-11-01T20:01:37Z</time>
      </trkpt>
      <trkpt lat="50.60982" lon="5.47858">
        <ele>88</ele>
        <time>2018-11-01T20:02:37Z</time>
      </trkpt>
      <trkpt lat="50.61035" lon="5.47897">
        <ele>93</ele>
        <time>2018-11-01T20:03:37Z</time>
      </trkpt>
      <trkpt lat="50.61077" lon="5.47912">
        <ele>96</ele>
        <time>2018-11-01T20:04:37Z</time>
      </trkpt>
      <trkpt lat="50.61173" lon="5.47889">
        <ele>97</ele>
        <time>2018-11-01T20:05:37Z</time>
      </trkpt>
      <trkpt lat="50.6131" lon="5.47944">
        <ele>92</ele>
        <time>2018-11-01T20:06:37Z</time>
      </trkpt>
      <trkpt lat="50.61357" lon="5.47975">
        <ele>92</ele>
        <time>2018-11-01T20:07:37Z</time>
      </trkpt>
      <trkpt lat="50.61444" lon="5.47991">
        <ele>95</ele>
        <time>2018-11-01T20:08:37Z</time>
      </trkpt>
      <trkpt lat="50.61464" lon="5.47952">
        <ele>96</ele>
        <time>2018-11-01T20:09:37Z</time>
      </trkpt>
      <trkpt lat="50.61477" lon="5.47904">
        <ele>96</ele>
        <time>2018-11-01T20:10:37Z</time>
      </trkpt>
      <trkpt lat="50.61489" lon="5.47779">
        <ele>97</ele>
        <time>2018-11-01T20:11:37Z</time>
      </trkpt>
      <trkpt lat="50.61514" lon="5.4772">
        <ele>98</ele>
        <time>2018-11-01T20:12:37Z</time>
      </trkpt>
      <trkpt lat="50.61539" lon="5.47678">
        <ele>99</ele>
        <time>2018-11-01T20:13:37Z</time>
      </trkpt>
      <trkpt lat="50.61562" lon="5.47627">
        <ele>100</ele>
        <time>2018-11-01T20:14:37Z</time>
      </trkpt>
      <trkpt lat="50.61554" lon="5.47576">
        <ele>102</ele>
        <time>2018-11-01T20:15:37Z</time>
      </trkpt>
      <trkpt lat="50.61537" lon="5.47512">
        <ele>105</ele>
        <time>2018-11-01T20:16:37Z</time>
      </trkpt>
      <trkpt lat="50.61518" lon="5.47437">
        <ele>108</ele>
        <time>2018-11-01T20:17:37Z</time>
      </trkpt>
      <trkpt lat="50.61502" lon="5.4737">
        <ele>109</ele>
        <time>2018-11-01T20:18:37Z</time>
      </trkpt>
      <trkpt lat="50.6148" lon="5.47262">
        <ele>113</ele>
        <time>2018-11-01T20:19:37Z</time>
      </trkpt>
      <trkpt lat="50.615" lon="5.4724">
        <ele>112</ele>
        <time>2018-11-01T20:20:37Z</time>
      </trkpt>
      <trkpt lat="50.61544" lon="5.4722">
        <ele>115</ele>
        <time>2018-11-01T20:21:37Z</time>
      </trkpt>
      <trkpt lat="50.61563" lon="5.47192">
        <ele>117</ele>
        <time>2018-11-01T20:22:37Z</time>
      </trkpt>
      <trkpt lat="50.61572" lon="5.47117">
        <ele>121</ele>
        <time>2018-11-01T20:23:37Z</time>
      </trkpt>
      <trkpt lat="50.61581" lon="5.46934">
        <ele>129</ele>
        <time>2018-11-01T20:24:37Z</time>
      </trkpt>
      <trkpt lat="50.61581" lon="5.46893">
        <ele>129</ele>
        <time>2018-11-01T20:25:37Z</time>
      </trkpt>
      <trkpt lat="50.61572" lon="5.46838">
        <ele>130</ele>
        <time>2018-11-01T20:26:37Z</time>
      </trkpt>
      <trkpt lat="50.61507" lon="5.46587">
        <ele>140</ele>
        <time>2018-11-01T20:27:37Z</time>
      </trkpt>
      <trkpt lat="50.61503" lon="5.46547">
        <ele>142</ele>
        <time>2018-11-01T20:28:37Z</time>
      </trkpt>
      <trkpt lat="50.61532" lon="5.46469">
        <ele>145</ele>
        <time>2018-11-01T20:29:37Z</time>
      </trkpt>
      <trkpt lat="50.6161" lon="5.4628">
        <ele>151</ele>
        <time>2018-11-01T20:30:37Z</time>
      </trkpt>
      <trkpt lat="50.6164" lon="5.46233">
        <ele>154</ele>
        <time>2018-11-01T20:31:37Z</time>
      </trkpt>
      <trkpt lat="50.61667" lon="5.46232">
        <ele>157</ele>
        <time>2018-11-01T20:32:37Z</time>
      </trkpt>
      <trkpt lat="50.61729" lon="5.46247">
        <ele>163</ele>
        <time>2018-11-01T20:33:37Z</time>
      </trkpt>
      <trkpt lat="50.61742" lon="5.46246">
        <ele>164</ele>
        <time>2018-11-01T20:34:37Z</time>
      </trkpt>
      <trkpt lat="50.61762" lon="5.46229">
        <ele>166</ele>
        <time>2018-11-01T20:35:37Z</time>
      </trkpt>
      <trkpt lat="50.61827" lon="5.4616">
        <ele>169</ele>
        <time>2018-11-01T20:36:37Z</time>
      </trkpt>
      <trkpt lat="50.6187" lon="5.46149">
        <ele>172</ele>
        <time>2018-11-01T20:37:37Z</time>
      </trkpt>
      <trkpt lat="50.6189" lon="5.46147">
        <ele>173</ele>
        <time>2018-11-01T20:38:37Z</time>
      </trkpt>
      <trkpt lat="50.61998" lon="5.46092">
        <ele>179</ele>
        <time>2018-11-01T20:39:37Z</time>
      </trkpt>
      <trkpt lat="50.62096" lon="5.46042">
        <ele>182</ele>
        <time>2018-11-01T20:40:37Z</time>
      </trkpt>
      <trkpt lat="50.62128" lon="5.46015">
        <ele>181</ele>
        <time>2018-11-01T20:41:37Z</time>
      </trkpt>
      <trkpt lat="50.62154" lon="5.46005">
        <ele>181</ele>
        <time>2018-11-01T20:42:37Z</time>
      </trkpt>
      <trkpt lat="50.62196" lon="5.45996">
        <ele>181</ele>
        <time>2018-11-01T20:43:37Z</time>
      </trkpt>
      <trkpt lat="50.62251" lon="5.45987">
        <ele>181</ele>
        <time>2018-11-01T20:44:37Z</time>
      </trkpt>
      <trkpt lat="50.62307" lon="5.45952">
        <ele>181</ele>
        <time>2018-11-01T20:45:37Z</time>
      </trkpt>
      <trkpt lat="50.62358" lon="5.45926">
        <ele>181</ele>
        <time>2018-11-01T20:46:37Z</time>
      </trkpt>
      <trkpt lat="50.62397" lon="5.45905">
        <ele>180</ele>
        <time>2018-11-01T20:47:37Z</time>
      </trkpt>
      <trkpt lat="50.62426" lon="5.45892">
        <ele>179</ele>
        <time>2018-11-01T20:48:37Z</time>
      </trkpt>
      <trkpt lat="50.62461" lon="5.45875">
        <ele>179</ele>
        <time>2018-11-01T20:49:37Z</time>
      </trkpt>
      <trkpt lat="50.62486" lon="5.45847">
        <ele>180</ele>
        <time>2018-11-01T20:50:37Z</time>
      </trkpt>
      <trkpt lat="50.62494" lon="5.45831">
        <ele>180</ele>
        <time>2018-11-01T20:51:37Z</time>
      </trkpt>
      <trkpt lat="50.62486" lon="5.45805">
        <ele>181</ele>
        <time>2018-11-01T20:52:37Z</time>
      </trkpt>
      <trkpt lat="50.6245" lon="5.45773">
        <ele>183</ele>
        <time>2018-11-01T20:53:37Z</time>
      </trkpt>
      <trkpt lat="50.62403" lon="5.45699">
        <ele>184</ele>
        <time>2018-11-01T20:54:37Z</time>
      </trkpt>
      <trkpt lat="50.62338" lon="5.45591">
        <ele>184</ele>
        <time>2018-11-01T20:55:37Z</time>
      </trkpt>
      <trkpt lat="50.62334" lon="5.45541">
        <ele>185</ele>
        <time>2018-11-01T20:56:37Z</time>
      </trkpt>
      <trkpt lat="50.62325" lon="5.45305">
        <ele>188</ele>
        <time>2018-11-01T20:57:37Z</time>
      </trkpt>
      <trkpt lat="50.62317" lon="5.45077">
        <ele>186</ele>
        <time>2018-11-01T20:58:37Z</time>
      </trkpt>
      <trkpt lat="50.62316" lon="5.45014">
        <ele>187</ele>
        <time>2018-11-01T20:59:37Z</time>
      </trkpt>
      <trkpt lat="50.62329" lon="5.44812">
        <ele>188</ele>
        <time>2018-11-01T21:00:37Z</time>
      </trkpt>
      <trkpt lat="50.62351" lon="5.44606">
        <ele>189</ele>
        <time>2018-11-01T21:01:37Z</time>
      </trkpt>
      <trkpt lat="50.62353" lon="5.44522">
        <ele>187</ele>
        <time>2018-11-01T21:02:37Z</time>
      </trkpt>
      <trkpt lat="50.62349" lon="5.44441">
        <ele>185</ele>
        <time>2018-11-01T21:03:37Z</time>
      </trkpt>
      <trkpt lat="50.62341" lon="5.44374">
        <ele>185</ele>
        <time>2018-11-01T21:04:37Z</time>
      </trkpt>
      <trkpt lat="50.62329" lon="5.44294">
        <ele>186</ele>
        <time>2018-11-01T21:05:37Z</time>
      </trkpt>
      <trkpt lat="50.62308" lon="5.44209">
        <ele>186</ele>
        <time>2018-11-01T21:06:37Z</time>
      </trkpt>
      <trkpt lat="50.62303" lon="5.44169">
        <ele>186</ele>
        <time>2018-11-01T21:07:37Z</time>
      </trkpt>
      <trkpt lat="50.6231" lon="5.44118">
        <ele>185</ele>
        <time>2018-11-01T21:08:37Z</time>
      </trkpt>
      <trkpt lat="50.62363" lon="5.44023">
        <ele>186</ele>
        <time>2018-11-01T21:09:37Z</time>
      </trkpt>
      <trkpt lat="50.62373" lon="5.4399">
        <ele>186</ele>
        <time>2018-11-01T21:10:37Z</time>
      </trkpt>
      <trkpt lat="50.62345" lon="5.43842">
        <ele>183</ele>
        <time>2018-11-01T21:11:37Z</time>
      </trkpt>
      <trkpt lat="50.62329" lon="5.4378">
        <ele>183</ele>
        <time>2018-11-01T21:12:37Z</time>
      </trkpt>
      <trkpt lat="50.62279" lon="5.43645">
        <ele>186</ele>
        <time>2018-11-01T21:13:37Z</time>
      </trkpt>
      <trkpt lat="50.6223" lon="5.43517">
        <ele>189</ele>
        <time>2018-11-01T21:14:37Z</time>
      </trkpt>
      <trkpt lat="50.62232" lon="5.43487">
        <ele>190</ele>
        <time>2018-11-01T21:15:37Z</time>
      </trkpt>
      <trkpt lat="50.62221" lon="5.43469">
        <ele>190</ele>
        <time>2018-11-01T21:16:37Z</time>
      </trkpt>
      <trkpt lat="50.62209" lon="5.4346">
        <ele>189</ele>
        <time>2018-11-01T21:17:37Z</time>
      </trkpt>
      <trkpt lat="50.62176" lon="5.43374">
        <ele>191</ele>
        <time>2018-11-01T21:18:37Z</time>
      </trkpt>
      <trkpt lat="50.62147" lon="5.43301">
        <ele>193</ele>
        <time>2018-11-01T21:19:37Z</time>
      </trkpt>
      <trkpt lat="50.62061" lon="5.43207">
        <ele>191</ele>
        <time>2018-11-01T21:20:37Z</time>
      </trkpt>
      <trkpt lat="50.62036" lon="5.43184">
        <ele>191</ele>
        <time>2018-11-01T21:21:37Z</time>
      </trkpt>
      <trkpt lat="50.62009" lon="5.43168">
        <ele>191</ele>
        <time>2018-11-01T21:22:37Z</time>
      </trkpt>
      <trkpt lat="50.61973" lon="5.43145">
        <ele>190</ele>
        <time>2018-11-01T21:23:37Z</time>
      </trkpt>
      <trkpt lat="50.61937" lon="5.43103">
        <ele>190</ele>
        <time>2018-11-01T21:24:37Z</time>
      </trkpt>
      <trkpt lat="50.61893" lon="5.43038">
        <ele>190</ele>
        <time>2018-11-01T21:25:37Z</time>
      </trkpt>
      <trkpt lat="50.61839" lon="5.42965">
        <ele>191</ele>
        <time>2018-11-01T21:26:37Z</time>
      </trkpt>
      <trkpt lat="50.6181" lon="5.42932">
        <ele>190</ele>
        <time>2018-11-01T21:27:37Z</time>
      </trkpt>
      <trkpt lat="50.61785" lon="5.42907">
        <ele>188</ele>
        <time>2018-11-01T21:28:37Z</time>
      </trkpt>
      <trkpt lat="50.61769" lon="5.42886">
        <ele>186</ele>
        <time>2018-11-01T21:29:37Z</time>
      </trkpt>
      <trkpt lat="50.61768" lon="5.42847">
        <ele>185</ele>
        <time>2018-11-01T21:30:37Z</time>
      </trkpt>
      <trkpt lat="50.61793" lon="5.42781">
        <ele>185</ele>
        <time>2018-11-01T21:31:37Z</time>
      </trkpt>
      <trkpt lat="50.6181" lon="5.4271">
        <ele>186</ele>
        <time>2018-11-01T21:32:37Z</time>
      </trkpt>
      <trkpt lat="50.61816" lon="5.4268">
        <ele>187</ele>
        <time>2018-11-01T21:33:37Z</time>
      </trkpt>
      <trkpt lat="50.61818" lon="5.42636">
        <ele>188</ele>
        <time>2018-11-01T21:34:37Z</time>
      </trkpt>
      <trkpt lat="50.61812" lon="5.42596">
        <ele>189</ele>
        <time>2018-11-01T21:35:37Z</time>
      </trkpt>
      <trkpt lat="50.61837" lon="5.42594">
        <ele>190</ele>
        <time>2018-11-01T21:36:37Z</time>
      </trkpt>
      <trkpt lat="50.61866" lon="5.42603">
        <ele>191</ele>
        <time>2018-11-01T21:37:37Z</time>
      </trkpt>
      <trkpt lat="50.61885" lon="5.42609">
        <ele>192</ele>
        <time>2018-11-01T21:38:37Z</time>
      </trkpt>
      <trkpt lat="50.61916" lon="5.42604">
        <ele>193</ele>
        <time>2018-11-01T21:39:37Z</time>
      </trkpt>
      <trkpt lat="50.61968" lon="5.42599">
        <ele>193</ele>
        <time>2018-11-01T21:40:37Z</time>
      </trkpt>
      <trkpt lat="50.62101" lon="5.42626">
        <ele>193</ele>
        <time>2018-11-01T21:41:37Z</time>
      </trkpt>
      <trkpt lat="50.6215" lon="5.42635">
        <ele>191</ele>
        <time>2018-11-01T21:42:37Z</time>
      </trkpt>
      <trkpt lat="50.62172" lon="5.42624">
        <ele>190</ele>
        <time>2018-11-01T21:43:37Z</time>
      </trkpt>
      <trkpt lat="50.62194" lon="5.42568">
        <ele>189</ele>
        <time>2018-11-01T21:44:37Z</time>
      </trkpt>
      <trkpt lat="50.62209" lon="5.42554">
        <ele>188</ele>
        <time>2018-11-01T21:45:37Z</time>
      </trkpt>
      <trkpt lat="50.62247" lon="5.4256">
        <ele>186</ele>
        <time>2018-11-01T21:46:37Z</time>
      </trkpt>
      <trkpt lat="50.62278" lon="5.42542">
        <ele>186</ele>
        <time>2018-11-01T21:47:37Z</time>
      </trkpt>
      <trkpt lat="50.62301" lon="5.4255">
        <ele>187</ele>
        <time>2018-11-01T21:48:37Z</time>
      </trkpt>
      <trkpt lat="50.62315" lon="5.42533">
        <ele>186</ele>
        <time>2018-11-01T21:49:37Z</time>
      </trkpt>
      <trkpt lat="50.62314" lon="5.42498">
        <ele>185</ele>
        <time>2018-11-01T21:50:37Z</time>
      </trkpt>
      <trkpt lat="50.62334" lon="5.42456">
        <ele>184</ele>
        <time>2018-11-01T21:51:37Z</time>
      </trkpt>
      <trkpt lat="50.62357" lon="5.42413">
        <ele>183</ele>
        <time>2018-11-01T21:52:37Z</time>
      </trkpt>
      <trkpt lat="50.62373" lon="5.42407">
        <ele>183</ele>
        <time>2018-11-01T21:53:37Z</time>
      </trkpt>
      <trkpt lat="50.62384" lon="5.42379">
        <ele>182</ele>
        <time>2018-11-01T21:54:37Z</time>
      </trkpt>
      <trkpt lat="50.62375" lon="5.42343">
        <ele>180</ele>
        <time>2018-11-01T21:55:37Z</time>
      </trkpt>
      <trkpt lat="50.62415" lon="5.42221">
        <ele>179</ele>
        <time>2018-11-01T21:56:37Z</time>
      </trkpt>
      <trkpt lat="50.62433" lon="5.42176">
        <ele>179</ele>
        <time>2018-11-01T21:57:37Z</time>
      </trkpt>
      <trkpt lat="50.62452" lon="5.42148">
        <ele>179</ele>
        <time>2018-11-01T21:58:37Z</time>
      </trkpt>
      <trkpt lat="50.62493" lon="5.42133">
        <ele>181</ele>
        <time>2018-11-01T21:59:37Z</time>
      </trkpt>
      <trkpt lat="50.62524" lon="5.42109">
        <ele>180</ele>
        <time>2018-11-01T22:00:37Z</time>
      </trkpt>
      <trkpt lat="50.62557" lon="5.42072">
        <ele>179</ele>
        <time>2018-11-01T22:01:37Z</time>
      </trkpt>
      <trkpt lat="50.62604" lon="5.42011">
        <ele>177</ele>
        <time>2018-11-01T22:02:37Z</time>
      </trkpt>
      <trkpt lat="50.62631" lon="5.41976">
        <ele>177</ele>
        <time>2018-11-01T22:03:37Z</time>
      </trkpt>
      <trkpt lat="50.62661" lon="5.41946">
        <ele>176</ele>
        <time>2018-11-01T22:04:37Z</time>
      </trkpt>
      <trkpt lat="50.62679" lon="5.41931">
        <ele>175</ele>
        <time>2018-11-01T22:05:37Z</time>
      </trkpt>
      <trkpt lat="50.62747" lon="5.41908">
        <ele>176</ele>
        <time>2018-11-01T22:06:37Z</time>
      </trkpt>
      <trkpt lat="50.62769" lon="5.41915">
        <ele>176</ele>
        <time>2018-11-01T22:07:37Z</time>
      </trkpt>
      <trkpt lat="50.62789" lon="5.41927">
        <ele>176</ele>
        <time>2018-11-01T22:08:37Z</time>
      </trkpt>
      <trkpt lat="50.62881" lon="5.42012">
        <ele>174</ele>
        <time>2018-11-01T22:09:37Z</time>
      </trkpt>
      <trkpt lat="50.62977" lon="5.42095">
        <ele>172</ele>
        <time>2018-11-01T22:10:37Z</time>
      </trkpt>
      <trkpt lat="50.63065" lon="5.42159">
        <ele>172</ele>
        <time>2018-11-01T22:11:37Z</time>
      </trkpt>
      <trkpt lat="50.63174" lon="5.42226">
        <ele>172</ele>
        <time>2018-11-01T22:12:37Z</time>
      </trkpt>
      <trkpt lat="50.63229" lon="5.42259">
        <ele>171</ele>
        <time>2018-11-01T22:13:37Z</time>
      </trkpt>
      <trkpt lat="50.63422" lon="5.42361">
        <ele>177</ele>
        <time>2018-11-01T22:14:37Z</time>
      </trkpt>
      <trkpt lat="50.63578" lon="5.42443">
        <ele>182</ele>
        <time>2018-11-01T22:15:37Z</time>
      </trkpt>
      <trkpt lat="50.63629" lon="5.42469">
        <ele>182</ele>
        <time>2018-11-01T22:16:37Z</time>
      </trkpt>
      <trkpt lat="50.6366" lon="5.42486">
        <ele>183</ele>
        <time>2018-11-01T22:17:37Z</time>
      </trkpt>
      <trkpt lat="50.63667" lon="5.42516">
        <ele>183</ele>
        <time>2018-11-01T22:18:37Z</time>
      </trkpt>
      <trkpt lat="50.63683" lon="5.42526">
        <ele>184</ele>
        <time>2018-11-01T22:19:37Z</time>
      </trkpt>
      <trkpt lat="50.63708" lon="5.42514">
        <ele>184</ele>
        <time>2018-11-01T22:20:37Z</time>
      </trkpt>
      <trkpt lat="50.638" lon="5.42562">
        <ele>185</ele>
        <time>2018-11-01T22:21:37Z</time>
      </trkpt>
      <trkpt lat="50.639" lon="5.42615">
        <ele>184</ele>
        <time>2018-11-01T22:22:37Z</time>
      </trkpt>
      <trkpt lat="50.63912" lon="5.42622">
        <ele>184</ele>
        <time>2018-11-01T22:23:37Z</time>
      </trkpt>
      <trkpt lat="50.63931" lon="5.42642">
        <ele>184</ele>
        <time>2018-11-01T22:24:37Z</time>
      </trkpt>
      <trkpt lat="50.63945" lon="5.42664">
        <ele>184</ele>
        <time>2018-11-01T22:25:37Z</time>
      </trkpt>
      <trkpt lat="50.63993" lon="5.42748">
        <ele>184</ele>
        <time>2018-11-01T22:26:37Z</time>
      </trkpt>
      <trkpt lat="50.64008" lon="5.42774">
        <ele>184</ele>
        <time>2018-11-01T22:27:37Z</time>
      </trkpt>
      <trkpt lat="50.64026" lon="5.4278">
        <ele>184</ele>
        <time>2018-11-01T22:28:37Z</time>
      </trkpt>
      <trkpt lat="50.64045" lon="5.42761">
        <ele>183</ele>
        <time>2018-11-01T22:29:37Z</time>
      </trkpt>
      <trkpt lat="50.64078" lon="5.42719">
        <ele>182</ele>
        <time>2018-11-01T22:30:37Z</time>
      </trkpt>
      <trkpt lat="50.64111" lon="5.42685">
        <ele>181</ele>
        <time>2018-11-01T22:31:37Z</time>
      </trkpt>
      <trkpt lat="50.6418" lon="5.42595">
        <ele>179</ele>
        <time>2018-11-01T22:32:37Z</time>
      </trkpt>
      <trkpt lat="50.64243" lon="5.42511">
        <ele>175</ele>
        <time>2018-11-01T22:33:37Z</time>
      </trkpt>
      <trkpt lat="50.64284" lon="5.42454">
        <ele>175</ele>
        <time>2018-11-01T22:34:37Z</time>
      </trkpt>
      <trkpt lat="50.64293" lon="5.4245">
        <ele>175</ele>
        <time>2018-11-01T22:35:37Z</time>
      </trkpt>
      <trkpt lat="50.64308" lon="5.4247">
        <ele>174</ele>
        <time>2018-11-01T22:36:37Z</time>
      </trkpt>
      <trkpt lat="50.6434" lon="5.42518">
        <ele>173</ele>
        <time>2018-11-01T22:37:37Z</time>
      </trkpt>
      <trkpt lat="50.64357" lon="5.4254">
        <ele>173</ele>
        <time>2018-11-01T22:38:37Z</time>
      </trkpt>
      <trkpt lat="50.64369" lon="5.4255">
        <ele>172</ele>
        <time>2018-11-01T22:39:37Z</time>
      </trkpt>
      <trkpt lat="50.64395" lon="5.42549">
        <ele>173</ele>
        <time>2018-11-01T22:40:37Z</time>
      </trkpt>
      <trkpt lat="50.64418" lon="5.4255">
        <ele>173</ele>
        <time>2018-11-01T22:41:37Z</time>
      </trkpt>
      <trkpt lat="50.64456" lon="5.42566">
        <ele>172</ele>
        <time>2018-11-01T22:42:37Z</time>
      </trkpt>
      <trkpt lat="50.64508" lon="5.42601">
        <ele>172</ele>
        <time>2018-11-01T22:43:37Z</time>
      </trkpt>
      <trkpt lat="50.64551" lon="5.42634">
        <ele>170</ele>
        <time>2018-11-01T22:44:37Z</time>
      </trkpt>
      <trkpt lat="50.64584" lon="5.4267">
        <ele>169</ele>
        <time>2018-11-01T22:45:37Z</time>
      </trkpt>
      <trkpt lat="50.64619" lon="5.42715">
        <ele>169</ele>
        <time>2018-11-01T22:46:37Z</time>
      </trkpt>
      <trkpt lat="50.64634" lon="5.42739">
        <ele>168</ele>
        <time>2018-11-01T22:47:37Z</time>
      </trkpt>
      <trkpt lat="50.64648" lon="5.42755">
        <ele>167</ele>
        <time>2018-11-01T22:48:37Z</time>
      </trkpt>
      <trkpt lat="50.64661" lon="5.42756">
        <ele>167</ele>
        <time>2018-11-01T22:49:37Z</time>
      </trkpt>
      <trkpt lat="50.64681" lon="5.42731">
        <ele>167</ele>
        <time>2018-11-01T22:50:37Z</time>
      </trkpt>
      <trkpt lat="50.64702" lon="5.42704">
        <ele>168</ele>
        <time>2018-11-01T22:51:37Z</time>
      </trkpt>
      <trkpt lat="50.64729" lon="5.42734">
        <ele>167</ele>
        <time>2018-11-01T22:52:37Z</time>
      </trkpt>
      <trkpt lat="50.64752" lon="5.42756">
        <ele>166</ele>
        <time>2018-11-01T22:53:37Z</time>
      </trkpt>
      <trkpt lat="50.64776" lon="5.42778">
        <ele>165</ele>
        <time>2018-11-01T22:54:37Z</time>
      </trkpt>
      <trkpt lat="50.64799" lon="5.42785">
        <ele>165</ele>
        <time>2018-11-01T22:55:37Z</time>
      </trkpt>
      <trkpt lat="50.64844" lon="5.42796">
        <ele>164</ele>
        <time>2018-11-01T22:56:37Z</time>
      </trkpt>
      <trkpt lat="50.64915" lon="5.42805">
        <ele>164</ele>
        <time>2018-11-01T22:57:37Z</time>
      </trkpt>
      <trkpt lat="50.64981" lon="5.42799">
        <ele>164</ele>
        <time>2018-11-01T22:58:37Z</time>
      </trkpt>
      <trkpt lat="50.65003" lon="5.42807">
        <ele>164</ele>
        <time>2018-11-01T22:59:37Z</time>
      </trkpt>
      <trkpt lat="50.65069" lon="5.42845">
        <ele>163</ele>
        <time>2018-11-01T23:00:37Z</time>
      </trkpt>
      <trkpt lat="50.65102" lon="5.42861">
        <ele>163</ele>
        <time>2018-11-01T23:01:37Z</time>
      </trkpt>
      <trkpt lat="50.65201" lon="5.42888">
        <ele>162</ele>
        <time>2018-11-01T23:02:37Z</time>
      </trkpt>
      <trkpt lat="50.6522" lon="5.42892">
        <ele>162</ele>
        <time>2018-11-01T23:03:37Z</time>
      </trkpt>
      <trkpt lat="50.65233" lon="5.42892">
        <ele>162</ele>
        <time>2018-11-01T23:04:37Z</time>
      </trkpt>
      <trkpt lat="50.65286" lon="5.42888">
        <ele>162</ele>
        <time>2018-11-01T23:05:37Z</time>
      </trkpt>
      <trkpt lat="50.65349" lon="5.42904">
        <ele>162</ele>
        <time>2018-11-01T23:06:37Z</time>
      </trkpt>
      <trkpt lat="50.65377" lon="5.42905">
        <ele>162</ele>
        <time>2018-11-01T23:07:37Z</time>
      </trkpt>
      <trkpt lat="50.65424" lon="5.42899">
        <ele>162</ele>
        <time>2018-11-01T23:08:37Z</time>
      </trkpt>
      <trkpt lat="50.65454" lon="5.429">
        <ele>163</ele>
        <time>2018-11-01T23:09:37Z</time>
      </trkpt>
      <trkpt lat="50.65492" lon="5.42915">
        <ele>164</ele>
        <time>2018-11-01T23:10:37Z</time>
      </trkpt>
      <trkpt lat="50.65541" lon="5.42936">
        <ele>163</ele>
        <time>2018-11-01T23:11:37Z</time>
      </trkpt>
      <trkpt lat="50.65576" lon="5.42955">
        <ele>162</ele>
        <time>2018-11-01T23:12:37Z</time>
      </trkpt>
      <trkpt lat="50.65664" lon="5.43002">
        <ele>163</ele>
        <time>2018-11-01T23:13:37Z</time>
      </trkpt>
      <trkpt lat="50.65688" lon="5.43012">
        <ele>163</ele>
        <time>2018-11-01T23:14:37Z</time>
      </trkpt>
      <trkpt lat="50.65783" lon="5.43043">
        <ele>162</ele>
        <time>2018-11-01T23:15:37Z</time>
      </trkpt>
      <trkpt lat="50.65825" lon="5.43056">
        <ele>163</ele>
        <time>2018-11-01T23:16:37Z</time>
      </trkpt>
      <trkpt lat="50.65914" lon="5.43099">
        <ele>164</ele>
        <time>2018-11-01T23:17:37Z</time>
      </trkpt>
      <trkpt lat="50.65958" lon="5.43119">
        <ele>162</ele>
        <time>2018-11-01T23:18:37Z</time>
      </trkpt>
      <trkpt lat="50.66014" lon="5.43114">
        <ele>160</ele>
        <time>2018-11-01T23:19:37Z</time>
      </trkpt>
      <trkpt lat="50.66159" lon="5.43166">
        <ele>158</ele>
        <time>2018-11-01T23:20:37Z</time>
      </trkpt>
      <trkpt lat="50.66178" lon="5.43171">
        <ele>158</ele>
        <time>2018-11-01T23:21:37Z</time>
      </trkpt>
      <trkpt lat="50.66216" lon="5.43172">
        <ele>157</ele>
        <time>2018-11-01T23:22:37Z</time>
      </trkpt>
      <trkpt lat="50.66246" lon="5.43163">
        <ele>156</ele>
        <time>2018-11-01T23:23:37Z</time>
      </trkpt>
      <trkpt lat="50.66269" lon="5.4315">
        <ele>156</ele>
        <time>2018-11-01T23:24:37Z</time>
      </trkpt>
      <trkpt lat="50.66318" lon="5.43134">
        <ele>154</ele>
        <time>2018-11-01T23:25:37Z</time>
      </trkpt>
      <trkpt lat="50.66343" lon="5.43128">
        <ele>154</ele>
        <time>2018-11-01T23:26:37Z</time>
      </trkpt>
      <trkpt lat="50.664" lon="5.43138">
        <ele>155</ele>
        <time>2018-11-01T23:27:37Z</time>
      </trkpt>
      <trkpt lat="50.66461" lon="5.43165">
        <ele>157</ele>
        <time>2018-11-01T23:28:37Z</time>
      </trkpt>
      <trkpt lat="50.66502" lon="5.43186">
        <ele>158</ele>
        <time>2018-11-01T23:29:37Z</time>
      </trkpt>
      <trkpt lat="50.66546" lon="5.43204">
        <ele>158</ele>
        <time>2018-11-01T23:30:37Z</time>
      </trkpt>
      <trkpt lat="50.66609" lon="5.43234">
        <ele>157</ele>
        <time>2018-11-01T23:31:37Z</time>
      </trkpt>
      <trkpt lat="50.66708" lon="5.43276">
        <ele>156</ele>
        <time>2018-11-01T23:32:37Z</time>
      </trkpt>
      <trkpt lat="50.66753" lon="5.43298">
        <ele>156</ele>
        <time>2018-11-01T23:33:37Z</time>
      </trkpt>
      <trkpt lat="50.66811" lon="5.43319">
        <ele>155</ele>
        <time>2018-11-01T23:34:37Z</time>
      </trkpt>
      <trkpt lat="50.66882" lon="5.43321">
        <ele>154</ele>
        <time>2018-11-01T23:35:37Z</time>
      </trkpt>
      <trkpt lat="50.66909" lon="5.43321">
        <ele>153</ele>
        <time>2018-11-01T23:36:37Z</time>
      </trkpt>
      <trkpt lat="50.66941" lon="5.43328">
        <ele>153</ele>
        <time>2018-11-01T23:37:37Z</time>
      </trkpt>
      <trkpt lat="50.66962" lon="5.4334">
        <ele>152</ele>
        <time>2018-11-01T23:38:37Z</time>
      </trkpt>
      <trkpt lat="50.66989" lon="5.43354">
        <ele>152</ele>
        <time>2018-11-01T23:39:37Z</time>
      </trkpt>
      <trkpt lat="50.67022" lon="5.43375">
        <ele>153</ele>
        <time>2018-11-01T23:40:37Z</time>
      </trkpt>
      <trkpt lat="50.67132" lon="5.43458">
        <ele>153</ele>
        <time>2018-11-01T23:41:37Z</time>
      </trkpt>
      <trkpt lat="50.67162" lon="5.43479">
        <ele>152</ele>
        <time>2018-11-01T23:42:37Z</time>
      </trkpt>
      <trkpt lat="50.6724" lon="5.43506">
        <ele>155</ele>
        <time>2018-11-01T23:43:37Z</time>
      </trkpt>
      <trkpt lat="50.67327" lon="5.43525">
        <ele>157</ele>
        <time>2018-11-01T23:44:37Z</time>
      </trkpt>
      <trkpt lat="50.67355" lon="5.43532">
        <ele>157</ele>
        <time>2018-11-01T23:45:37Z</time>
      </trkpt>
      <trkpt lat="50.67408" lon="5.43549">
        <ele>156</ele>
        <time>2018-11-01T23:46:37Z</time>
      </trkpt>
      <trkpt lat="50.67452" lon="5.43564">
        <ele>155</ele>
        <time>2018-11-01T23:47:37Z</time>
      </trkpt>
      <trkpt lat="50.67482" lon="5.43576">
        <ele>155</ele>
        <time>2018-11-01T23:48:37Z</time>
      </trkpt>
      <trkpt lat="50.67521" lon="5.43588">
        <ele>155</ele>
        <time>2018-11-01T23:49:37Z</time>
      </trkpt>
      <trkpt lat="50.67546" lon="5.43597">
        <ele>154</ele>
        <time>2018-11-01T23:50:37Z</time>
      </trkpt>
      <trkpt lat="50.67585" lon="5.43609">
        <ele>154</ele>
        <time>2018-11-01T23:51:37Z</time>
      </trkpt>
      <trkpt lat="50.67603" lon="5.43608">
        <ele>154</ele>
        <time>2018-11-01T23:52:37Z</time>
      </trkpt>
      <trkpt lat="50.67632" lon="5.43634">
        <ele>154</ele>
        <time>2018-11-01T23:53:37Z</time>
      </trkpt>
      <trkpt lat="50.67736" lon="5.43735">
        <ele>155</ele>
        <time>2018-11-01T23:54:37Z</time>
      </trkpt>
      <trkpt lat="50.67767" lon="5.43766">
        <ele>155</ele>
        <time>2018-11-01T23:55:37Z</time>
      </trkpt>
      <trkpt lat="50.67814" lon="5.43809">
        <ele>156</ele>
        <time>2018-11-01T23:56:37Z</time>
      </trkpt>
      <trkpt lat="50.67837" lon="5.43819">
        <ele>156</ele>
        <time>2018-11-01T23:57:37Z</time>
      </trkpt>
      <trkpt lat="50.67868" lon="5.43806">
        <ele>156</ele>
        <time>2018-11-01T23:58:37Z</time>
      </trkpt>
      <trkpt lat="50.67882" lon="5.43785">
        <ele>156</ele>
        <time>2018-11-01T23:59:37Z</time>
      </trkpt>
      <trkpt lat="50.67909" lon="5.43734">
        <ele>155</ele>
        <time>2018-11-02T00:00:37Z</time>
      </trkpt>
      <trkpt lat="50.67925" lon="5.43717">
        <ele>155</ele>
        <time>2018-11-02T00:01:37Z</time>
      </trkpt>
      <trkpt lat="50.67944" lon="5.43719">
        <ele>154</ele>
        <time>2018-11-02T00:02:37Z</time>
      </trkpt>
      <trkpt lat="50.67972" lon="5.43738">
        <ele>154</ele>
        <time>2018-11-02T00:03:37Z</time>
      </trkpt>
      <trkpt lat="50.68" lon="5.43741">
        <ele>153</ele>
        <time>2018-11-02T00:04:37Z</time>
      </trkpt>
      <trkpt lat="50.6802" lon="5.43726">
        <ele>153</ele>
        <time>2018-11-02T00:05:37Z</time>
      </trkpt>
      <trkpt lat="50.68066" lon="5.43682">
        <ele>152</ele>
        <time>2018-11-02T00:06:37Z</time>
      </trkpt>
      <trkpt lat="50.68105" lon="5.43589">
        <ele>149</ele>
        <time>2018-11-02T00:07:37Z</time>
      </trkpt>
      <trkpt lat="50.68127" lon="5.43552">
        <ele>148</ele>
        <time>2018-11-02T00:08:37Z</time>
      </trkpt>
      <trkpt lat="50.68167" lon="5.43493">
        <ele>148</ele>
        <time>2018-11-02T00:09:37Z</time>
      </trkpt>
      <trkpt lat="50.68197" lon="5.43444">
        <ele>148</ele>
        <time>2018-11-02T00:10:37Z</time>
      </trkpt>
      <trkpt lat="50.68216" lon="5.43438">
        <ele>148</ele>
        <time>2018-11-02T00:11:37Z</time>
      </trkpt>
      <trkpt lat="50.68287" lon="5.43476">
        <ele>149</ele>
        <time>2018-11-02T00:12:37Z</time>
      </trkpt>
      <trkpt lat="50.68332" lon="5.435">
        <ele>150</ele>
        <time>2018-11-02T00:13:37Z</time>
      </trkpt>
      <trkpt lat="50.6837" lon="5.4352">
        <ele>148</ele>
        <time>2018-11-02T00:14:37Z</time>
      </trkpt>
      <trkpt lat="50.68424" lon="5.43543">
        <ele>146</ele>
        <time>2018-11-02T00:15:37Z</time>
      </trkpt>
      <trkpt lat="50.6845" lon="5.4355">
        <ele>146</ele>
        <time>2018-11-02T00:16:37Z</time>
      </trkpt>
      <trkpt lat="50.68547" lon="5.43575">
        <ele>146</ele>
        <time>2018-11-02T00:17:37Z</time>
      </trkpt>
      <trkpt lat="50.68752" lon="5.43621">
        <ele>146</ele>
        <time>2018-11-02T00:18:37Z</time>
      </trkpt>
      <trkpt lat="50.68808" lon="5.43636">
        <ele>146</ele>
        <time>2018-11-02T00:19:37Z</time>
      </trkpt>
      <trkpt lat="50.68978" lon="5.43676">
        <ele>145</ele>
        <time>2018-11-02T00:20:37Z</time>
      </trkpt>
      <trkpt lat="50.69008" lon="5.43684">
        <ele>145</ele>
        <time>2018-11-02T00:21:37Z</time>
      </trkpt>
      <trkpt lat="50.69063" lon="5.43708">
        <ele>144</ele>
        <time>2018-11-02T00:22:37Z</time>
      </trkpt>
      <trkpt lat="50.69144" lon="5.43746">
        <ele>144</ele>
        <time>2018-11-02T00:23:37Z</time>
      </trkpt>
      <trkpt lat="50.69224" lon="5.43791">
        <ele>144</ele>
        <time>2018-11-02T00:24:37Z</time>
      </trkpt>
      <trkpt lat="50.69287" lon="5.43827">
        <ele>144</ele>
        <time>2018-11-02T00:25:37Z</time>
      </trkpt>
      <trkpt lat="50.69323" lon="5.4384">
        <ele>143</ele>
        <time>2018-11-02T00:26:37Z</time>
      </trkpt>
      <trkpt lat="50.69335" lon="5.43843">
        <ele>143</ele>
        <time>2018-11-02T00:27:37Z</time>
      </trkpt>
      <trkpt lat="50.69351" lon="5.43841">
        <ele>143</ele>
        <time>2018-11-02T00:28:37Z</time>
      </trkpt>
      <trkpt lat="50.69479" lon="5.43817">
        <ele>143</ele>
        <time>2018-11-02T00:29:37Z</time>
      </trkpt>
      <trkpt lat="50.69524" lon="5.43809">
        <ele>144</ele>
        <time>2018-11-02T00:30:37Z</time>
      </trkpt>
      <trkpt lat="50.69558" lon="5.43822">
        <ele>145</ele>
        <time>2018-11-02T00:31:37Z</time>
      </trkpt>
      <trkpt lat="50.69626" lon="5.43854">
        <ele>145</ele>
        <time>2018-11-02T00:32:37Z</time>
      </trkpt>
      <trkpt lat="50.69739" lon="5.43906">
        <ele>142</ele>
        <time>2018-11-02T00:33:37Z</time>
      </trkpt>
      <trkpt lat="50.69821" lon="5.43945">
        <ele>141</ele>
        <time>2018-11-02T00:34:37Z</time>
      </trkpt>
      <trkpt lat="50.69858" lon="5.43957">
        <ele>141</ele>
        <time>2018-11-02T00:35:37Z</time>
      </trkpt>
      <trkpt lat="50.70055" lon="5.43983">
        <ele>138</ele>
        <time>2018-11-02T00:36:37Z</time>
      </trkpt>
      <trkpt lat="50.70099" lon="5.43995">
        <ele>137</ele>
        <time>2018-11-02T00:37:37Z</time>
      </trkpt>
      <trkpt lat="50.70149" lon="5.44012">
        <ele>135</ele>
        <time>2018-11-02T00:38:37Z</time>
      </trkpt>
      <trkpt lat="50.70199" lon="5.44031">
        <ele>135</ele>
        <time>2018-11-02T00:39:37Z</time>
      </trkpt>
      <trkpt lat="50.70269" lon="5.44057">
        <ele>136</ele>
        <time>2018-11-02T00:40:37Z</time>
      </trkpt>
      <trkpt lat="50.7032" lon="5.44079">
        <ele>138</ele>
        <time>2018-11-02T00:41:37Z</time>
      </trkpt>
      <trkpt lat="50.70348" lon="5.4408">
        <ele>140</ele>
        <time>2018-11-02T00:42:37Z</time>
      </trkpt>
      <trkpt lat="50.70436" lon="5.4403">
        <ele>142</ele>
        <time>2018-11-02T00:43:37Z</time>
      </trkpt>
      <trkpt lat="50.7044" lon="5.43947">
        <ele>142</ele>
        <time>2018-11-02T00:44:37Z</time>
      </trkpt>
      <trkpt lat="50.70451" lon="5.43915">
        <ele>142</ele>
        <time>2018-11-02T00:45:37Z</time>
      </trkpt>
      <trkpt lat="50.70468" lon="5.43914">
        <ele>143</ele>
        <time>2018-11-02T00:46:37Z</time>
      </trkpt>
      <trkpt lat="50.7048" lon="5.43901">
        <ele>143</ele>
        <time>2018-11-02T00:47:37Z</time>
      </trkpt>
      <trkpt lat="50.70545" lon="5.43889">
        <ele>143</ele>
        <time>2018-11-02T00:48:37Z</time>
      </trkpt>
      <trkpt lat="50.70575" lon="5.43881">
        <ele>143</ele>
        <time>2018-11-02T00:49:37Z</time>
      </trkpt>
      <trkpt lat="50.70681" lon="5.43822">
        <ele>143</ele>
        <time>2018-11-02T00:50:37Z</time>
      </trkpt>
      <trkpt lat="50.70715" lon="5.43801">
        <ele>142</ele>
        <time>2018-11-02T00:51:37Z</time>
      </trkpt>
      <trkpt lat="50.70789" lon="5.43794">
        <ele>141</ele>
        <time>2018-11-02T00:52:37Z</time>
      </trkpt>
      <trkpt lat="50.70846" lon="5.43789">
        <ele>140</ele>
        <time>2018-11-02T00:53:37Z</time>
      </trkpt>
      <trkpt lat="50.70865" lon="5.43785">
        <ele>140</ele>
        <time>2018-11-02T00:54:37Z</time>
      </trkpt>
      <trkpt lat="50.70886" lon="5.43769">
        <ele>139</ele>
        <time>2018-11-02T00:55:37Z</time>
      </trkpt>
      <trkpt lat="50.70958" lon="5.43701">
        <ele>138</ele>
        <time>2018-11-02T00:56:37Z</time>
      </trkpt>
      <trkpt lat="50.71012" lon="5.4365">
        <ele>138</ele>
        <time>2018-11-02T00:57:37Z</time>
      </trkpt>
      <trkpt lat="50.71073" lon="5.43606">
        <ele>137</ele>
        <time>2018-11-02T00:58:37Z</time>
      </trkpt>
      <trkpt lat="50.71131" lon="5.43586">
        <ele>136</ele>
        <time>2018-11-02T00:59:37Z</time>
      </trkpt>
      <trkpt lat="50.7135" lon="5.43597">
        <ele>136</ele>
        <time>2018-11-02T01:00:37Z</time>
      </trkpt>
      <trkpt lat="50.71379" lon="5.43597">
        <ele>136</ele>
        <time>2018-11-02T01:01:37Z</time>
      </trkpt>
      <trkpt lat="50.7141" lon="5.43591">
        <ele>135</ele>
        <time>2018-11-02T01:02:37Z</time>
      </trkpt>
      <trkpt lat="50.71451" lon="5.43579">
        <ele>135</ele>
        <time>2018-11-02T01:03:37Z</time>
      </trkpt>
      <trkpt lat="50.71496" lon="5.43561">
        <ele>134</ele>
        <time>2018-11-02T01:04:37Z</time>
      </trkpt>
      <trkpt lat="50.71519" lon="5.43547">
        <ele>133</ele>
        <time>2018-11-02T01:05:37Z</time>
      </trkpt>
      <trkpt lat="50.71557" lon="5.43513">
        <ele>132</ele>
        <time>2018-11-02T01:06:37Z</time>
      </trkpt>
      <trkpt lat="50.71614" lon="5.43457">
        <ele>133</ele>
        <time>2018-11-02T01:07:37Z</time>
      </trkpt>
      <trkpt lat="50.71671" lon="5.43394">
        <ele>134</ele>
        <time>2018-11-02T01:08:37Z</time>
      </trkpt>
      <trkpt lat="50.71739" lon="5.43313">
        <ele>133</ele>
        <time>2018-11-02T01:09:37Z</time>
      </trkpt>
      <trkpt lat="50.71797" lon="5.43247">
        <ele>133</ele>
        <time>2018-11-02T01:10:37Z</time>
      </trkpt>
      <trkpt lat="50.71824" lon="5.43221">
        <ele>133</ele>
        <time>2018-11-02T01:11:37Z</time>
      </trkpt>
      <trkpt lat="50.71854" lon="5.432">
        <ele>133</ele>
        <time>2018-11-02T01:12:37Z</time>
      </trkpt>
      <trkpt lat="50.71906" lon="5.43187">
        <ele>130</ele>
        <time>2018-11-02T01:13:37Z</time>
      </trkpt>
      <trkpt lat="50.71966" lon="5.43177">
        <ele>129</ele>
        <time>2018-11-02T01:14:37Z</time>
      </trkpt>
      <trkpt lat="50.72008" lon="5.43165">
        <ele>128</ele>
        <time>2018-11-02T01:15:37Z</time>
      </trkpt>
      <trkpt lat="50.72036" lon="5.43148">
        <ele>127</ele>
        <time>2018-11-02T01:16:37Z</time>
      </trkpt>
      <trkpt lat="50.72052" lon="5.43135">
        <ele>127</ele>
        <time>2018-11-02T01:17:37Z</time>
      </trkpt>
      <trkpt lat="50.72128" lon="5.4305">
        <ele>128</ele>
        <time>2018-11-02T01:18:37Z</time>
      </trkpt>
      <trkpt lat="50.72172" lon="5.42997">
        <ele>130</ele>
        <time>2018-11-02T01:19:37Z</time>
      </trkpt>
      <trkpt lat="50.72219" lon="5.42936">
        <ele>132</ele>
        <time>2018-11-02T01:20:37Z</time>
      </trkpt>
      <trkpt lat="50.72265" lon="5.42873">
        <ele>133</ele>
        <time>2018-11-02T01:21:37Z</time>
      </trkpt>
      <trkpt lat="50.72292" lon="5.42839">
        <ele>132</ele>
        <time>2018-11-02T01:22:37Z</time>
      </trkpt>
      <trkpt lat="50.72318" lon="5.42809">
        <ele>131</ele>
        <time>2018-11-02T01:23:37Z</time>
      </trkpt>
      <trkpt lat="50.72337" lon="5.42793">
        <ele>131</ele>
        <time>2018-11-02T01:24:37Z</time>
      </trkpt>
      <trkpt lat="50.72343" lon="5.42787">
        <ele>131</ele>
        <time>2018-11-02T01:25:37Z</time>
      </trkpt>
      <trkpt lat="50.72385" lon="5.42734">
        <ele>130</ele>
        <time>2018-11-02T01:26:37Z</time>
      </trkpt>
      <trkpt lat="50.72458" lon="5.4264">
        <ele>129</ele>
        <time>2018-11-02T01:27:37Z</time>
      </trkpt>
      <trkpt lat="50.72478" lon="5.42614">
        <ele>128</ele>
        <time>2018-11-02T01:28:37Z</time>
      </trkpt>
      <trkpt lat="50.72491" lon="5.42599">
        <ele>128</ele>
        <time>2018-11-02T01:29:37Z</time>
      </trkpt>
      <trkpt lat="50.72506" lon="5.42587">
        <ele>127</ele>
        <time>2018-11-02T01:30:37Z</time>
      </trkpt>
      <trkpt lat="50.72524" lon="5.42585">
        <ele>127</ele>
        <time>2018-11-02T01:31:37Z</time>
      </trkpt>
      <trkpt lat="50.7254" lon="5.42594">
        <ele>127</ele>
        <time>2018-11-02T01:32:37Z</time>
      </trkpt>
      <trkpt lat="50.72552" lon="5.42608">
        <ele>127</ele>
        <time>2018-11-02T01:33:37Z</time>
      </trkpt>
      <trkpt lat="50.72579" lon="5.42647">
        <ele>127</ele>
        <time>2018-11-02T01:34:37Z</time>
      </trkpt>
      <trkpt lat="50.72599" lon="5.4267">
        <ele>127</ele>
        <time>2018-11-02T01:35:37Z</time>
      </trkpt>
      <trkpt lat="50.72617" lon="5.42689">
        <ele>127</ele>
        <time>2018-11-02T01:36:37Z</time>
      </trkpt>
      <trkpt lat="50.72624" lon="5.42671">
        <ele>126</ele>
        <time>2018-11-02T01:37:37Z</time>
      </trkpt>
      <trkpt lat="50.72644" lon="5.42628">
        <ele>125</ele>
        <time>2018-11-02T01:38:37Z</time>
      </trkpt>
      <trkpt lat="50.72672" lon="5.42573">
        <ele>124</ele>
        <time>2018-11-02T01:39:37Z</time>
      </trkpt>
      <trkpt lat="50.72692" lon="5.4251">
        <ele>123</ele>
        <time>2018-11-02T01:40:37Z</time>
      </trkpt>
      <trkpt lat="50.72717" lon="5.42433">
        <ele>124</ele>
        <time>2018-11-02T01:41:37Z</time>
      </trkpt>
      <trkpt lat="50.72729" lon="5.42403">
        <ele>125</ele>
        <time>2018-11-02T01:42:37Z</time>
      </trkpt>
      <trkpt lat="50.72757" lon="5.42345">
        <ele>127</ele>
        <time>2018-11-02T01:43:37Z</time>
      </trkpt>
      <trkpt lat="50.72767" lon="5.42325">
        <ele>127</ele>
        <time>2018-11-02T01:44:37Z</time>
      </trkpt>
      <trkpt lat="50.72811" lon="5.42282">
        <ele>127</ele>
        <time>2018-11-02T01:45:37Z</time>
      </trkpt>
      <trkpt lat="50.7283" lon="5.42269">
        <ele>127</ele>
        <time>2018-11-02T01:46:37Z</time>
      </trkpt>
      <trkpt lat="50.7286" lon="5.42247">
        <ele>127</ele>
        <time>2018-11-02T01:47:37Z</time>
      </trkpt>
      <trkpt lat="50.72882" lon="5.42229">
        <ele>126</ele>
        <time>2018-11-02T01:48:37Z</time>
      </trkpt>
      <trkpt lat="50.729" lon="5.42211">
        <ele>125</ele>
        <time>2018-11-02T01:49:37Z</time>
      </trkpt>
      <trkpt lat="50.7297" lon="5.42096">
        <ele>124</ele>
        <time>2018-11-02T01:50:37Z</time>
      </trkpt>
      <trkpt lat="50.72979" lon="5.42083">
        <ele>124</ele>
        <time>2018-11-02T01:51:37Z</time>
      </trkpt>
      <trkpt lat="50.72995" lon="5.42063">
        <ele>123</ele>
        <time>2018-11-02T01:52:37Z</time>
      </trkpt>
      <trkpt lat="50.73046" lon="5.42026">
        <ele>122</ele>
        <time>2018-11-02T01:53:37Z</time>
      </trkpt>
      <trkpt lat="50.73068" lon="5.42005">
        <ele>122</ele>
        <time>2018-11-02T01:54:37Z</time>
      </trkpt>
      <trkpt lat="50.73087" lon="5.41979">
        <ele>121</ele>
        <time>2018-11-02T01:55:37Z</time>
      </trkpt>
      <trkpt lat="50.7311" lon="5.41953">
        <ele>120</ele>
        <time>2018-11-02T01:56:37Z</time>
      </trkpt>
      <trkpt lat="50.73124" lon="5.41937">
        <ele>119</ele>
        <time>2018-11-02T01:57:37Z</time>
      </trkpt>
      <trkpt lat="50.73161" lon="5.41898">
        <ele>118</ele>
        <time>2018-11-02T01:58:37Z</time>
      </trkpt>
      <trkpt lat="50.73183" lon="5.41875">
        <ele>117</ele>
        <time>2018-11-02T01:59:37Z</time>
      </trkpt>
      <trkpt lat="50.73219" lon="5.41835">
        <ele>115</ele>
        <time>2018-11-02T02:00:37Z</time>
      </trkpt>
      <trkpt lat="50.73233" lon="5.41815">
        <ele>115</ele>
        <time>2018-11-02T02:01:37Z</time>
      </trkpt>
      <trkpt lat="50.7325" lon="5.41788">
        <ele>115</ele>
        <time>2018-11-02T02:02:37Z</time>
      </trkpt>
      <trkpt lat="50.73275" lon="5.41761">
        <ele>115</ele>
        <time>2018-11-02T02:03:37Z</time>
      </trkpt>
      <trkpt lat="50.73293" lon="5.41745">
        <ele>115</ele>
        <time>2018-11-02T02:04:37Z</time>
      </trkpt>
      <trkpt lat="50.73312" lon="5.41721">
        <ele>114</ele>
        <time>2018-11-02T02:05:37Z</time>
      </trkpt>
      <trkpt lat="50.7335" lon="5.41667">
        <ele>113</ele>
        <time>2018-11-02T02:06:37Z</time>
      </trkpt>
      <trkpt lat="50.7338" lon="5.41631">
        <ele>111</ele>
        <time>2018-11-02T02:07:37Z</time>
      </trkpt>
      <trkpt lat="50.73406" lon="5.41608">
        <ele>109</ele>
        <time>2018-11-02T02:08:37Z</time>
      </trkpt>
      <trkpt lat="50.73421" lon="5.41595">
        <ele>108</ele>
        <time>2018-11-02T02:09:37Z</time>
      </trkpt>
      <trkpt lat="50.73473" lon="5.41542">
        <ele>105</ele>
        <time>2018-11-02T02:10:37Z</time>
      </trkpt>
      <trkpt lat="50.73497" lon="5.41517">
        <ele>103</ele>
        <time>2018-11-02T02:11:37Z</time>
      </trkpt>
      <trkpt lat="50.73523" lon="5.41493">
        <ele>101</ele>
        <time>2018-11-02T02:12:37Z</time>
      </trkpt>
      <trkpt lat="50.73539" lon="5.41477">
        <ele>100</ele>
        <time>2018-11-02T02:13:37Z</time>
      </trkpt>
      <trkpt lat="50.73554" lon="5.41465">
        <ele>99</ele>
        <time>2018-11-02T02:14:37Z</time>
      </trkpt>
      <trkpt lat="50.7357" lon="5.4146">
        <ele>99</ele>
        <time>2018-11-02T02:15:37Z</time>
      </trkpt>
      <trkpt lat="50.73586" lon="5.4146">
        <ele>98</ele>
        <time>2018-11-02T02:16:37Z</time>
      </trkpt>
      <trkpt lat="50.73603" lon="5.41465">
        <ele>98</ele>
        <time>2018-11-02T02:17:37Z</time>
      </trkpt>
      <trkpt lat="50.73661" lon="5.41481">
        <ele>96</ele>
        <time>2018-11-02T02:18:37Z</time>
      </trkpt>
      <trkpt lat="50.73694" lon="5.4149">
        <ele>95</ele>
        <time>2018-11-02T02:19:37Z</time>
      </trkpt>
      <trkpt lat="50.7375" lon="5.41514">
        <ele>93</ele>
        <time>2018-11-02T02:20:37Z</time>
      </trkpt>
      <trkpt lat="50.73765" lon="5.41519">
        <ele>93</ele>
        <time>2018-11-02T02:21:37Z</time>
      </trkpt>
      <trkpt lat="50.7378" lon="5.4152">
        <ele>94</ele>
        <time>2018-11-02T02:22:37Z</time>
      </trkpt>
      <trkpt lat="50.73793" lon="5.41514">
        <ele>94</ele>
        <time>2018-11-02T02:23:37Z</time>
      </trkpt>
      <trkpt lat="50.73845" lon="5.41495">
        <ele>94</ele>
        <time>2018-11-02T02:24:37Z</time>
      </trkpt>
      <trkpt lat="50.73902" lon="5.4149">
        <ele>96</ele>
        <time>2018-11-02T02:25:37Z</time>
      </trkpt>
      <trkpt lat="50.73931" lon="5.4149">
        <ele>97</ele>
        <time>2018-11-02T02:26:37Z</time>
      </trkpt>
      <trkpt lat="50.73948" lon="5.41488">
        <ele>98</ele>
        <time>2018-11-02T02:27:37Z</time>
      </trkpt>
      <trkpt lat="50.73975" lon="5.4148">
        <ele>100</ele>
        <time>2018-11-02T02:28:37Z</time>
      </trkpt>
      <trkpt lat="50.73983" lon="5.41478">
        <ele>100</ele>
        <time>2018-11-02T02:29:37Z</time>
      </trkpt>
      <trkpt lat="50.73994" lon="5.41499">
        <ele>101</ele>
        <time>2018-11-02T02:30:37Z</time>
      </trkpt>
      <trkpt lat="50.74016" lon="5.41543">
        <ele>100</ele>
        <time>2018-11-02T02:31:37Z</time>
      </trkpt>
      <trkpt lat="50.74057" lon="5.41644">
        <ele>96</ele>
        <time>2018-11-02T02:32:37Z</time>
      </trkpt>
      <trkpt lat="50.74087" lon="5.41713">
        <ele>96</ele>
        <time>2018-11-02T02:33:37Z</time>
      </trkpt>
      <trkpt lat="50.74098" lon="5.41731">
        <ele>96</ele>
        <time>2018-11-02T02:34:37Z</time>
      </trkpt>
      <trkpt lat="50.74115" lon="5.41756">
        <ele>95</ele>
        <time>2018-11-02T02:35:37Z</time>
      </trkpt>
      <trkpt lat="50.74148" lon="5.41806">
        <ele>94</ele>
        <time>2018-11-02T02:36:37Z</time>
      </trkpt>
      <trkpt lat="50.74163" lon="5.41824">
        <ele>94</ele>
        <time>2018-11-02T02:37:37Z</time>
      </trkpt>
      <trkpt lat="50.74175" lon="5.41829">
        <ele>94</ele>
        <time>2018-11-02T02:38:37Z</time>
      </trkpt>
      <trkpt lat="50.74197" lon="5.41833">
        <ele>95</ele>
        <time>2018-11-02T02:39:37Z</time>
      </trkpt>
      <trkpt lat="50.74215" lon="5.41819">
        <ele>96</ele>
        <time>2018-11-02T02:40:37Z</time>
      </trkpt>
      <trkpt lat="50.74236" lon="5.41807">
        <ele>97</ele>
        <time>2018-11-02T02:41:37Z</time>
      </trkpt>
      <trkpt lat="50.74259" lon="5.41805">
        <ele>98</ele>
        <time>2018-11-02T02:42:37Z</time>
      </trkpt>
      <trkpt lat="50.74313" lon="5.41811">
        <ele>97</ele>
        <time>2018-11-02T02:43:37Z</time>
      </trkpt>
      <trkpt lat="50.74331" lon="5.41818">
        <ele>97</ele>
        <time>2018-11-02T02:44:37Z</time>
      </trkpt>
      <trkpt lat="50.74361" lon="5.41851">
        <ele>97</ele>
        <time>2018-11-02T02:45:37Z</time>
      </trkpt>
      <trkpt lat="50.74387" lon="5.41881">
        <ele>97</ele>
        <time>2018-11-02T02:46:37Z</time>
      </trkpt>
      <trkpt lat="50.74435" lon="5.41934">
        <ele>96</ele>
        <time>2018-11-02T02:47:37Z</time>
      </trkpt>
      <trkpt lat="50.74484" lon="5.41972">
        <ele>97</ele>
        <time>2018-11-02T02:48:37Z</time>
      </trkpt>
      <trkpt lat="50.74535" lon="5.42009">
        <ele>98</ele>
        <time>2018-11-02T02:49:37Z</time>
      </trkpt>
      <trkpt lat="50.74571" lon="5.4204">
        <ele>100</ele>
        <time>2018-11-02T02:50:37Z</time>
      </trkpt>
      <trkpt lat="50.74589" lon="5.42063">
        <ele>101</ele>
        <time>2018-11-02T02:51:37Z</time>
      </trkpt>
      <trkpt lat="50.74623" lon="5.42113">
        <ele>102</ele>
        <time>2018-11-02T02:52:37Z</time>
      </trkpt>
      <trkpt lat="50.74664" lon="5.42178">
        <ele>102</ele>
        <time>2018-11-02T02:53:37Z</time>
      </trkpt>
      <trkpt lat="50.74695" lon="5.42223">
        <ele>102</ele>
        <time>2018-11-02T02:54:37Z</time>
      </trkpt>
      <trkpt lat="50.74742" lon="5.42275">
        <ele>102</ele>
        <time>2018-11-02T02:55:37Z</time>
      </trkpt>
      <trkpt lat="50.74819" lon="5.42362">
        <ele>102</ele>
        <time>2018-11-02T02:56:37Z</time>
      </trkpt>
      <trkpt lat="50.74884" lon="5.42435">
        <ele>100</ele>
        <time>2018-11-02T02:57:37Z</time>
      </trkpt>
      <trkpt lat="50.74907" lon="5.42462">
        <ele>100</ele>
        <time>2018-11-02T02:58:37Z</time>
      </trkpt>
      <trkpt lat="50.7492" lon="5.42483">
        <ele>99</ele>
        <time>2018-11-02T02:59:37Z</time>
      </trkpt>
      <trkpt lat="50.74951" lon="5.42529">
        <ele>99</ele>
        <time>2018-11-02T03:00:37Z</time>
      </trkpt>
      <trkpt lat="50.7502" lon="5.42638">
        <ele>98</ele>
        <time>2018-11-02T03:01:37Z</time>
      </trkpt>
      <trkpt lat="50.75049" lon="5.4268">
        <ele>98</ele>
        <time>2018-11-02T03:02:37Z</time>
      </trkpt>
      <trkpt lat="50.75175" lon="5.42844">
        <ele>94</ele>
        <time>2018-11-02T03:03:37Z</time>
      </trkpt>
      <trkpt lat="50.75188" lon="5.42861">
        <ele>93</ele>
        <time>2018-11-02T03:04:37Z</time>
      </trkpt>
      <trkpt lat="50.75202" lon="5.42876">
        <ele>93</ele>
        <time>2018-11-02T03:05:37Z</time>
      </trkpt>
      <trkpt lat="50.7525" lon="5.42924">
        <ele>92</ele>
        <time>2018-11-02T03:06:37Z</time>
      </trkpt>
      <trkpt lat="50.75298" lon="5.42965">
        <ele>93</ele>
        <time>2018-11-02T03:07:37Z</time>
      </trkpt>
      <trkpt lat="50.75336" lon="5.42999">
        <ele>93</ele>
        <time>2018-11-02T03:08:37Z</time>
      </trkpt>
      <trkpt lat="50.75438" lon="5.43072">
        <ele>93</ele>
        <time>2018-11-02T03:09:37Z</time>
      </trkpt>
      <trkpt lat="50.75518" lon="5.4312">
        <ele>93</ele>
        <time>2018-11-02T03:10:37Z</time>
      </trkpt>
      <trkpt lat="50.75553" lon="5.43144">
        <ele>92</ele>
        <time>2018-11-02T03:11:37Z</time>
      </trkpt>
      <trkpt lat="50.75593" lon="5.43178">
        <ele>91</ele>
        <time>2018-11-02T03:12:37Z</time>
      </trkpt>
      <trkpt lat="50.75652" lon="5.43234">
        <ele>91</ele>
        <time>2018-11-02T03:13:37Z</time>
      </trkpt>
      <trkpt lat="50.75704" lon="5.43285">
        <ele>91</ele>
        <time>2018-11-02T03:14:37Z</time>
      </trkpt>
      <trkpt lat="50.75724" lon="5.43311">
        <ele>92</ele>
        <time>2018-11-02T03:15:37Z</time>
      </trkpt>
      <trkpt lat="50.7573" lon="5.43338">
        <ele>92</ele>
        <time>2018-11-02T03:16:37Z</time>
      </trkpt>
      <trkpt lat="50.75733" lon="5.4335">
        <ele>91</ele>
        <time>2018-11-02T03:17:37Z</time>
      </trkpt>
      <trkpt lat="50.7574" lon="5.43358">
        <ele>91</ele>
        <time>2018-11-02T03:18:37Z</time>
      </trkpt>
      <trkpt lat="50.75749" lon="5.43358">
        <ele>91</ele>
        <time>2018-11-02T03:19:37Z</time>
      </trkpt>
      <trkpt lat="50.75765" lon="5.43357">
        <ele>91</ele>
        <time>2018-11-02T03:20:37Z</time>
      </trkpt>
      <trkpt lat="50.75792" lon="5.43353">
        <ele>91</ele>
        <time>2018-11-02T03:21:37Z</time>
      </trkpt>
      <trkpt lat="50.75837" lon="5.43344">
        <ele>92</ele>
        <time>2018-11-02T03:22:37Z</time>
      </trkpt>
      <trkpt lat="50.75875" lon="5.43331">
        <ele>93</ele>
        <time>2018-11-02T03:23:37Z</time>
      </trkpt>
      <trkpt lat="50.7589" lon="5.43359">
        <ele>93</ele>
        <time>2018-11-02T03:24:37Z</time>
      </trkpt>
      <trkpt lat="50.75917" lon="5.4339">
        <ele>94</ele>
        <time>2018-11-02T03:25:37Z</time>
      </trkpt>
      <trkpt lat="50.75976" lon="5.43401">
        <ele>96</ele>
        <time>2018-11-02T03:26:37Z</time>
      </trkpt>
      <trkpt lat="50.76004" lon="5.43403">
        <ele>97</ele>
        <time>2018-11-02T03:27:37Z</time>
      </trkpt>
      <trkpt lat="50.7603" lon="5.43413">
        <ele>97</ele>
        <time>2018-11-02T03:28:37Z</time>
      </trkpt>
      <trkpt lat="50.7609" lon="5.43458">
        <ele>95</ele>
        <time>2018-11-02T03:29:37Z</time>
      </trkpt>
      <trkpt lat="50.76142" lon="5.43496">
        <ele>95</ele>
        <time>2018-11-02T03:30:37Z</time>
      </trkpt>
      <trkpt lat="50.76212" lon="5.43541">
        <ele>94</ele>
        <time>2018-11-02T03:31:37Z</time>
      </trkpt>
      <trkpt lat="50.76238" lon="5.43558">
        <ele>93</ele>
        <time>2018-11-02T03:32:37Z</time>
      </trkpt>
      <trkpt lat="50.763" lon="5.43647">
        <ele>92</ele>
        <time>2018-11-02T03:33:37Z</time>
      </trkpt>
      <trkpt lat="50.76332" lon="5.43691">
        <ele>92</ele>
        <time>2018-11-02T03:34:37Z</time>
      </trkpt>
      <trkpt lat="50.76431" lon="5.43831">
        <ele>90</ele>
        <time>2018-11-02T03:35:37Z</time>
      </trkpt>
      <trkpt lat="50.76467" lon="5.43887">
        <ele>90</ele>
        <time>2018-11-02T03:36:37Z</time>
      </trkpt>
      <trkpt lat="50.76516" lon="5.43976">
        <ele>92</ele>
        <time>2018-11-02T03:37:37Z</time>
      </trkpt>
      <trkpt lat="50.76549" lon="5.4404">
        <ele>93</ele>
        <time>2018-11-02T03:38:37Z</time>
      </trkpt>
      <trkpt lat="50.76565" lon="5.44076">
        <ele>93</ele>
        <time>2018-11-02T03:39:37Z</time>
      </trkpt>
      <trkpt lat="50.76586" lon="5.44136">
        <ele>93</ele>
        <time>2018-11-02T03:40:37Z</time>
      </trkpt>
      <trkpt lat="50.76655" lon="5.44408">
        <ele>91</ele>
        <time>2018-11-02T03:41:37Z</time>
      </trkpt>
      <trkpt lat="50.76672" lon="5.44462">
        <ele>91</ele>
        <time>2018-11-02T03:42:37Z</time>
      </trkpt>
      <trkpt lat="50.7668" lon="5.44484">
        <ele>91</ele>
        <time>2018-11-02T03:43:37Z</time>
      </trkpt>
      <trkpt lat="50.76699" lon="5.44513">
        <ele>92</ele>
        <time>2018-11-02T03:44:37Z</time>
      </trkpt>
      <trkpt lat="50.76718" lon="5.4453">
        <ele>92</ele>
        <time>2018-11-02T03:45:37Z</time>
      </trkpt>
      <trkpt lat="50.76738" lon="5.44543">
        <ele>93</ele>
        <time>2018-11-02T03:46:37Z</time>
      </trkpt>
      <trkpt lat="50.76855" lon="5.44608">
        <ele>94</ele>
        <time>2018-11-02T03:47:37Z</time>
      </trkpt>
      <trkpt lat="50.76911" lon="5.44641">
        <ele>91</ele>
        <time>2018-11-02T03:48:37Z</time>
      </trkpt>
      <trkpt lat="50.76922" lon="5.4465">
        <ele>91</ele>
        <time>2018-11-02T03:49:37Z</time>
      </trkpt>
      <trkpt lat="50.77032" lon="5.44808">
        <ele>94</ele>
        <time>2018-11-02T03:50:37Z</time>
      </trkpt>
      <trkpt lat="50.77159" lon="5.44988">
        <ele>94</ele>
        <time>2018-11-02T03:51:37Z</time>
      </trkpt>
      <trkpt lat="50.77225" lon="5.45078">
        <ele>95</ele>
        <time>2018-11-02T03:52:37Z</time>
      </trkpt>
      <trkpt lat="50.77257" lon="5.45119">
        <ele>96</ele>
        <time>2018-11-02T03:53:37Z</time>
      </trkpt>
      <trkpt lat="50.77276" lon="5.45139">
        <ele>96</ele>
        <time>2018-11-02T03:54:37Z</time>
      </trkpt>
      <trkpt lat="50.77327" lon="5.45176">
        <ele>97</ele>
        <time>2018-11-02T03:55:37Z</time>
      </trkpt>
      <trkpt lat="50.77341" lon="5.45188">
        <ele>96</ele>
        <time>2018-11-02T03:56:37Z</time>
      </trkpt>
      <trkpt lat="50.77357" lon="5.4521">
        <ele>96</ele>
        <time>2018-11-02T03:57:37Z</time>
      </trkpt>
      <trkpt lat="50.77422" lon="5.45342">
        <ele>94</ele>
        <time>2018-11-02T03:58:37Z</time>
      </trkpt>
      <trkpt lat="50.77466" lon="5.45427">
        <ele>93</ele>
        <time>2018-11-02T03:59:37Z</time>
      </trkpt>
      <trkpt lat="50.77437" lon="5.45496">
        <ele>91</ele>
        <time>2018-11-02T04:00:37Z</time>
      </trkpt>
      <trkpt lat="50.7742" lon="5.45542">
        <ele>90</ele>
        <time>2018-11-02T04:01:37Z</time>
      </trkpt>
      <trkpt lat="50.77411" lon="5.45574">
        <ele>90</ele>
        <time>2018-11-02T04:02:37Z</time>
      </trkpt>
      <trkpt lat="50.77402" lon="5.45639">
        <ele>90</ele>
        <time>2018-11-02T04:03:37Z</time>
      </trkpt>
      <trkpt lat="50.77397" lon="5.45718">
        <ele>90</ele>
        <time>2018-11-02T04:04:37Z</time>
      </trkpt>
      <trkpt lat="50.77399" lon="5.45761">
        <ele>90</ele>
        <time>2018-11-02T04:05:37Z</time>
      </trkpt>
      <trkpt lat="50.77412" lon="5.45875">
        <ele>90</ele>
        <time>2018-11-02T04:06:37Z</time>
      </trkpt>
      <trkpt lat="50.77419" lon="5.45932">
        <ele>90</ele>
        <time>2018-11-02T04:07:37Z</time>
      </trkpt>
      <trkpt lat="50.77412" lon="5.45956">
        <ele>90</ele>
        <time>2018-11-02T04:08:37Z</time>
      </trkpt>
      <trkpt lat="50.77402" lon="5.4598">
        <ele>90</ele>
        <time>2018-11-02T04:09:37Z</time>
      </trkpt>
      <trkpt lat="50.7739" lon="5.46014">
        <ele>90</ele>
        <time>2018-11-02T04:10:37Z</time>
      </trkpt>
      <trkpt lat="50.7738" lon="5.46057">
        <ele>90</ele>
        <time>2018-11-02T04:11:37Z</time>
      </trkpt>
      <trkpt lat="50.77356" lon="5.46049">
        <ele>90</ele>
        <time>2018-11-02T04:12:37Z</time>
      </trkpt>
      <trkpt lat="50.77336" lon="5.46044">
        <ele>89</ele>
        <time>2018-11-02T04:13:37Z</time>
      </trkpt>
      <trkpt lat="50.77317" lon="5.46044">
        <ele>90</ele>
        <time>2018-11-02T04:14:37Z</time>
      </trkpt>
      <trkpt lat="50.77297" lon="5.4605">
        <ele>90</ele>
        <time>2018-11-02T04:15:37Z</time>
      </trkpt>
      <trkpt lat="50.77255" lon="5.46071">
        <ele>90</ele>
        <time>2018-11-02T04:16:37Z</time>
      </trkpt>
      <trkpt lat="50.77199" lon="5.46101">
        <ele>89</ele>
        <time>2018-11-02T04:17:37Z</time>
      </trkpt>
      <trkpt lat="50.77177" lon="5.46119">
        <ele>88</ele>
        <time>2018-11-02T04:18:37Z</time>
      </trkpt>
      <trkpt lat="50.77164" lon="5.46136">
        <ele>88</ele>
        <time>2018-11-02T04:19:37Z</time>
      </trkpt>
      <trkpt lat="50.77154" lon="5.4616">
        <ele>88</ele>
        <time>2018-11-02T04:20:37Z</time>
      </trkpt>
      <trkpt lat="50.77145" lon="5.46184">
        <ele>88</ele>
        <time>2018-11-02T04:21:37Z</time>
      </trkpt>
      <trkpt lat="50.77162" lon="5.46201">
        <ele>88</ele>
        <time>2018-11-02T04:22:37Z</time>
      </trkpt>
      <trkpt lat="50.77182" lon="5.46233">
        <ele>88</ele>
        <time>2018-11-02T04:23:37Z</time>
      </trkpt>
      <trkpt lat="50.77199" lon="5.46284">
        <ele>89</ele>
        <time>2018-11-02T04:24:37Z</time>
      </trkpt>
      <trkpt lat="50.77252" lon="5.46457">
        <ele>88</ele>
        <time>2018-11-02T04:25:37Z</time>
      </trkpt>
      <trkpt lat="50.7727" lon="5.46513">
        <ele>89</ele>
        <time>2018-11-02T04:26:37Z</time>
      </trkpt>
      <trkpt lat="50.77303" lon="5.46605">
        <ele>88</ele>
        <time>2018-11-02T04:27:37Z</time>
      </trkpt>
      <trkpt lat="50.77318" lon="5.46641">
        <ele>87</ele>
        <time>2018-11-02T04:28:37Z</time>
      </trkpt>
      <trkpt lat="50.77352" lon="5.4671">
        <ele>87</ele>
        <time>2018-11-02T04:29:37Z</time>
      </trkpt>
      <trkpt lat="50.77451" lon="5.46902">
        <ele>87</ele>
        <time>2018-11-02T04:30:37Z</time>
      </trkpt>
      <trkpt lat="50.7752" lon="5.47041">
        <ele>88</ele>
        <time>2018-11-02T04:31:37Z</time>
      </trkpt>
      <trkpt lat="50.77552" lon="5.47104">
        <ele>88</ele>
        <time>2018-11-02T04:32:37Z</time>
      </trkpt>
      <trkpt lat="50.77572" lon="5.47126">
        <ele>87</ele>
        <time>2018-11-02T04:33:37Z</time>
      </trkpt>
      <trkpt lat="50.77638" lon="5.47152">
        <ele>88</ele>
        <time>2018-11-02T04:34:37Z</time>
      </trkpt>
      <trkpt lat="50.77736" lon="5.47189">
        <ele>88</ele>
        <time>2018-11-02T04:35:37Z</time>
      </trkpt>
      <trkpt lat="50.77768" lon="5.47195">
        <ele>88</ele>
        <time>2018-11-02T04:36:37Z</time>
      </trkpt>
      <trkpt lat="50.77827" lon="5.47204">
        <ele>87</ele>
        <time>2018-11-02T04:37:37Z</time>
      </trkpt>
      <trkpt lat="50.77857" lon="5.47208">
        <ele>88</ele>
        <time>2018-11-02T04:38:37Z</time>
      </trkpt>
      <trkpt lat="50.77891" lon="5.47212">
        <ele>88</ele>
        <time>2018-11-02T04:39:37Z</time>
      </trkpt>
      <trkpt lat="50.77902" lon="5.47205">
        <ele>89</ele>
        <time>2018-11-02T04:40:37Z</time>
      </trkpt>
      <trkpt lat="50.77918" lon="5.47188">
        <ele>89</ele>
        <time>2018-11-02T04:41:37Z</time>
      </trkpt>
      <trkpt lat="50.77939" lon="5.47185">
        <ele>90</ele>
        <time>2018-11-02T04:42:37Z</time>
      </trkpt>
      <trkpt lat="50.77998" lon="5.47201">
        <ele>92</ele>
        <time>2018-11-02T04:43:37Z</time>
      </trkpt>
      <trkpt lat="50.7803" lon="5.47205">
        <ele>93</ele>
        <time>2018-11-02T04:44:37Z</time>
      </trkpt>
      <trkpt lat="50.78066" lon="5.472">
        <ele>94</ele>
        <time>2018-11-02T04:45:37Z</time>
      </trkpt>
      <trkpt lat="50.78112" lon="5.47182">
        <ele>95</ele>
        <time>2018-11-02T04:46:37Z</time>
      </trkpt>
      <trkpt lat="50.78208" lon="5.47132">
        <ele>96</ele>
        <time>2018-11-02T04:47:37Z</time>
      </trkpt>
      <trkpt lat="50.78266" lon="5.47102">
        <ele>97</ele>
        <time>2018-11-02T04:48:37Z</time>
      </trkpt>
      <trkpt lat="50.78322" lon="5.47065">
        <ele>99</ele>
        <time>2018-11-02T04:49:37Z</time>
      </trkpt>
      <trkpt lat="50.7834" lon="5.4705">
        <ele>99</ele>
        <time>2018-11-02T04:50:37Z</time>
      </trkpt>
      <trkpt lat="50.7837" lon="5.47019">
        <ele>98</ele>
        <time>2018-11-02T04:51:37Z</time>
      </trkpt>
      <trkpt lat="50.78383" lon="5.47004">
        <ele>98</ele>
        <time>2018-11-02T04:52:37Z</time>
      </trkpt>
      <trkpt lat="50.78396" lon="5.46968">
        <ele>98</ele>
        <time>2018-11-02T04:53:37Z</time>
      </trkpt>
      <trkpt lat="50.78403" lon="5.46932">
        <ele>98</ele>
        <time>2018-11-02T04:54:37Z</time>
      </trkpt>
      <trkpt lat="50.78399" lon="5.46886">
        <ele>98</ele>
        <time>2018-11-02T04:55:37Z</time>
      </trkpt>
      <trkpt lat="50.78348" lon="5.467">
        <ele>100</ele>
        <time>2018-11-02T04:56:37Z</time>
      </trkpt>
      <trkpt lat="50.78342" lon="5.4664">
        <ele>102</ele>
        <time>2018-11-02T04:57:37Z</time>
      </trkpt>
      <trkpt lat="50.7834" lon="5.46576">
        <ele>103</ele>
        <time>2018-11-02T04:58:37Z</time>
      </trkpt>
      <trkpt lat="50.78339" lon="5.46478">
        <ele>105</ele>
        <time>2018-11-02T04:59:37Z</time>
      </trkpt>
      <trkpt lat="50.78338" lon="5.46426">
        <ele>104</ele>
        <time>2018-11-02T05:00:37Z</time>
      </trkpt>
      <trkpt lat="50.78333" lon="5.46377">
        <ele>104</ele>
        <time>2018-11-02T05:01:37Z</time>
      </trkpt>
      <trkpt lat="50.78308" lon="5.46221">
        <ele>105</ele>
        <time>2018-11-02T05:02:37Z</time>
      </trkpt>
      <trkpt lat="50.78302" lon="5.46192">
        <ele>105</ele>
        <time>2018-11-02T05:03:37Z</time>
      </trkpt>
      <trkpt lat="50.78278" lon="5.46136">
        <ele>105</ele>
        <time>2018-11-02T05:04:37Z</time>
      </trkpt>
      <trkpt lat="50.78264" lon="5.46114">
        <ele>106</ele>
        <time>2018-11-02T05:05:37Z</time>
      </trkpt>
      <trkpt lat="50.78251" lon="5.46096">
        <ele>106</ele>
        <time>2018-11-02T05:06:37Z</time>
      </trkpt>
      <trkpt lat="50.78231" lon="5.46076">
        <ele>106</ele>
        <time>2018-11-02T05:07:37Z</time>
      </trkpt>
      <trkpt lat="50.78223" lon="5.46068">
        <ele>106</ele>
        <time>2018-11-02T05:08:37Z</time>
      </trkpt>
      <trkpt lat="50.78173" lon="5.46038">
        <ele>106</ele>
        <time>2018-11-02T05:09:37Z</time>
      </trkpt>
      <trkpt lat="50.78141" lon="5.4602">
        <ele>107</ele>
        <time>2018-11-02T05:10:37Z</time>
      </trkpt>
      <trkpt lat="50.78122" lon="5.46018">
        <ele>108</ele>
        <time>2018-11-02T05:11:37Z</time>
      </trkpt>
      <trkpt lat="50.78092" lon="5.46015">
        <ele>109</ele>
        <time>2018-11-02T05:12:37Z</time>
      </trkpt>
      <trkpt lat="50.78039" lon="5.46017">
        <ele>109</ele>
        <time>2018-11-02T05:13:37Z</time>
      </trkpt>
      <trkpt lat="50.77997" lon="5.46018">
        <ele>109</ele>
        <time>2018-11-02T05:14:37Z</time>
      </trkpt>
      <trkpt lat="50.77959" lon="5.45816">
        <ele>107</ele>
        <time>2018-11-02T05:15:37Z</time>
      </trkpt>
      <trkpt lat="50.77912" lon="5.45585">
        <ele>101</ele>
        <time>2018-11-02T05:16:37Z</time>
      </trkpt>
      <trkpt lat="50.77853" lon="5.45271">
        <ele>97</ele>
        <time>2018-11-02T05:17:37Z</time>
      </trkpt>
      <trkpt lat="50.77813" lon="5.45073">
        <ele>96</ele>
        <time>2018-11-02T05:18:37Z</time>
      </trkpt>
      <trkpt lat="50.77768" lon="5.44844">
        <ele>96</ele>
        <time>2018-11-02T05:19:37Z</time>
      </trkpt>
      <trkpt lat="50.77725" lon="5.44608">
        <ele>95</ele>
        <time>2018-11-02T05:20:37Z</time>
      </trkpt>
      <trkpt lat="50.77707" lon="5.44487">
        <ele>95</ele>
        <time>2018-11-02T05:21:37Z</time>
      </trkpt>
      <trkpt lat="50.77695" lon="5.44371">
        <ele>96</ele>
        <time>2018-11-02T05:22:37Z</time>
      </trkpt>
      <trkpt lat="50.77689" lon="5.44287">
        <ele>95</ele>
        <time>2018-11-02T05:23:37Z</time>
      </trkpt>
      <trkpt lat="50.77686" lon="5.44199">
        <ele>96</ele>
        <time>2018-11-02T05:24:37Z</time>
      </trkpt>
      <trkpt lat="50.77685" lon="5.44019">
        <ele>96</ele>
        <time>2018-11-02T05:25:37Z</time>
      </trkpt>
      <trkpt lat="50.77689" lon="5.4392">
        <ele>97</ele>
        <time>2018-11-02T05:26:37Z</time>
      </trkpt>
      <trkpt lat="50.77698" lon="5.43799">
        <ele>98</ele>
        <time>2018-11-02T05:27:37Z</time>
      </trkpt>
      <trkpt lat="50.77703" lon="5.43731">
        <ele>98</ele>
        <time>2018-11-02T05:28:37Z</time>
      </trkpt>
      <trkpt lat="50.77725" lon="5.43559">
        <ele>101</ele>
        <time>2018-11-02T05:29:37Z</time>
      </trkpt>
      <trkpt lat="50.7776" lon="5.43342">
        <ele>104</ele>
        <time>2018-11-02T05:30:37Z</time>
      </trkpt>
      <trkpt lat="50.77818" lon="5.43093">
        <ele>102</ele>
        <time>2018-11-02T05:31:37Z</time>
      </trkpt>
      <trkpt lat="50.77839" lon="5.43002">
        <ele>104</ele>
        <time>2018-11-02T05:32:37Z</time>
      </trkpt>
      <trkpt lat="50.77885" lon="5.42834">
        <ele>100</ele>
        <time>2018-11-02T05:33:37Z</time>
      </trkpt>
      <trkpt lat="50.77908" lon="5.42754">
        <ele>100</ele>
        <time>2018-11-02T05:34:37Z</time>
      </trkpt>
      <trkpt lat="50.77934" lon="5.42645">
        <ele>102</ele>
        <time>2018-11-02T05:35:37Z</time>
      </trkpt>
      <trkpt lat="50.77951" lon="5.42588">
        <ele>102</ele>
        <time>2018-11-02T05:36:37Z</time>
      </trkpt>
      <trkpt lat="50.78037" lon="5.42264">
        <ele>96</ele>
        <time>2018-11-02T05:37:37Z</time>
      </trkpt>
      <trkpt lat="50.78128" lon="5.41926">
        <ele>91</ele>
        <time>2018-11-02T05:38:37Z</time>
      </trkpt>
      <trkpt lat="50.78162" lon="5.41802">
        <ele>89</ele>
        <time>2018-11-02T05:39:37Z</time>
      </trkpt>
      <trkpt lat="50.78267" lon="5.41408">
        <ele>89</ele>
        <time>2018-11-02T05:40:37Z</time>
      </trkpt>
      <trkpt lat="50.7834" lon="5.41147">
        <ele>89</ele>
        <time>2018-11-02T05:41:37Z</time>
      </trkpt>
      <trkpt lat="50.78347" lon="5.41126">
        <ele>89</ele>
        <time>2018-11-02T05:42:37Z</time>
      </trkpt>
      <trkpt lat="50.78354" lon="5.41106">
        <ele>90</ele>
        <time>2018-11-02T05:43:37Z</time>
      </trkpt>
      <trkpt lat="50.78401" lon="5.40933">
        <ele>89</ele>
        <time>2018-11-02T05:44:37Z</time>
      </trkpt>
      <trkpt lat="50.78411" lon="5.40896">
        <ele>89</ele>
        <time>2018-11-02T05:45:37Z</time>
      </trkpt>
      <trkpt lat="50.78556" lon="5.40353">
        <ele>77</ele>
        <time>2018-11-02T05:46:37Z</time>
      </trkpt>
      <trkpt lat="50.78563" lon="5.40328">
        <ele>76</ele>
        <time>2018-11-02T05:47:37Z</time>
      </trkpt>
      <trkpt lat="50.78569" lon="5.40304">
        <ele>76</ele>
        <time>2018-11-02T05:48:37Z</time>
      </trkpt>
      <trkpt lat="50.78578" lon="5.40271">
        <ele>76</ele>
        <time>2018-11-02T05:49:37Z</time>
      </trkpt>
      <trkpt lat="50.78579" lon="5.40259">
        <ele>76</ele>
        <time>2018-11-02T05:50:37Z</time>
      </trkpt>
      <trkpt lat="50.78585" lon="5.40238">
        <ele>76</ele>
        <time>2018-11-02T05:51:37Z</time>
      </trkpt>
      <trkpt lat="50.78631" lon="5.40054">
        <ele>75</ele>
        <time>2018-11-02T05:52:37Z</time>
      </trkpt>
      <trkpt lat="50.78656" lon="5.39966">
        <ele>76</ele>
        <time>2018-11-02T05:53:37Z</time>
      </trkpt>
      <trkpt lat="50.7874" lon="5.3965">
        <ele>81</ele>
        <time>2018-11-02T05:54:37Z</time>
      </trkpt>
      <trkpt lat="50.7876" lon="5.39585">
        <ele>82</ele>
        <time>2018-11-02T05:55:37Z</time>
      </trkpt>
      <trkpt lat="50.78773" lon="5.39551">
        <ele>82</ele>
        <time>2018-11-02T05:56:37Z</time>
      </trkpt>
      <trkpt lat="50.78773" lon="5.39527">
        <ele>83</ele>
        <time>2018-11-02T05:57:37Z</time>
      </trkpt>
      <trkpt lat="50.78783" lon="5.39493">
        <ele>83</ele>
        <time>2018-11-02T05:58:37Z</time>
      </trkpt>
      <trkpt lat="50.78813" lon="5.39378">
        <ele>84</ele>
        <time>2018-11-02T05:59:37Z</time>
      </trkpt>
      <trkpt lat="50.78822" lon="5.39355">
        <ele>85</ele>
        <time>2018-11-02T06:00:37Z</time>
      </trkpt>
      <trkpt lat="50.78838" lon="5.39288">
        <ele>87</ele>
        <time>2018-11-02T06:01:37Z</time>
      </trkpt>
      <trkpt lat="50.78873" lon="5.39156">
        <ele>90</ele>
        <time>2018-11-02T06:02:37Z</time>
      </trkpt>
      <trkpt lat="50.78908" lon="5.39027">
        <ele>87</ele>
        <time>2018-11-02T06:03:37Z</time>
      </trkpt>
      <trkpt lat="50.78921" lon="5.38963">
        <ele>85</ele>
        <time>2018-11-02T06:04:37Z</time>
      </trkpt>
      <trkpt lat="50.78936" lon="5.38912">
        <ele>85</ele>
        <time>2018-11-02T06:05:37Z</time>
      </trkpt>
      <trkpt lat="50.78944" lon="5.38906">
        <ele>85</ele>
        <time>2018-11-02T06:06:37Z</time>
      </trkpt>
      <trkpt lat="50.78951" lon="5.38881">
        <ele>84</ele>
        <time>2018-11-02T06:07:37Z</time>
      </trkpt>
      <trkpt lat="50.78973" lon="5.38799">
        <ele>82</ele>
        <time>2018-11-02T06:08:37Z</time>
      </trkpt>
      <trkpt lat="50.79045" lon="5.38525">
        <ele>74</ele>
        <time>2018-11-02T06:09:37Z</time>
      </trkpt>
      <trkpt lat="50.79091" lon="5.38351">
        <ele>78</ele>
        <time>2018-11-02T06:10:37Z</time>
      </trkpt>
      <trkpt lat="50.79104" lon="5.38309">
        <ele>79</ele>
        <time>2018-11-02T06:11:37Z</time>
      </trkpt>
      <trkpt lat="50.7911" lon="5.38277">
        <ele>80</ele>
        <time>2018-11-02T06:12:37Z</time>
      </trkpt>
      <trkpt lat="50.79116" lon="5.38246">
        <ele>80</ele>
        <time>2018-11-02T06:13:37Z</time>
      </trkpt>
      <trkpt lat="50.79157" lon="5.38092">
        <ele>82</ele>
        <time>2018-11-02T06:14:37Z</time>
      </trkpt>
      <trkpt lat="50.79174" lon="5.38038">
        <ele>82</ele>
        <time>2018-11-02T06:15:37Z</time>
      </trkpt>
      <trkpt lat="50.79183" lon="5.38017">
        <ele>82</ele>
        <time>2018-11-02T06:16:37Z</time>
      </trkpt>
      <trkpt lat="50.79205" lon="5.37929">
        <ele>82</ele>
        <time>2018-11-02T06:17:37Z</time>
      </trkpt>
      <trkpt lat="50.79255" lon="5.37743">
        <ele>81</ele>
        <time>2018-11-02T06:18:37Z</time>
      </trkpt>
      <trkpt lat="50.79281" lon="5.37651">
        <ele>80</ele>
        <time>2018-11-02T06:19:37Z</time>
      </trkpt>
      <trkpt lat="50.7929" lon="5.37611">
        <ele>80</ele>
        <time>2018-11-02T06:20:37Z</time>
      </trkpt>
      <trkpt lat="50.79331" lon="5.37461">
        <ele>84</ele>
        <time>2018-11-02T06:21:37Z</time>
      </trkpt>
      <trkpt lat="50.7935" lon="5.3739">
        <ele>85</ele>
        <time>2018-11-02T06:22:37Z</time>
      </trkpt>
      <trkpt lat="50.79355" lon="5.3737">
        <ele>86</ele>
        <time>2018-11-02T06:23:37Z</time>
      </trkpt>
      <trkpt lat="50.79419" lon="5.37129">
        <ele>96</ele>
        <time>2018-11-02T06:24:37Z</time>
      </trkpt>
      <trkpt lat="50.79434" lon="5.37079">
        <ele>99</ele>
        <time>2018-11-02T06:25:37Z</time>
      </trkpt>
      <trkpt lat="50.79445" lon="5.37032">
        <ele>99</ele>
        <time>2018-11-02T06:26:37Z</time>
      </trkpt>
      <trkpt lat="50.79455" lon="5.36995">
        <ele>100</ele>
        <time>2018-11-02T06:27:37Z</time>
      </trkpt>
      <trkpt lat="50.79465" lon="5.36961">
        <ele>100</ele>
        <time>2018-11-02T06:28:37Z</time>
      </trkpt>
      <trkpt lat="50.79471" lon="5.36941">
        <ele>100</ele>
        <time>2018-11-02T06:29:37Z</time>
      </trkpt>
      <trkpt lat="50.79503" lon="5.36847">
        <ele>103</ele>
        <time>2018-11-02T06:30:37Z</time>
      </trkpt>
      <trkpt lat="50.79509" lon="5.36829">
        <ele>104</ele>
        <time>2018-11-02T06:31:37Z</time>
      </trkpt>
      <trkpt lat="50.7952" lon="5.368">
        <ele>105</ele>
        <time>2018-11-02T06:32:37Z</time>
      </trkpt>
      <trkpt lat="50.79532" lon="5.36771">
        <ele>106</ele>
        <time>2018-11-02T06:33:37Z</time>
      </trkpt>
      <trkpt lat="50.7957" lon="5.36684">
        <ele>108</ele>
        <time>2018-11-02T06:34:37Z</time>
      </trkpt>
      <trkpt lat="50.79574" lon="5.36672">
        <ele>108</ele>
        <time>2018-11-02T06:35:37Z</time>
      </trkpt>
      <trkpt lat="50.79579" lon="5.3666">
        <ele>109</ele>
        <time>2018-11-02T06:36:37Z</time>
      </trkpt>
      <trkpt lat="50.79595" lon="5.36631">
        <ele>109</ele>
        <time>2018-11-02T06:37:37Z</time>
      </trkpt>
      <trkpt lat="50.79671" lon="5.36506">
        <ele>111</ele>
        <time>2018-11-02T06:38:37Z</time>
      </trkpt>
      <trkpt lat="50.79699" lon="5.3646">
        <ele>113</ele>
        <time>2018-11-02T06:39:37Z</time>
      </trkpt>
      <trkpt lat="50.79716" lon="5.36426">
        <ele>114</ele>
        <time>2018-11-02T06:40:37Z</time>
      </trkpt>
      <trkpt lat="50.79718" lon="5.3642">
        <ele>115</ele>
        <time>2018-11-02T06:41:37Z</time>
      </trkpt>
      <trkpt lat="50.79738" lon="5.36378">
        <ele>117</ele>
        <time>2018-11-02T06:42:37Z</time>
      </trkpt>
      <trkpt lat="50.79759" lon="5.36322">
        <ele>118</ele>
        <time>2018-11-02T06:43:37Z</time>
      </trkpt>
      <trkpt lat="50.79775" lon="5.36271">
        <ele>117</ele>
        <time>2018-11-02T06:44:37Z</time>
      </trkpt>
      <trkpt lat="50.79783" lon="5.36238">
        <ele>116</ele>
        <time>2018-11-02T06:45:37Z</time>
      </trkpt>
      <trkpt lat="50.79787" lon="5.36225">
        <ele>116</ele>
        <time>2018-11-02T06:46:37Z</time>
      </trkpt>
      <trkpt lat="50.79792" lon="5.36213">
        <ele>116</ele>
        <time>2018-11-02T06:47:37Z</time>
      </trkpt>
      <trkpt lat="50.79798" lon="5.36195">
        <ele>116</ele>
        <time>2018-11-02T06:48:37Z</time>
      </trkpt>
      <trkpt lat="50.79803" lon="5.36166">
        <ele>116</ele>
        <time>2018-11-02T06:49:37Z</time>
      </trkpt>
      <trkpt lat="50.79811" lon="5.36148">
        <ele>116</ele>
        <time>2018-11-02T06:50:37Z</time>
      </trkpt>
      <trkpt lat="50.79812" lon="5.36125">
        <ele>116</ele>
        <time>2018-11-02T06:51:37Z</time>
      </trkpt>
      <trkpt lat="50.79815" lon="5.361">
        <ele>117</ele>
        <time>2018-11-02T06:52:37Z</time>
      </trkpt>
      <trkpt lat="50.79813" lon="5.36075">
        <ele>116</ele>
        <time>2018-11-02T06:53:37Z</time>
      </trkpt>
      <trkpt lat="50.79819" lon="5.35948">
        <ele>117</ele>
        <time>2018-11-02T06:54:37Z</time>
      </trkpt>
      <trkpt lat="50.79828" lon="5.35764">
        <ele>119</ele>
        <time>2018-11-02T06:55:37Z</time>
      </trkpt>
      <trkpt lat="50.79838" lon="5.35587">
        <ele>118</ele>
        <time>2018-11-02T06:56:37Z</time>
      </trkpt>
      <trkpt lat="50.79847" lon="5.35384">
        <ele>110</ele>
        <time>2018-11-02T06:57:37Z</time>
      </trkpt>
      <trkpt lat="50.79859" lon="5.35143">
        <ele>109</ele>
        <time>2018-11-02T06:58:37Z</time>
      </trkpt>
      <trkpt lat="50.79862" lon="5.3511">
        <ele>109</ele>
        <time>2018-11-02T06:59:37Z</time>
      </trkpt>
      <trkpt lat="50.79869" lon="5.35076">
        <ele>107</ele>
        <time>2018-11-02T07:00:37Z</time>
      </trkpt>
      <trkpt lat="50.7987" lon="5.35032">
        <ele>105</ele>
        <time>2018-11-02T07:01:37Z</time>
      </trkpt>
      <trkpt lat="50.79873" lon="5.34984">
        <ele>104</ele>
        <time>2018-11-02T07:02:37Z</time>
      </trkpt>
      <trkpt lat="50.79868" lon="5.34961">
        <ele>104</ele>
        <time>2018-11-02T07:03:37Z</time>
      </trkpt>
      <trkpt lat="50.79878" lon="5.34748">
        <ele>106</ele>
        <time>2018-11-02T07:04:37Z</time>
      </trkpt>
      <trkpt lat="50.79881" lon="5.34681">
        <ele>102</ele>
        <time>2018-11-02T07:05:37Z</time>
      </trkpt>
      <trkpt lat="50.79893" lon="5.34622">
        <ele>97</ele>
        <time>2018-11-02T07:06:37Z</time>
      </trkpt>
      <trkpt lat="50.79893" lon="5.34567">
        <ele>93</ele>
        <time>2018-11-02T07:07:37Z</time>
      </trkpt>
      <trkpt lat="50.79893" lon="5.34526">
        <ele>90</ele>
        <time>2018-11-02T07:08:37Z</time>
      </trkpt>
      <trkpt lat="50.7989" lon="5.34503">
        <ele>89</ele>
        <time>2018-11-02T07:09:37Z</time>
      </trkpt>
      <trkpt lat="50.79896" lon="5.34367">
        <ele>84</ele>
        <time>2018-11-02T07:10:37Z</time>
      </trkpt>
      <trkpt lat="50.79909" lon="5.34249">
        <ele>83</ele>
        <time>2018-11-02T07:11:37Z</time>
      </trkpt>
      <trkpt lat="50.79915" lon="5.34217">
        <ele>82</ele>
        <time>2018-11-02T07:12:37Z</time>
      </trkpt>
      <trkpt lat="50.79921" lon="5.34187">
        <ele>81</ele>
        <time>2018-11-02T07:13:37Z</time>
      </trkpt>
      <trkpt lat="50.79927" lon="5.34162">
        <ele>80</ele>
        <time>2018-11-02T07:14:37Z</time>
      </trkpt>
      <trkpt lat="50.79934" lon="5.34135">
        <ele>80</ele>
        <time>2018-11-02T07:15:37Z</time>
      </trkpt>
      <trkpt lat="50.79952" lon="5.34116">
        <ele>80</ele>
        <time>2018-11-02T07:16:37Z</time>
      </trkpt>
      <trkpt lat="50.79961" lon="5.34111">
        <ele>80</ele>
        <time>2018-11-02T07:17:37Z</time>
      </trkpt>
      <trkpt lat="50.79963" lon="5.34108">
        <ele>80</ele>
        <time>2018-11-02T07:18:37Z</time>
      </trkpt>
      <trkpt lat="50.79966" lon="5.34095">
        <ele>79</ele>
        <time>2018-11-02T07:19:37Z</time>
      </trkpt>
      <trkpt lat="50.79963" lon="5.34079">
        <ele>79</ele>
        <time>2018-11-02T07:20:37Z</time>
      </trkpt>
      <trkpt lat="50.79957" lon="5.34064">
        <ele>79</ele>
        <time>2018-11-02T07:21:37Z</time>
      </trkpt>
      <trkpt lat="50.79946" lon="5.34054">
        <ele>78</ele>
        <time>2018-11-02T07:22:37Z</time>
      </trkpt>
      <trkpt lat="50.79916" lon="5.34071">
        <ele>78</ele>
        <time>2018-11-02T07:23:37Z</time>
      </trkpt>
      <trkpt lat="50.79901" lon="5.34068">
        <ele>78</ele>
        <time>2018-11-02T07:24:37Z</time>
      </trkpt>
      <trkpt lat="50.79882" lon="5.34059">
        <ele>77</ele>
        <time>2018-11-02T07:25:37Z</time>
      </trkpt>
      <trkpt lat="50.79869" lon="5.34052">
        <ele>77</ele>
        <time>2018-11-02T07:26:37Z</time>
      </trkpt>
      <trkpt lat="50.79829" lon="5.34035">
        <ele>77</ele>
        <time>2018-11-02T07:27:37Z</time>
      </trkpt>
      <trkpt lat="50.79775" lon="5.34009">
        <ele>78</ele>
        <time>2018-11-02T07:28:37Z</time>
      </trkpt>
      <trkpt lat="50.79751" lon="5.33999">
        <ele>78</ele>
        <time>2018-11-02T07:29:37Z</time>
      </trkpt>
      <trkpt lat="50.79713" lon="5.33977">
        <ele>80</ele>
        <time>2018-11-02T07:30:37Z</time>
      </trkpt>
      <trkpt lat="50.79634" lon="5.3391">
        <ele>83</ele>
        <time>2018-11-02T07:31:37Z</time>
      </trkpt>
      <trkpt lat="50.79605" lon="5.33886">
        <ele>83</ele>
        <time>2018-11-02T07:32:37Z</time>
      </trkpt>
      <trkpt lat="50.79547" lon="5.33842">
        <ele>83</ele>
        <time>2018-11-02T07:33:37Z</time>
      </trkpt>
      <trkpt lat="50.79527" lon="5.33823">
        <ele>83</ele>
        <time>2018-11-02T07:34:37Z</time>
      </trkpt>
      <trkpt lat="50.79507" lon="5.33817">
        <ele>84</ele>
        <time>2018-11-02T07:35:37Z</time>
      </trkpt>
      <trkpt lat="50.79436" lon="5.33774">
        <ele>86</ele>
        <time>2018-11-02T07:36:37Z</time>
      </trkpt>
      <trkpt lat="50.793" lon="5.33688">
        <ele>90</ele>
        <time>2018-11-02T07:37:37Z</time>
      </trkpt>
      <trkpt lat="50.79255" lon="5.33659">
        <ele>91</ele>
        <time>2018-11-02T07:38:37Z</time>
      </trkpt>
      <trkpt lat="50.79211" lon="5.33637">
        <ele>91</ele>
        <time>2018-11-02T07:39:37Z</time>
      </trkpt>
      <trkpt lat="50.79189" lon="5.33627">
        <ele>91</ele>
        <time>2018-11-02T07:40:37Z</time>
      </trkpt>
      <trkpt lat="50.79102" lon="5.33604">
        <ele>88</ele>
        <time>2018-11-02T07:41:37Z</time>
      </trkpt>
      <trkpt lat="50.79069" lon="5.33603">
        <ele>86</ele>
        <time>2018-11-02T07:42:37Z</time>
      </trkpt>
      <trkpt lat="50.79018" lon="5.33606">
        <ele>84</ele>
        <time>2018-11-02T07:43:37Z</time>
      </trkpt>
      <trkpt lat="50.78995" lon="5.33608">
        <ele>82</ele>
        <time>2018-11-02T07:44:37Z</time>
      </trkpt>
      <trkpt lat="50.78949" lon="5.33611">
        <ele>80</ele>
        <time>2018-11-02T07:45:37Z</time>
      </trkpt>
      <trkpt lat="50.78927" lon="5.33613">
        <ele>79</ele>
        <time>2018-11-02T07:46:37Z</time>
      </trkpt>
      <trkpt lat="50.7892" lon="5.33613">
        <ele>79</ele>
        <time>2018-11-02T07:47:37Z</time>
      </trkpt>
      <trkpt lat="50.78906" lon="5.33609">
        <ele>78</ele>
        <time>2018-11-02T07:48:37Z</time>
      </trkpt>
      <trkpt lat="50.7889" lon="5.3361">
        <ele>78</ele>
        <time>2018-11-02T07:49:37Z</time>
      </trkpt>
      <trkpt lat="50.78869" lon="5.33618">
        <ele>77</ele>
        <time>2018-11-02T07:50:37Z</time>
      </trkpt>
      <trkpt lat="50.78812" lon="5.33622">
        <ele>75</ele>
        <time>2018-11-02T07:51:37Z</time>
      </trkpt>
      <trkpt lat="50.7872" lon="5.33625">
        <ele>72</ele>
        <time>2018-11-02T07:52:37Z</time>
      </trkpt>
      <trkpt lat="50.78703" lon="5.33624">
        <ele>71</ele>
        <time>2018-11-02T07:53:37Z</time>
      </trkpt>
      <trkpt lat="50.78677" lon="5.33624">
        <ele>70</ele>
        <time>2018-11-02T07:54:37Z</time>
      </trkpt>
      <trkpt lat="50.78659" lon="5.33623">
        <ele>69</ele>
        <time>2018-11-02T07:55:37Z</time>
      </trkpt>
      <trkpt lat="50.78633" lon="5.33619">
        <ele>68</ele>
        <time>2018-11-02T07:56:37Z</time>
      </trkpt>
      <trkpt lat="50.78625" lon="5.33616">
        <ele>68</ele>
        <time>2018-11-02T07:57:37Z</time>
      </trkpt>
      <trkpt lat="50.78596" lon="5.33585">
        <ele>67</ele>
        <time>2018-11-02T07:58:37Z</time>
      </trkpt>
      <trkpt lat="50.7857" lon="5.33553">
        <ele>67</ele>
        <time>2018-11-02T07:59:37Z</time>
      </trkpt>
      <trkpt lat="50.78536" lon="5.33508">
        <ele>67</ele>
        <time>2018-11-02T08:00:37Z</time>
      </trkpt>
      <trkpt lat="50.78474" lon="5.33419">
        <ele>67</ele>
        <time>2018-11-02T08:01:37Z</time>
      </trkpt>
      <trkpt lat="50.78457" lon="5.33391">
        <ele>66</ele>
        <time>2018-11-02T08:02:37Z</time>
      </trkpt>
      <trkpt lat="50.78448" lon="5.3338">
        <ele>66</ele>
        <time>2018-11-02T08:03:37Z</time>
      </trkpt>
      <trkpt lat="50.78437" lon="5.33371">
        <ele>66</ele>
        <time>2018-11-02T08:04:37Z</time>
      </trkpt>
      <trkpt lat="50.7842" lon="5.33352">
        <ele>65</ele>
        <time>2018-11-02T08:05:37Z</time>
      </trkpt>
      <trkpt lat="50.78397" lon="5.33328">
        <ele>65</ele>
        <time>2018-11-02T08:06:37Z</time>
      </trkpt>
      <trkpt lat="50.78362" lon="5.33309">
        <ele>64</ele>
        <time>2018-11-02T08:07:37Z</time>
      </trkpt>
      <trkpt lat="50.78355" lon="5.33306">
        <ele>64</ele>
        <time>2018-11-02T08:08:37Z</time>
      </trkpt>
      <trkpt lat="50.78281" lon="5.33265">
        <ele>62</ele>
        <time>2018-11-02T08:09:37Z</time>
      </trkpt>
      <trkpt lat="50.78268" lon="5.33253">
        <ele>61</ele>
        <time>2018-11-02T08:10:37Z</time>
      </trkpt>
      <trkpt lat="50.78251" lon="5.33226">
        <ele>61</ele>
        <time>2018-11-02T08:11:37Z</time>
      </trkpt>
      <trkpt lat="50.78247" lon="5.33215">
        <ele>61</ele>
        <time>2018-11-02T08:12:37Z</time>
      </trkpt>
      <trkpt lat="50.78235" lon="5.33182">
        <ele>60</ele>
        <time>2018-11-02T08:13:37Z</time>
      </trkpt>
      <trkpt lat="50.78216" lon="5.33139">
        <ele>59</ele>
        <time>2018-11-02T08:14:37Z</time>
      </trkpt>
      <trkpt lat="50.78204" lon="5.33121">
        <ele>59</ele>
        <time>2018-11-02T08:15:37Z</time>
      </trkpt>
      <trkpt lat="50.78182" lon="5.331">
        <ele>58</ele>
        <time>2018-11-02T08:16:37Z</time>
      </trkpt>
      <trkpt lat="50.78161" lon="5.33081">
        <ele>58</ele>
        <time>2018-11-02T08:17:37Z</time>
      </trkpt>
      <trkpt lat="50.78135" lon="5.33066">
        <ele>59</ele>
        <time>2018-11-02T08:18:37Z</time>
      </trkpt>
      <trkpt lat="50.78096" lon="5.33039">
        <ele>59</ele>
        <time>2018-11-02T08:19:37Z</time>
      </trkpt>
      <trkpt lat="50.78079" lon="5.33025">
        <ele>59</ele>
        <time>2018-11-02T08:20:37Z</time>
      </trkpt>
      <trkpt lat="50.7807" lon="5.33014">
        <ele>59</ele>
        <time>2018-11-02T08:21:37Z</time>
      </trkpt>
      <trkpt lat="50.78045" lon="5.32968">
        <ele>60</ele>
        <time>2018-11-02T08:22:37Z</time>
      </trkpt>
      <trkpt lat="50.78032" lon="5.32952">
        <ele>61</ele>
        <time>2018-11-02T08:23:37Z</time>
      </trkpt>
      <trkpt lat="50.77941" lon="5.32772">
        <ele>61</ele>
        <time>2018-11-02T08:24:37Z</time>
      </trkpt>
      <trkpt lat="50.77918" lon="5.32735">
        <ele>61</ele>
        <time>2018-11-02T08:25:37Z</time>
      </trkpt>
      <trkpt lat="50.77791" lon="5.32439">
        <ele>69</ele>
        <time>2018-11-02T08:26:37Z</time>
      </trkpt>
      <trkpt lat="50.77726" lon="5.32289">
        <ele>71</ele>
        <time>2018-11-02T08:27:37Z</time>
      </trkpt>
      <trkpt lat="50.77708" lon="5.32249">
        <ele>71</ele>
        <time>2018-11-02T08:28:37Z</time>
      </trkpt>
      <trkpt lat="50.77626" lon="5.3209">
        <ele>72</ele>
        <time>2018-11-02T08:29:37Z</time>
      </trkpt>
      <trkpt lat="50.77556" lon="5.31959">
        <ele>70</ele>
        <time>2018-11-02T08:30:37Z</time>
      </trkpt>
      <trkpt lat="50.77493" lon="5.31845">
        <ele>66</ele>
        <time>2018-11-02T08:31:37Z</time>
      </trkpt>
      <trkpt lat="50.77452" lon="5.3178">
        <ele>66</ele>
        <time>2018-11-02T08:32:37Z</time>
      </trkpt>
      <trkpt lat="50.77429" lon="5.31751">
        <ele>66</ele>
        <time>2018-11-02T08:33:37Z</time>
      </trkpt>
      <trkpt lat="50.77407" lon="5.31732">
        <ele>66</ele>
        <time>2018-11-02T08:34:37Z</time>
      </trkpt>
      <trkpt lat="50.77373" lon="5.31718">
        <ele>66</ele>
        <time>2018-11-02T08:35:37Z</time>
      </trkpt>
      <trkpt lat="50.77339" lon="5.31707">
        <ele>67</ele>
        <time>2018-11-02T08:36:37Z</time>
      </trkpt>
      <trkpt lat="50.77299" lon="5.31692">
        <ele>67</ele>
        <time>2018-11-02T08:37:37Z</time>
      </trkpt>
      <trkpt lat="50.77281" lon="5.31684">
        <ele>67</ele>
        <time>2018-11-02T08:38:37Z</time>
      </trkpt>
      <trkpt lat="50.77259" lon="5.31692">
        <ele>67</ele>
        <time>2018-11-02T08:39:37Z</time>
      </trkpt>
      <trkpt lat="50.77235" lon="5.31707">
        <ele>68</ele>
        <time>2018-11-02T08:40:37Z</time>
      </trkpt>
      <trkpt lat="50.77208" lon="5.31731">
        <ele>68</ele>
        <time>2018-11-02T08:41:37Z</time>
      </trkpt>
      <trkpt lat="50.77172" lon="5.31778">
        <ele>69</ele>
        <time>2018-11-02T08:42:37Z</time>
      </trkpt>
      <trkpt lat="50.77158" lon="5.31787">
        <ele>69</ele>
        <time>2018-11-02T08:43:37Z</time>
      </trkpt>
      <trkpt lat="50.77143" lon="5.31795">
        <ele>69</ele>
        <time>2018-11-02T08:44:37Z</time>
      </trkpt>
      <trkpt lat="50.77126" lon="5.31788">
        <ele>69</ele>
        <time>2018-11-02T08:45:37Z</time>
      </trkpt>
      <trkpt lat="50.77097" lon="5.3175">
        <ele>68</ele>
        <time>2018-11-02T08:46:37Z</time>
      </trkpt>
      <trkpt lat="50.77052" lon="5.31678">
        <ele>64</ele>
        <time>2018-11-02T08:47:37Z</time>
      </trkpt>
      <trkpt lat="50.77032" lon="5.3163">
        <ele>63</ele>
        <time>2018-11-02T08:48:37Z</time>
      </trkpt>
      <trkpt lat="50.77025" lon="5.31596">
        <ele>63</ele>
        <time>2018-11-02T08:49:37Z</time>
      </trkpt>
      <trkpt lat="50.77017" lon="5.31528">
        <ele>64</ele>
        <time>2018-11-02T08:50:37Z</time>
      </trkpt>
      <trkpt lat="50.7701" lon="5.31496">
        <ele>65</ele>
        <time>2018-11-02T08:51:37Z</time>
      </trkpt>
      <trkpt lat="50.76951" lon="5.31329">
        <ele>68</ele>
        <time>2018-11-02T08:52:37Z</time>
      </trkpt>
      <trkpt lat="50.76888" lon="5.31144">
        <ele>66</ele>
        <time>2018-11-02T08:53:37Z</time>
      </trkpt>
      <trkpt lat="50.76837" lon="5.30919">
        <ele>68</ele>
        <time>2018-11-02T08:54:37Z</time>
      </trkpt>
      <trkpt lat="50.76816" lon="5.30847">
        <ele>70</ele>
        <time>2018-11-02T08:55:37Z</time>
      </trkpt>
      <trkpt lat="50.76805" lon="5.30824">
        <ele>70</ele>
        <time>2018-11-02T08:56:37Z</time>
      </trkpt>
      <trkpt lat="50.7679" lon="5.30804">
        <ele>71</ele>
        <time>2018-11-02T08:57:37Z</time>
      </trkpt>
      <trkpt lat="50.76768" lon="5.30785">
        <ele>72</ele>
        <time>2018-11-02T08:58:37Z</time>
      </trkpt>
      <trkpt lat="50.76737" lon="5.3077">
        <ele>73</ele>
        <time>2018-11-02T08:59:37Z</time>
      </trkpt>
      <trkpt lat="50.76666" lon="5.30749">
        <ele>76</ele>
        <time>2018-11-02T09:00:37Z</time>
      </trkpt>
      <trkpt lat="50.76644" lon="5.30738">
        <ele>76</ele>
        <time>2018-11-02T09:01:37Z</time>
      </trkpt>
      <trkpt lat="50.76612" lon="5.3072">
        <ele>77</ele>
        <time>2018-11-02T09:02:37Z</time>
      </trkpt>
      <trkpt lat="50.76499" lon="5.30651">
        <ele>81</ele>
        <time>2018-11-02T09:03:37Z</time>
      </trkpt>
      <trkpt lat="50.76401" lon="5.30593">
        <ele>80</ele>
        <time>2018-11-02T09:04:37Z</time>
      </trkpt>
      <trkpt lat="50.7635" lon="5.30577">
        <ele>81</ele>
        <time>2018-11-02T09:05:37Z</time>
      </trkpt>
      <trkpt lat="50.76324" lon="5.30575">
        <ele>82</ele>
        <time>2018-11-02T09:06:37Z</time>
      </trkpt>
      <trkpt lat="50.76292" lon="5.30576">
        <ele>82</ele>
        <time>2018-11-02T09:07:37Z</time>
      </trkpt>
      <trkpt lat="50.76258" lon="5.30585">
        <ele>82</ele>
        <time>2018-11-02T09:08:37Z</time>
      </trkpt>
      <trkpt lat="50.76231" lon="5.30589">
        <ele>82</ele>
        <time>2018-11-02T09:09:37Z</time>
      </trkpt>
      <trkpt lat="50.76198" lon="5.30582">
        <ele>81</ele>
        <time>2018-11-02T09:10:37Z</time>
      </trkpt>
      <trkpt lat="50.76148" lon="5.30566">
        <ele>82</ele>
        <time>2018-11-02T09:11:37Z</time>
      </trkpt>
      <trkpt lat="50.76055" lon="5.30531">
        <ele>84</ele>
        <time>2018-11-02T09:12:37Z</time>
      </trkpt>
      <trkpt lat="50.75938" lon="5.30495">
        <ele>80</ele>
        <time>2018-11-02T09:13:37Z</time>
      </trkpt>
      <trkpt lat="50.75878" lon="5.30475">
        <ele>78</ele>
        <time>2018-11-02T09:14:37Z</time>
      </trkpt>
      <trkpt lat="50.75828" lon="5.30469">
        <ele>77</ele>
        <time>2018-11-02T09:15:37Z</time>
      </trkpt>
      <trkpt lat="50.7576" lon="5.30479">
        <ele>78</ele>
        <time>2018-11-02T09:16:37Z</time>
      </trkpt>
      <trkpt lat="50.75728" lon="5.3048">
        <ele>78</ele>
        <time>2018-11-02T09:17:37Z</time>
      </trkpt>
      <trkpt lat="50.75698" lon="5.30477">
        <ele>78</ele>
        <time>2018-11-02T09:18:37Z</time>
      </trkpt>
      <trkpt lat="50.75665" lon="5.30465">
        <ele>77</ele>
        <time>2018-11-02T09:19:37Z</time>
      </trkpt>
      <trkpt lat="50.75618" lon="5.30434">
        <ele>79</ele>
        <time>2018-11-02T09:20:37Z</time>
      </trkpt>
      <trkpt lat="50.75586" lon="5.30406">
        <ele>80</ele>
        <time>2018-11-02T09:21:37Z</time>
      </trkpt>
      <trkpt lat="50.75506" lon="5.30336">
        <ele>78</ele>
        <time>2018-11-02T09:22:37Z</time>
      </trkpt>
      <trkpt lat="50.75438" lon="5.30275">
        <ele>76</ele>
        <time>2018-11-02T09:23:37Z</time>
      </trkpt>
      <trkpt lat="50.75377" lon="5.30223">
        <ele>76</ele>
        <time>2018-11-02T09:24:37Z</time>
      </trkpt>
      <trkpt lat="50.75346" lon="5.30203">
        <ele>76</ele>
        <time>2018-11-02T09:25:37Z</time>
      </trkpt>
      <trkpt lat="50.75269" lon="5.30179">
        <ele>78</ele>
        <time>2018-11-02T09:26:37Z</time>
      </trkpt>
      <trkpt lat="50.75212" lon="5.30171">
        <ele>78</ele>
        <time>2018-11-02T09:27:37Z</time>
      </trkpt>
      <trkpt lat="50.75167" lon="5.30168">
        <ele>79</ele>
        <time>2018-11-02T09:28:37Z</time>
      </trkpt>
      <trkpt lat="50.75147" lon="5.30162">
        <ele>79</ele>
        <time>2018-11-02T09:29:37Z</time>
      </trkpt>
      <trkpt lat="50.75062" lon="5.30104">
        <ele>79</ele>
        <time>2018-11-02T09:30:37Z</time>
      </trkpt>
      <trkpt lat="50.75035" lon="5.30079">
        <ele>79</ele>
        <time>2018-11-02T09:31:37Z</time>
      </trkpt>
      <trkpt lat="50.7503" lon="5.30075">
        <ele>79</ele>
        <time>2018-11-02T09:32:37Z</time>
      </trkpt>
      <trkpt lat="50.75012" lon="5.30046">
        <ele>79</ele>
        <time>2018-11-02T09:33:37Z</time>
      </trkpt>
      <trkpt lat="50.74968" lon="5.30002">
        <ele>81</ele>
        <time>2018-11-02T09:34:37Z</time>
      </trkpt>
      <trkpt lat="50.74958" lon="5.29996">
        <ele>81</ele>
        <time>2018-11-02T09:35:37Z</time>
      </trkpt>
      <trkpt lat="50.7495" lon="5.29991">
        <ele>81</ele>
        <time>2018-11-02T09:36:37Z</time>
      </trkpt>
      <trkpt lat="50.74942" lon="5.2998">
        <ele>81</ele>
        <time>2018-11-02T09:37:37Z</time>
      </trkpt>
      <trkpt lat="50.74917" lon="5.29969">
        <ele>82</ele>
        <time>2018-11-02T09:38:37Z</time>
      </trkpt>
      <trkpt lat="50.74896" lon="5.29949">
        <ele>83</ele>
        <time>2018-11-02T09:39:37Z</time>
      </trkpt>
      <trkpt lat="50.74845" lon="5.29886">
        <ele>86</ele>
        <time>2018-11-02T09:40:37Z</time>
      </trkpt>
      <trkpt lat="50.7481" lon="5.2984">
        <ele>87</ele>
        <time>2018-11-02T09:41:37Z</time>
      </trkpt>
      <trkpt lat="50.74764" lon="5.2979">
        <ele>88</ele>
        <time>2018-11-02T09:42:37Z</time>
      </trkpt>
      <trkpt lat="50.74753" lon="5.29779">
        <ele>88</ele>
        <time>2018-11-02T09:43:37Z</time>
      </trkpt>
      <trkpt lat="50.74731" lon="5.29762">
        <ele>88</ele>
        <time>2018-11-02T09:44:37Z</time>
      </trkpt>
      <trkpt lat="50.74692" lon="5.29735">
        <ele>89</ele>
        <time>2018-11-02T09:45:37Z</time>
      </trkpt>
      <trkpt lat="50.74609" lon="5.29687">
        <ele>90</ele>
        <time>2018-11-02T09:46:37Z</time>
      </trkpt>
      <trkpt lat="50.74574" lon="5.2967">
        <ele>90</ele>
        <time>2018-11-02T09:47:37Z</time>
      </trkpt>
      <trkpt lat="50.74549" lon="5.29681">
        <ele>90</ele>
        <time>2018-11-02T09:48:37Z</time>
      </trkpt>
      <trkpt lat="50.74535" lon="5.297">
        <ele>89</ele>
        <time>2018-11-02T09:49:37Z</time>
      </trkpt>
      <trkpt lat="50.74529" lon="5.29719">
        <ele>89</ele>
        <time>2018-11-02T09:50:37Z</time>
      </trkpt>
      <trkpt lat="50.74489" lon="5.29846">
        <ele>87</ele>
        <time>2018-11-02T09:51:37Z</time>
      </trkpt>
      <trkpt lat="50.74461" lon="5.29922">
        <ele>86</ele>
        <time>2018-11-02T09:52:37Z</time>
      </trkpt>
      <trkpt lat="50.74436" lon="5.30012">
        <ele>84</ele>
        <time>2018-11-02T09:53:37Z</time>
      </trkpt>
      <trkpt lat="50.74428" lon="5.30033">
        <ele>84</ele>
        <time>2018-11-02T09:54:37Z</time>
      </trkpt>
      <trkpt lat="50.7442" lon="5.30054">
        <ele>85</ele>
        <time>2018-11-02T09:55:37Z</time>
      </trkpt>
      <trkpt lat="50.74396" lon="5.30022">
        <ele>85</ele>
        <time>2018-11-02T09:56:37Z</time>
      </trkpt>
      <trkpt lat="50.74378" lon="5.3">
        <ele>86</ele>
        <time>2018-11-02T09:57:37Z</time>
      </trkpt>
      <trkpt lat="50.74348" lon="5.2997">
        <ele>86</ele>
        <time>2018-11-02T09:58:37Z</time>
      </trkpt>
      <trkpt lat="50.74252" lon="5.29888">
        <ele>87</ele>
        <time>2018-11-02T09:59:37Z</time>
      </trkpt>
      <trkpt lat="50.74203" lon="5.29849">
        <ele>88</ele>
        <time>2018-11-02T10:00:37Z</time>
      </trkpt>
      <trkpt lat="50.74183" lon="5.29843">
        <ele>88</ele>
        <time>2018-11-02T10:01:37Z</time>
      </trkpt>
      <trkpt lat="50.74168" lon="5.29845">
        <ele>88</ele>
        <time>2018-11-02T10:02:37Z</time>
      </trkpt>
      <trkpt lat="50.7412" lon="5.29859">
        <ele>88</ele>
        <time>2018-11-02T10:03:37Z</time>
      </trkpt>
      <trkpt lat="50.7409" lon="5.29859">
        <ele>88</ele>
        <time>2018-11-02T10:04:37Z</time>
      </trkpt>
      <trkpt lat="50.74066" lon="5.2985">
        <ele>88</ele>
        <time>2018-11-02T10:05:37Z</time>
      </trkpt>
      <trkpt lat="50.74045" lon="5.29838">
        <ele>88</ele>
        <time>2018-11-02T10:06:37Z</time>
      </trkpt>
      <trkpt lat="50.73949" lon="5.29749">
        <ele>90</ele>
        <time>2018-11-02T10:07:37Z</time>
      </trkpt>
      <trkpt lat="50.73908" lon="5.29717">
        <ele>91</ele>
        <time>2018-11-02T10:08:37Z</time>
      </trkpt>
      <trkpt lat="50.73854" lon="5.29693">
        <ele>93</ele>
        <time>2018-11-02T10:09:37Z</time>
      </trkpt>
      <trkpt lat="50.73829" lon="5.29683">
        <ele>93</ele>
        <time>2018-11-02T10:10:37Z</time>
      </trkpt>
      <trkpt lat="50.73813" lon="5.29666">
        <ele>94</ele>
        <time>2018-11-02T10:11:37Z</time>
      </trkpt>
      <trkpt lat="50.73798" lon="5.29622">
        <ele>94</ele>
        <time>2018-11-02T10:12:37Z</time>
      </trkpt>
      <trkpt lat="50.73775" lon="5.29545">
        <ele>95</ele>
        <time>2018-11-02T10:13:37Z</time>
      </trkpt>
      <trkpt lat="50.73763" lon="5.29512">
        <ele>95</ele>
        <time>2018-11-02T10:14:37Z</time>
      </trkpt>
      <trkpt lat="50.73746" lon="5.29483">
        <ele>95</ele>
        <time>2018-11-02T10:15:37Z</time>
      </trkpt>
      <trkpt lat="50.73713" lon="5.29442">
        <ele>97</ele>
        <time>2018-11-02T10:16:37Z</time>
      </trkpt>
      <trkpt lat="50.73695" lon="5.29418">
        <ele>97</ele>
        <time>2018-11-02T10:17:37Z</time>
      </trkpt>
      <trkpt lat="50.73678" lon="5.29405">
        <ele>97</ele>
        <time>2018-11-02T10:18:37Z</time>
      </trkpt>
      <trkpt lat="50.7366" lon="5.29398">
        <ele>97</ele>
        <time>2018-11-02T10:19:37Z</time>
      </trkpt>
      <trkpt lat="50.73639" lon="5.29397">
        <ele>97</ele>
        <time>2018-11-02T10:20:37Z</time>
      </trkpt>
      <trkpt lat="50.73567" lon="5.29394">
        <ele>98</ele>
        <time>2018-11-02T10:21:37Z</time>
      </trkpt>
      <trkpt lat="50.73525" lon="5.29408">
        <ele>98</ele>
        <time>2018-11-02T10:22:37Z</time>
      </trkpt>
      <trkpt lat="50.7342" lon="5.29446">
        <ele>100</ele>
        <time>2018-11-02T10:23:37Z</time>
      </trkpt>
      <trkpt lat="50.73385" lon="5.29461">
        <ele>102</ele>
        <time>2018-11-02T10:24:37Z</time>
      </trkpt>
      <trkpt lat="50.73358" lon="5.29476">
        <ele>103</ele>
        <time>2018-11-02T10:25:37Z</time>
      </trkpt>
      <trkpt lat="50.73303" lon="5.29525">
        <ele>106</ele>
        <time>2018-11-02T10:26:37Z</time>
      </trkpt>
      <trkpt lat="50.73249" lon="5.29581">
        <ele>108</ele>
        <time>2018-11-02T10:27:37Z</time>
      </trkpt>
      <trkpt lat="50.73209" lon="5.29619">
        <ele>108</ele>
        <time>2018-11-02T10:28:37Z</time>
      </trkpt>
      <trkpt lat="50.7316" lon="5.29651">
        <ele>108</ele>
        <time>2018-11-02T10:29:37Z</time>
      </trkpt>
      <trkpt lat="50.73118" lon="5.29678">
        <ele>111</ele>
        <time>2018-11-02T10:30:37Z</time>
      </trkpt>
      <trkpt lat="50.73082" lon="5.29696">
        <ele>112</ele>
        <time>2018-11-02T10:31:37Z</time>
      </trkpt>
      <trkpt lat="50.73061" lon="5.29706">
        <ele>113</ele>
        <time>2018-11-02T10:32:37Z</time>
      </trkpt>
      <trkpt lat="50.72991" lon="5.29762">
        <ele>114</ele>
        <time>2018-11-02T10:33:37Z</time>
      </trkpt>
      <trkpt lat="50.72938" lon="5.29803">
        <ele>115</ele>
        <time>2018-11-02T10:34:37Z</time>
      </trkpt>
      <trkpt lat="50.72884" lon="5.29845">
        <ele>116</ele>
        <time>2018-11-02T10:35:37Z</time>
      </trkpt>
      <trkpt lat="50.72817" lon="5.29898">
        <ele>120</ele>
        <time>2018-11-02T10:36:37Z</time>
      </trkpt>
      <trkpt lat="50.72733" lon="5.29965">
        <ele>124</ele>
        <time>2018-11-02T10:37:37Z</time>
      </trkpt>
      <trkpt lat="50.72691" lon="5.29994">
        <ele>124</ele>
        <time>2018-11-02T10:38:37Z</time>
      </trkpt>
      <trkpt lat="50.72665" lon="5.29996">
        <ele>124</ele>
        <time>2018-11-02T10:39:37Z</time>
      </trkpt>
      <trkpt lat="50.72546" lon="5.2997">
        <ele>122</ele>
        <time>2018-11-02T10:40:37Z</time>
      </trkpt>
      <trkpt lat="50.72501" lon="5.29961">
        <ele>121</ele>
        <time>2018-11-02T10:41:37Z</time>
      </trkpt>
      <trkpt lat="50.72482" lon="5.29944">
        <ele>121</ele>
        <time>2018-11-02T10:42:37Z</time>
      </trkpt>
      <trkpt lat="50.72391" lon="5.2973">
        <ele>115</ele>
        <time>2018-11-02T10:43:37Z</time>
      </trkpt>
      <trkpt lat="50.72329" lon="5.29582">
        <ele>116</ele>
        <time>2018-11-02T10:44:37Z</time>
      </trkpt>
      <trkpt lat="50.72304" lon="5.29534">
        <ele>116</ele>
        <time>2018-11-02T10:45:37Z</time>
      </trkpt>
      <trkpt lat="50.7227" lon="5.29486">
        <ele>116</ele>
        <time>2018-11-02T10:46:37Z</time>
      </trkpt>
      <trkpt lat="50.72248" lon="5.29459">
        <ele>116</ele>
        <time>2018-11-02T10:47:37Z</time>
      </trkpt>
      <trkpt lat="50.72207" lon="5.29404">
        <ele>117</ele>
        <time>2018-11-02T10:48:37Z</time>
      </trkpt>
      <trkpt lat="50.72172" lon="5.29347">
        <ele>119</ele>
        <time>2018-11-02T10:49:37Z</time>
      </trkpt>
      <trkpt lat="50.72146" lon="5.29314">
        <ele>120</ele>
        <time>2018-11-02T10:50:37Z</time>
      </trkpt>
      <trkpt lat="50.72105" lon="5.29276">
        <ele>122</ele>
        <time>2018-11-02T10:51:37Z</time>
      </trkpt>
      <trkpt lat="50.72088" lon="5.29258">
        <ele>123</ele>
        <time>2018-11-02T10:52:37Z</time>
      </trkpt>
      <trkpt lat="50.72053" lon="5.29215">
        <ele>122</ele>
        <time>2018-11-02T10:53:37Z</time>
      </trkpt>
      <trkpt lat="50.7202" lon="5.29166">
        <ele>122</ele>
        <time>2018-11-02T10:54:37Z</time>
      </trkpt>
      <trkpt lat="50.72002" lon="5.29122">
        <ele>122</ele>
        <time>2018-11-02T10:55:37Z</time>
      </trkpt>
      <trkpt lat="50.71985" lon="5.29071">
        <ele>122</ele>
        <time>2018-11-02T10:56:37Z</time>
      </trkpt>
      <trkpt lat="50.71972" lon="5.29044">
        <ele>122</ele>
        <time>2018-11-02T10:57:37Z</time>
      </trkpt>
      <trkpt lat="50.71945" lon="5.29011">
        <ele>123</ele>
        <time>2018-11-02T10:58:37Z</time>
      </trkpt>
      <trkpt lat="50.71901" lon="5.28956">
        <ele>123</ele>
        <time>2018-11-02T10:59:37Z</time>
      </trkpt>
      <trkpt lat="50.71875" lon="5.28929">
        <ele>122</ele>
        <time>2018-11-02T11:00:37Z</time>
      </trkpt>
      <trkpt lat="50.71853" lon="5.28915">
        <ele>121</ele>
        <time>2018-11-02T11:01:37Z</time>
      </trkpt>
      <trkpt lat="50.7181" lon="5.28896">
        <ele>120</ele>
        <time>2018-11-02T11:02:37Z</time>
      </trkpt>
      <trkpt lat="50.71787" lon="5.28877">
        <ele>119</ele>
        <time>2018-11-02T11:03:37Z</time>
      </trkpt>
      <trkpt lat="50.71773" lon="5.28861">
        <ele>118</ele>
        <time>2018-11-02T11:04:37Z</time>
      </trkpt>
      <trkpt lat="50.71757" lon="5.2884">
        <ele>117</ele>
        <time>2018-11-02T11:05:37Z</time>
      </trkpt>
      <trkpt lat="50.71742" lon="5.28814">
        <ele>117</ele>
        <time>2018-11-02T11:06:37Z</time>
      </trkpt>
      <trkpt lat="50.71725" lon="5.28783">
        <ele>116</ele>
        <time>2018-11-02T11:07:37Z</time>
      </trkpt>
      <trkpt lat="50.71628" lon="5.28588">
        <ele>115</ele>
        <time>2018-11-02T11:08:37Z</time>
      </trkpt>
      <trkpt lat="50.71615" lon="5.28564">
        <ele>115</ele>
        <time>2018-11-02T11:09:37Z</time>
      </trkpt>
      <trkpt lat="50.71592" lon="5.28536">
        <ele>116</ele>
        <time>2018-11-02T11:10:37Z</time>
      </trkpt>
      <trkpt lat="50.71511" lon="5.28457">
        <ele>118</ele>
        <time>2018-11-02T11:11:37Z</time>
      </trkpt>
      <trkpt lat="50.71494" lon="5.2844">
        <ele>118</ele>
        <time>2018-11-02T11:12:37Z</time>
      </trkpt>
      <trkpt lat="50.71474" lon="5.28421">
        <ele>118</ele>
        <time>2018-11-02T11:13:37Z</time>
      </trkpt>
      <trkpt lat="50.71459" lon="5.28391">
        <ele>119</ele>
        <time>2018-11-02T11:14:37Z</time>
      </trkpt>
      <trkpt lat="50.7145" lon="5.28357">
        <ele>119</ele>
        <time>2018-11-02T11:15:37Z</time>
      </trkpt>
      <trkpt lat="50.71447" lon="5.28322">
        <ele>120</ele>
        <time>2018-11-02T11:16:37Z</time>
      </trkpt>
      <trkpt lat="50.71444" lon="5.28235">
        <ele>120</ele>
        <time>2018-11-02T11:17:37Z</time>
      </trkpt>
      <trkpt lat="50.71439" lon="5.28167">
        <ele>121</ele>
        <time>2018-11-02T11:18:37Z</time>
      </trkpt>
      <trkpt lat="50.71433" lon="5.28122">
        <ele>120</ele>
        <time>2018-11-02T11:19:37Z</time>
      </trkpt>
      <trkpt lat="50.71385" lon="5.28124">
        <ele>119</ele>
        <time>2018-11-02T11:20:37Z</time>
      </trkpt>
      <trkpt lat="50.71312" lon="5.28141">
        <ele>118</ele>
        <time>2018-11-02T11:21:37Z</time>
      </trkpt>
      <trkpt lat="50.71254" lon="5.28153">
        <ele>115</ele>
        <time>2018-11-02T11:22:37Z</time>
      </trkpt>
      <trkpt lat="50.71243" lon="5.2812">
        <ele>115</ele>
        <time>2018-11-02T11:23:37Z</time>
      </trkpt>
      <trkpt lat="50.71226" lon="5.28042">
        <ele>115</ele>
        <time>2018-11-02T11:24:37Z</time>
      </trkpt>
      <trkpt lat="50.71213" lon="5.28002">
        <ele>114</ele>
        <time>2018-11-02T11:25:37Z</time>
      </trkpt>
      <trkpt lat="50.71203" lon="5.2799">
        <ele>114</ele>
        <time>2018-11-02T11:26:37Z</time>
      </trkpt>
      <trkpt lat="50.71134" lon="5.27958">
        <ele>110</ele>
        <time>2018-11-02T11:27:37Z</time>
      </trkpt>
      <trkpt lat="50.71096" lon="5.27941">
        <ele>108</ele>
        <time>2018-11-02T11:28:37Z</time>
      </trkpt>
      <trkpt lat="50.7107" lon="5.27917">
        <ele>107</ele>
        <time>2018-11-02T11:29:37Z</time>
      </trkpt>
      <trkpt lat="50.71046" lon="5.27886">
        <ele>107</ele>
        <time>2018-11-02T11:30:37Z</time>
      </trkpt>
      <trkpt lat="50.71018" lon="5.27844">
        <ele>108</ele>
        <time>2018-11-02T11:31:37Z</time>
      </trkpt>
      <trkpt lat="50.70985" lon="5.27808">
        <ele>108</ele>
        <time>2018-11-02T11:32:37Z</time>
      </trkpt>
      <trkpt lat="50.70935" lon="5.27754">
        <ele>110</ele>
        <time>2018-11-02T11:33:37Z</time>
      </trkpt>
      <trkpt lat="50.7091" lon="5.27737">
        <ele>111</ele>
        <time>2018-11-02T11:34:37Z</time>
      </trkpt>
      <trkpt lat="50.70838" lon="5.27656">
        <ele>110</ele>
        <time>2018-11-02T11:35:37Z</time>
      </trkpt>
      <trkpt lat="50.70795" lon="5.27608">
        <ele>111</ele>
        <time>2018-11-02T11:36:37Z</time>
      </trkpt>
      <trkpt lat="50.70747" lon="5.27476">
        <ele>114</ele>
        <time>2018-11-02T11:37:37Z</time>
      </trkpt>
      <trkpt lat="50.70701" lon="5.27402">
        <ele>115</ele>
        <time>2018-11-02T11:38:37Z</time>
      </trkpt>
      <trkpt lat="50.70668" lon="5.27364">
        <ele>116</ele>
        <time>2018-11-02T11:39:37Z</time>
      </trkpt>
      <trkpt lat="50.7064" lon="5.27336">
        <ele>117</ele>
        <time>2018-11-02T11:40:37Z</time>
      </trkpt>
      <trkpt lat="50.70542" lon="5.27241">
        <ele>114</ele>
        <time>2018-11-02T11:41:37Z</time>
      </trkpt>
      <trkpt lat="50.70482" lon="5.27183">
        <ele>115</ele>
        <time>2018-11-02T11:42:37Z</time>
      </trkpt>
      <trkpt lat="50.70382" lon="5.27086">
        <ele>114</ele>
        <time>2018-11-02T11:43:37Z</time>
      </trkpt>
      <trkpt lat="50.70343" lon="5.27046">
        <ele>114</ele>
        <time>2018-11-02T11:44:37Z</time>
      </trkpt>
      <trkpt lat="50.70306" lon="5.26993">
        <ele>115</ele>
        <time>2018-11-02T11:45:37Z</time>
      </trkpt>
      <trkpt lat="50.7027" lon="5.26934">
        <ele>118</ele>
        <time>2018-11-02T11:46:37Z</time>
      </trkpt>
      <trkpt lat="50.70234" lon="5.26884">
        <ele>119</ele>
        <time>2018-11-02T11:47:37Z</time>
      </trkpt>
      <trkpt lat="50.70197" lon="5.26852">
        <ele>119</ele>
        <time>2018-11-02T11:48:37Z</time>
      </trkpt>
      <trkpt lat="50.70081" lon="5.26764">
        <ele>117</ele>
        <time>2018-11-02T11:49:37Z</time>
      </trkpt>
      <trkpt lat="50.70047" lon="5.26737">
        <ele>117</ele>
        <time>2018-11-02T11:50:37Z</time>
      </trkpt>
      <trkpt lat="50.69995" lon="5.2666">
        <ele>116</ele>
        <time>2018-11-02T11:51:37Z</time>
      </trkpt>
      <trkpt lat="50.69939" lon="5.26566">
        <ele>115</ele>
        <time>2018-11-02T11:52:37Z</time>
      </trkpt>
      <trkpt lat="50.69879" lon="5.26389">
        <ele>114</ele>
        <time>2018-11-02T11:53:37Z</time>
      </trkpt>
      <trkpt lat="50.69839" lon="5.26278">
        <ele>117</ele>
        <time>2018-11-02T11:54:37Z</time>
      </trkpt>
      <trkpt lat="50.69831" lon="5.26233">
        <ele>118</ele>
        <time>2018-11-02T11:55:37Z</time>
      </trkpt>
      <trkpt lat="50.6982" lon="5.2615">
        <ele>118</ele>
        <time>2018-11-02T11:56:37Z</time>
      </trkpt>
      <trkpt lat="50.6981" lon="5.26092">
        <ele>118</ele>
        <time>2018-11-02T11:57:37Z</time>
      </trkpt>
      <trkpt lat="50.6981" lon="5.26075">
        <ele>118</ele>
        <time>2018-11-02T11:58:37Z</time>
      </trkpt>
      <trkpt lat="50.69813" lon="5.26061">
        <ele>119</ele>
        <time>2018-11-02T11:59:37Z</time>
      </trkpt>
      <trkpt lat="50.69815" lon="5.26044">
        <ele>119</ele>
        <time>2018-11-02T12:00:37Z</time>
      </trkpt>
      <trkpt lat="50.69806" lon="5.26032">
        <ele>119</ele>
        <time>2018-11-02T12:01:37Z</time>
      </trkpt>
      <trkpt lat="50.69795" lon="5.26046">
        <ele>119</ele>
        <time>2018-11-02T12:02:37Z</time>
      </trkpt>
      <trkpt lat="50.6979" lon="5.26069">
        <ele>119</ele>
        <time>2018-11-02T12:03:37Z</time>
      </trkpt>
      <trkpt lat="50.69787" lon="5.26093">
        <ele>119</ele>
        <time>2018-11-02T12:04:37Z</time>
      </trkpt>
      <trkpt lat="50.69756" lon="5.26191">
        <ele>118</ele>
        <time>2018-11-02T12:05:37Z</time>
      </trkpt>
      <trkpt lat="50.69726" lon="5.26289">
        <ele>116</ele>
        <time>2018-11-02T12:06:37Z</time>
      </trkpt>
      <trkpt lat="50.697" lon="5.26377">
        <ele>116</ele>
        <time>2018-11-02T12:07:37Z</time>
      </trkpt>
      <trkpt lat="50.6967" lon="5.26491">
        <ele>116</ele>
        <time>2018-11-02T12:08:37Z</time>
      </trkpt>
      <trkpt lat="50.6964" lon="5.2661">
        <ele>116</ele>
        <time>2018-11-02T12:09:37Z</time>
      </trkpt>
      <trkpt lat="50.69611" lon="5.26749">
        <ele>118</ele>
        <time>2018-11-02T12:10:37Z</time>
      </trkpt>
      <trkpt lat="50.69596" lon="5.26853">
        <ele>121</ele>
        <time>2018-11-02T12:11:37Z</time>
      </trkpt>
      <trkpt lat="50.69585" lon="5.27004">
        <ele>123</ele>
        <time>2018-11-02T12:12:37Z</time>
      </trkpt>
      <trkpt lat="50.69577" lon="5.27095">
        <ele>123</ele>
        <time>2018-11-02T12:13:37Z</time>
      </trkpt>
      <trkpt lat="50.6957" lon="5.27163">
        <ele>123</ele>
        <time>2018-11-02T12:14:37Z</time>
      </trkpt>
      <trkpt lat="50.69566" lon="5.27221">
        <ele>123</ele>
        <time>2018-11-02T12:15:37Z</time>
      </trkpt>
      <trkpt lat="50.69566" lon="5.27313">
        <ele>123</ele>
        <time>2018-11-02T12:16:37Z</time>
      </trkpt>
      <trkpt lat="50.69568" lon="5.27389">
        <ele>123</ele>
        <time>2018-11-02T12:17:37Z</time>
      </trkpt>
      <trkpt lat="50.69571" lon="5.27432">
        <ele>123</ele>
        <time>2018-11-02T12:18:37Z</time>
      </trkpt>
      <trkpt lat="50.69574" lon="5.27482">
        <ele>122</ele>
        <time>2018-11-02T12:19:37Z</time>
      </trkpt>
      <trkpt lat="50.69575" lon="5.27524">
        <ele>122</ele>
        <time>2018-11-02T12:20:37Z</time>
      </trkpt>
      <trkpt lat="50.69575" lon="5.27552">
        <ele>123</ele>
        <time>2018-11-02T12:21:37Z</time>
      </trkpt>
      <trkpt lat="50.69559" lon="5.27669">
        <ele>123</ele>
        <time>2018-11-02T12:22:37Z</time>
      </trkpt>
      <trkpt lat="50.69548" lon="5.27718">
        <ele>122</ele>
        <time>2018-11-02T12:23:37Z</time>
      </trkpt>
      <trkpt lat="50.69535" lon="5.27765">
        <ele>121</ele>
        <time>2018-11-02T12:24:37Z</time>
      </trkpt>
      <trkpt lat="50.6951" lon="5.27865">
        <ele>119</ele>
        <time>2018-11-02T12:25:37Z</time>
      </trkpt>
      <trkpt lat="50.69448" lon="5.28106">
        <ele>118</ele>
        <time>2018-11-02T12:26:37Z</time>
      </trkpt>
      <trkpt lat="50.69383" lon="5.28358">
        <ele>118</ele>
        <time>2018-11-02T12:27:37Z</time>
      </trkpt>
      <trkpt lat="50.69362" lon="5.2844">
        <ele>118</ele>
        <time>2018-11-02T12:28:37Z</time>
      </trkpt>
      <trkpt lat="50.69301" lon="5.28675">
        <ele>124</ele>
        <time>2018-11-02T12:29:37Z</time>
      </trkpt>
      <trkpt lat="50.69246" lon="5.2892">
        <ele>125</ele>
        <time>2018-11-02T12:30:37Z</time>
      </trkpt>
      <trkpt lat="50.69196" lon="5.2917">
        <ele>120</ele>
        <time>2018-11-02T12:31:37Z</time>
      </trkpt>
      <trkpt lat="50.69182" lon="5.29234">
        <ele>121</ele>
        <time>2018-11-02T12:32:37Z</time>
      </trkpt>
      <trkpt lat="50.69175" lon="5.29287">
        <ele>121</ele>
        <time>2018-11-02T12:33:37Z</time>
      </trkpt>
      <trkpt lat="50.69175" lon="5.2934">
        <ele>120</ele>
        <time>2018-11-02T12:34:37Z</time>
      </trkpt>
      <trkpt lat="50.69175" lon="5.29398">
        <ele>119</ele>
        <time>2018-11-02T12:35:37Z</time>
      </trkpt>
      <trkpt lat="50.69186" lon="5.2951">
        <ele>119</ele>
        <time>2018-11-02T12:36:37Z</time>
      </trkpt>
      <trkpt lat="50.69199" lon="5.296">
        <ele>122</ele>
        <time>2018-11-02T12:37:37Z</time>
      </trkpt>
      <trkpt lat="50.69204" lon="5.29635">
        <ele>122</ele>
        <time>2018-11-02T12:38:37Z</time>
      </trkpt>
      <trkpt lat="50.69216" lon="5.29719">
        <ele>123</ele>
        <time>2018-11-02T12:39:37Z</time>
      </trkpt>
      <trkpt lat="50.69216" lon="5.29761">
        <ele>124</ele>
        <time>2018-11-02T12:40:37Z</time>
      </trkpt>
      <trkpt lat="50.69213" lon="5.2985">
        <ele>125</ele>
        <time>2018-11-02T12:41:37Z</time>
      </trkpt>
      <trkpt lat="50.69206" lon="5.30013">
        <ele>129</ele>
        <time>2018-11-02T12:42:37Z</time>
      </trkpt>
      <trkpt lat="50.69201" lon="5.30142">
        <ele>130</ele>
        <time>2018-11-02T12:43:37Z</time>
      </trkpt>
      <trkpt lat="50.69172" lon="5.30287">
        <ele>129</ele>
        <time>2018-11-02T12:44:37Z</time>
      </trkpt>
      <trkpt lat="50.69159" lon="5.30355">
        <ele>129</ele>
        <time>2018-11-02T12:45:37Z</time>
      </trkpt>
      <trkpt lat="50.69118" lon="5.3049">
        <ele>125</ele>
        <time>2018-11-02T12:46:37Z</time>
      </trkpt>
      <trkpt lat="50.69108" lon="5.30525">
        <ele>124</ele>
        <time>2018-11-02T12:47:37Z</time>
      </trkpt>
      <trkpt lat="50.69089" lon="5.30619">
        <ele>123</ele>
        <time>2018-11-02T12:48:37Z</time>
      </trkpt>
      <trkpt lat="50.69085" lon="5.30642">
        <ele>123</ele>
        <time>2018-11-02T12:49:37Z</time>
      </trkpt>
      <trkpt lat="50.69091" lon="5.30657">
        <ele>123</ele>
        <time>2018-11-02T12:50:37Z</time>
      </trkpt>
      <trkpt lat="50.69092" lon="5.30898">
        <ele>126</ele>
        <time>2018-11-02T12:51:37Z</time>
      </trkpt>
      <trkpt lat="50.69094" lon="5.30975">
        <ele>128</ele>
        <time>2018-11-02T12:52:37Z</time>
      </trkpt>
      <trkpt lat="50.69099" lon="5.31188">
        <ele>128</ele>
        <time>2018-11-02T12:53:37Z</time>
      </trkpt>
      <trkpt lat="50.69101" lon="5.31315">
        <ele>126</ele>
        <time>2018-11-02T12:54:37Z</time>
      </trkpt>
      <trkpt lat="50.69099" lon="5.3133">
        <ele>125</ele>
        <time>2018-11-02T12:55:37Z</time>
      </trkpt>
      <trkpt lat="50.69092" lon="5.31346">
        <ele>125</ele>
        <time>2018-11-02T12:56:37Z</time>
      </trkpt>
      <trkpt lat="50.69077" lon="5.31367">
        <ele>125</ele>
        <time>2018-11-02T12:57:37Z</time>
      </trkpt>
      <trkpt lat="50.6903" lon="5.31405">
        <ele>126</ele>
        <time>2018-11-02T12:58:37Z</time>
      </trkpt>
      <trkpt lat="50.68875" lon="5.31472">
        <ele>126</ele>
        <time>2018-11-02T12:59:37Z</time>
      </trkpt>
      <trkpt lat="50.68841" lon="5.3149">
        <ele>127</ele>
        <time>2018-11-02T13:00:37Z</time>
      </trkpt>
      <trkpt lat="50.68827" lon="5.31506">
        <ele>127</ele>
        <time>2018-11-02T13:01:37Z</time>
      </trkpt>
      <trkpt lat="50.68798" lon="5.31581">
        <ele>130</ele>
        <time>2018-11-02T13:02:37Z</time>
      </trkpt>
      <trkpt lat="50.68747" lon="5.31714">
        <ele>133</ele>
        <time>2018-11-02T13:03:37Z</time>
      </trkpt>
      <trkpt lat="50.68718" lon="5.31797">
        <ele>133</ele>
        <time>2018-11-02T13:04:37Z</time>
      </trkpt>
      <trkpt lat="50.68686" lon="5.31857">
        <ele>132</ele>
        <time>2018-11-02T13:05:37Z</time>
      </trkpt>
      <trkpt lat="50.68667" lon="5.3188">
        <ele>131</ele>
        <time>2018-11-02T13:06:37Z</time>
      </trkpt>
      <trkpt lat="50.68598" lon="5.31957">
        <ele>128</ele>
        <time>2018-11-02T13:07:37Z</time>
      </trkpt>
      <trkpt lat="50.68583" lon="5.31974">
        <ele>128</ele>
        <time>2018-11-02T13:08:37Z</time>
      </trkpt>
      <trkpt lat="50.68504" lon="5.32065">
        <ele>125</ele>
        <time>2018-11-02T13:09:37Z</time>
      </trkpt>
      <trkpt lat="50.68468" lon="5.32106">
        <ele>125</ele>
        <time>2018-11-02T13:10:37Z</time>
      </trkpt>
      <trkpt lat="50.68379" lon="5.32208">
        <ele>129</ele>
        <time>2018-11-02T13:11:37Z</time>
      </trkpt>
      <trkpt lat="50.68284" lon="5.32316">
        <ele>133</ele>
        <time>2018-11-02T13:12:37Z</time>
      </trkpt>
      <trkpt lat="50.68229" lon="5.32378">
        <ele>134</ele>
        <time>2018-11-02T13:13:37Z</time>
      </trkpt>
      <trkpt lat="50.68217" lon="5.32394">
        <ele>134</ele>
        <time>2018-11-02T13:14:37Z</time>
      </trkpt>
      <trkpt lat="50.6819" lon="5.32487">
        <ele>132</ele>
        <time>2018-11-02T13:15:37Z</time>
      </trkpt>
      <trkpt lat="50.68177" lon="5.32548">
        <ele>130</ele>
        <time>2018-11-02T13:16:37Z</time>
      </trkpt>
      <trkpt lat="50.68164" lon="5.3267">
        <ele>129</ele>
        <time>2018-11-02T13:17:37Z</time>
      </trkpt>
      <trkpt lat="50.68159" lon="5.32708">
        <ele>128</ele>
        <time>2018-11-02T13:18:37Z</time>
      </trkpt>
      <trkpt lat="50.68141" lon="5.3277">
        <ele>126</ele>
        <time>2018-11-02T13:19:37Z</time>
      </trkpt>
      <trkpt lat="50.68123" lon="5.32809">
        <ele>125</ele>
        <time>2018-11-02T13:20:37Z</time>
      </trkpt>
      <trkpt lat="50.68101" lon="5.32806">
        <ele>125</ele>
        <time>2018-11-02T13:21:37Z</time>
      </trkpt>
      <trkpt lat="50.68082" lon="5.32784">
        <ele>125</ele>
        <time>2018-11-02T13:22:37Z</time>
      </trkpt>
      <trkpt lat="50.68063" lon="5.32801">
        <ele>125</ele>
        <time>2018-11-02T13:23:37Z</time>
      </trkpt>
      <trkpt lat="50.68025" lon="5.32849">
        <ele>126</ele>
        <time>2018-11-02T13:24:37Z</time>
      </trkpt>
      <trkpt lat="50.68014" lon="5.32859">
        <ele>127</ele>
        <time>2018-11-02T13:25:37Z</time>
      </trkpt>
      <trkpt lat="50.67998" lon="5.32858">
        <ele>127</ele>
        <time>2018-11-02T13:26:37Z</time>
      </trkpt>
      <trkpt lat="50.67961" lon="5.32841">
        <ele>129</ele>
        <time>2018-11-02T13:27:37Z</time>
      </trkpt>
      <trkpt lat="50.67939" lon="5.32826">
        <ele>130</ele>
        <time>2018-11-02T13:28:37Z</time>
      </trkpt>
      <trkpt lat="50.67914" lon="5.3284">
        <ele>131</ele>
        <time>2018-11-02T13:29:37Z</time>
      </trkpt>
      <trkpt lat="50.67856" lon="5.32887">
        <ele>132</ele>
        <time>2018-11-02T13:30:37Z</time>
      </trkpt>
      <trkpt lat="50.67843" lon="5.3291">
        <ele>133</ele>
        <time>2018-11-02T13:31:37Z</time>
      </trkpt>
      <trkpt lat="50.67833" lon="5.32956">
        <ele>133</ele>
        <time>2018-11-02T13:32:37Z</time>
      </trkpt>
      <trkpt lat="50.67796" lon="5.33073">
        <ele>132</ele>
        <time>2018-11-02T13:33:37Z</time>
      </trkpt>
      <trkpt lat="50.67781" lon="5.33117">
        <ele>132</ele>
        <time>2018-11-02T13:34:37Z</time>
      </trkpt>
      <trkpt lat="50.67777" lon="5.33141">
        <ele>132</ele>
        <time>2018-11-02T13:35:37Z</time>
      </trkpt>
      <trkpt lat="50.6775" lon="5.33147">
        <ele>131</ele>
        <time>2018-11-02T13:36:37Z</time>
      </trkpt>
      <trkpt lat="50.67695" lon="5.33154">
        <ele>131</ele>
        <time>2018-11-02T13:37:37Z</time>
      </trkpt>
      <trkpt lat="50.67674" lon="5.33146">
        <ele>131</ele>
        <time>2018-11-02T13:38:37Z</time>
      </trkpt>
      <trkpt lat="50.67656" lon="5.33138">
        <ele>131</ele>
        <time>2018-11-02T13:39:37Z</time>
      </trkpt>
      <trkpt lat="50.67645" lon="5.33173">
        <ele>131</ele>
        <time>2018-11-02T13:40:37Z</time>
      </trkpt>
      <trkpt lat="50.67605" lon="5.3342">
        <ele>133</ele>
        <time>2018-11-02T13:41:37Z</time>
      </trkpt>
      <trkpt lat="50.67595" lon="5.33471">
        <ele>134</ele>
        <time>2018-11-02T13:42:37Z</time>
      </trkpt>
      <trkpt lat="50.67587" lon="5.33501">
        <ele>135</ele>
        <time>2018-11-02T13:43:37Z</time>
      </trkpt>
      <trkpt lat="50.67575" lon="5.33529">
        <ele>136</ele>
        <time>2018-11-02T13:44:37Z</time>
      </trkpt>
      <trkpt lat="50.67545" lon="5.33577">
        <ele>137</ele>
        <time>2018-11-02T13:45:37Z</time>
      </trkpt>
      <trkpt lat="50.67433" lon="5.33693">
        <ele>138</ele>
        <time>2018-11-02T13:46:37Z</time>
      </trkpt>
      <trkpt lat="50.67403" lon="5.33722">
        <ele>138</ele>
        <time>2018-11-02T13:47:37Z</time>
      </trkpt>
      <trkpt lat="50.67262" lon="5.33795">
        <ele>139</ele>
        <time>2018-11-02T13:48:37Z</time>
      </trkpt>
      <trkpt lat="50.67149" lon="5.33848">
        <ele>140</ele>
        <time>2018-11-02T13:49:37Z</time>
      </trkpt>
      <trkpt lat="50.67094" lon="5.33879">
        <ele>140</ele>
        <time>2018-11-02T13:50:37Z</time>
      </trkpt>
      <trkpt lat="50.67041" lon="5.33916">
        <ele>140</ele>
        <time>2018-11-02T13:51:37Z</time>
      </trkpt>
      <trkpt lat="50.66995" lon="5.33955">
        <ele>140</ele>
        <time>2018-11-02T13:52:37Z</time>
      </trkpt>
      <trkpt lat="50.66949" lon="5.34008">
        <ele>141</ele>
        <time>2018-11-02T13:53:37Z</time>
      </trkpt>
      <trkpt lat="50.66823" lon="5.34152">
        <ele>143</ele>
        <time>2018-11-02T13:54:37Z</time>
      </trkpt>
      <trkpt lat="50.66695" lon="5.34303">
        <ele>142</ele>
        <time>2018-11-02T13:55:37Z</time>
      </trkpt>
      <trkpt lat="50.66645" lon="5.34368">
        <ele>143</ele>
        <time>2018-11-02T13:56:37Z</time>
      </trkpt>
      <trkpt lat="50.66605" lon="5.3444">
        <ele>143</ele>
        <time>2018-11-02T13:57:37Z</time>
      </trkpt>
      <trkpt lat="50.66463" lon="5.34709">
        <ele>147</ele>
        <time>2018-11-02T13:58:37Z</time>
      </trkpt>
      <trkpt lat="50.66431" lon="5.34753">
        <ele>148</ele>
        <time>2018-11-02T13:59:37Z</time>
      </trkpt>
      <trkpt lat="50.66398" lon="5.34784">
        <ele>148</ele>
        <time>2018-11-02T14:00:37Z</time>
      </trkpt>
      <trkpt lat="50.66361" lon="5.34806">
        <ele>148</ele>
        <time>2018-11-02T14:01:37Z</time>
      </trkpt>
      <trkpt lat="50.66327" lon="5.34819">
        <ele>148</ele>
        <time>2018-11-02T14:02:37Z</time>
      </trkpt>
      <trkpt lat="50.66271" lon="5.34834">
        <ele>148</ele>
        <time>2018-11-02T14:03:37Z</time>
      </trkpt>
      <trkpt lat="50.66216" lon="5.34848">
        <ele>148</ele>
        <time>2018-11-02T14:04:37Z</time>
      </trkpt>
      <trkpt lat="50.6617" lon="5.3486">
        <ele>148</ele>
        <time>2018-11-02T14:05:37Z</time>
      </trkpt>
      <trkpt lat="50.66108" lon="5.34896">
        <ele>149</ele>
        <time>2018-11-02T14:06:37Z</time>
      </trkpt>
      <trkpt lat="50.65989" lon="5.34976">
        <ele>153</ele>
        <time>2018-11-02T14:07:37Z</time>
      </trkpt>
      <trkpt lat="50.65933" lon="5.35014">
        <ele>154</ele>
        <time>2018-11-02T14:08:37Z</time>
      </trkpt>
      <trkpt lat="50.65913" lon="5.35027">
        <ele>154</ele>
        <time>2018-11-02T14:09:37Z</time>
      </trkpt>
      <trkpt lat="50.65832" lon="5.35087">
        <ele>152</ele>
        <time>2018-11-02T14:10:37Z</time>
      </trkpt>
      <trkpt lat="50.65765" lon="5.35143">
        <ele>150</ele>
        <time>2018-11-02T14:11:37Z</time>
      </trkpt>
      <trkpt lat="50.65732" lon="5.35163">
        <ele>150</ele>
        <time>2018-11-02T14:12:37Z</time>
      </trkpt>
      <trkpt lat="50.65701" lon="5.3517">
        <ele>149</ele>
        <time>2018-11-02T14:13:37Z</time>
      </trkpt>
      <trkpt lat="50.65662" lon="5.35171">
        <ele>148</ele>
        <time>2018-11-02T14:14:37Z</time>
      </trkpt>
      <trkpt lat="50.65598" lon="5.35206">
        <ele>149</ele>
        <time>2018-11-02T14:15:37Z</time>
      </trkpt>
      <trkpt lat="50.6555" lon="5.35228">
        <ele>151</ele>
        <time>2018-11-02T14:16:37Z</time>
      </trkpt>
      <trkpt lat="50.65485" lon="5.35247">
        <ele>154</ele>
        <time>2018-11-02T14:17:37Z</time>
      </trkpt>
      <trkpt lat="50.65449" lon="5.35267">
        <ele>156</ele>
        <time>2018-11-02T14:18:37Z</time>
      </trkpt>
      <trkpt lat="50.65437" lon="5.35276">
        <ele>156</ele>
        <time>2018-11-02T14:19:37Z</time>
      </trkpt>
      <trkpt lat="50.65425" lon="5.35282">
        <ele>157</ele>
        <time>2018-11-02T14:20:37Z</time>
      </trkpt>
      <trkpt lat="50.65406" lon="5.35282">
        <ele>157</ele>
        <time>2018-11-02T14:21:37Z</time>
      </trkpt>
      <trkpt lat="50.65334" lon="5.35265">
        <ele>157</ele>
        <time>2018-11-02T14:22:37Z</time>
      </trkpt>
      <trkpt lat="50.65316" lon="5.35267">
        <ele>158</ele>
        <time>2018-11-02T14:23:37Z</time>
      </trkpt>
      <trkpt lat="50.65268" lon="5.35275">
        <ele>159</ele>
        <time>2018-11-02T14:24:37Z</time>
      </trkpt>
      <trkpt lat="50.65234" lon="5.35286">
        <ele>160</ele>
        <time>2018-11-02T14:25:37Z</time>
      </trkpt>
      <trkpt lat="50.65181" lon="5.35305">
        <ele>161</ele>
        <time>2018-11-02T14:26:37Z</time>
      </trkpt>
      <trkpt lat="50.65135" lon="5.35315">
        <ele>161</ele>
        <time>2018-11-02T14:27:37Z</time>
      </trkpt>
      <trkpt lat="50.65125" lon="5.35361">
        <ele>161</ele>
        <time>2018-11-02T14:28:37Z</time>
      </trkpt>
      <trkpt lat="50.6511" lon="5.35445">
        <ele>162</ele>
        <time>2018-11-02T14:29:37Z</time>
      </trkpt>
      <trkpt lat="50.65103" lon="5.35477">
        <ele>163</ele>
        <time>2018-11-02T14:30:37Z</time>
      </trkpt>
      <trkpt lat="50.65091" lon="5.35532">
        <ele>163</ele>
        <time>2018-11-02T14:31:37Z</time>
      </trkpt>
      <trkpt lat="50.65081" lon="5.35582">
        <ele>164</ele>
        <time>2018-11-02T14:32:37Z</time>
      </trkpt>
      <trkpt lat="50.65067" lon="5.35839">
        <ele>164</ele>
        <time>2018-11-02T14:33:37Z</time>
      </trkpt>
      <trkpt lat="50.65063" lon="5.35888">
        <ele>162</ele>
        <time>2018-11-02T14:34:37Z</time>
      </trkpt>
      <trkpt lat="50.65053" lon="5.35921">
        <ele>161</ele>
        <time>2018-11-02T14:35:37Z</time>
      </trkpt>
      <trkpt lat="50.6503" lon="5.3596">
        <ele>161</ele>
        <time>2018-11-02T14:36:37Z</time>
      </trkpt>
      <trkpt lat="50.65012" lon="5.35982">
        <ele>161</ele>
        <time>2018-11-02T14:37:37Z</time>
      </trkpt>
      <trkpt lat="50.64991" lon="5.36014">
        <ele>161</ele>
        <time>2018-11-02T14:38:37Z</time>
      </trkpt>
      <trkpt lat="50.64985" lon="5.36049">
        <ele>161</ele>
        <time>2018-11-02T14:39:37Z</time>
      </trkpt>
      <trkpt lat="50.6497" lon="5.36139">
        <ele>162</ele>
        <time>2018-11-02T14:40:37Z</time>
      </trkpt>
      <trkpt lat="50.64953" lon="5.36224">
        <ele>162</ele>
        <time>2018-11-02T14:41:37Z</time>
      </trkpt>
      <trkpt lat="50.64935" lon="5.36286">
        <ele>163</ele>
        <time>2018-11-02T14:42:37Z</time>
      </trkpt>
      <trkpt lat="50.64929" lon="5.36307">
        <ele>163</ele>
        <time>2018-11-02T14:43:37Z</time>
      </trkpt>
      <trkpt lat="50.64923" lon="5.36356">
        <ele>164</ele>
        <time>2018-11-02T14:44:37Z</time>
      </trkpt>
      <trkpt lat="50.64924" lon="5.36387">
        <ele>163</ele>
        <time>2018-11-02T14:45:37Z</time>
      </trkpt>
      <trkpt lat="50.64926" lon="5.36434">
        <ele>163</ele>
        <time>2018-11-02T14:46:37Z</time>
      </trkpt>
      <trkpt lat="50.64933" lon="5.36525">
        <ele>164</ele>
        <time>2018-11-02T14:47:37Z</time>
      </trkpt>
      <trkpt lat="50.64938" lon="5.36614">
        <ele>165</ele>
        <time>2018-11-02T14:48:37Z</time>
      </trkpt>
      <trkpt lat="50.64938" lon="5.36635">
        <ele>165</ele>
        <time>2018-11-02T14:49:37Z</time>
      </trkpt>
      <trkpt lat="50.64935" lon="5.36675">
        <ele>165</ele>
        <time>2018-11-02T14:50:37Z</time>
      </trkpt>
      <trkpt lat="50.64926" lon="5.36723">
        <ele>165</ele>
        <time>2018-11-02T14:51:37Z</time>
      </trkpt>
      <trkpt lat="50.64908" lon="5.36808">
        <ele>165</ele>
        <time>2018-11-02T14:52:37Z</time>
      </trkpt>
      <trkpt lat="50.64894" lon="5.36888">
        <ele>165</ele>
        <time>2018-11-02T14:53:37Z</time>
      </trkpt>
      <trkpt lat="50.6489" lon="5.36944">
        <ele>164</ele>
        <time>2018-11-02T14:54:37Z</time>
      </trkpt>
      <trkpt lat="50.64893" lon="5.36994">
        <ele>164</ele>
        <time>2018-11-02T14:55:37Z</time>
      </trkpt>
      <trkpt lat="50.64909" lon="5.37075">
        <ele>163</ele>
        <time>2018-11-02T14:56:37Z</time>
      </trkpt>
      <trkpt lat="50.6491" lon="5.37105">
        <ele>163</ele>
        <time>2018-11-02T14:57:37Z</time>
      </trkpt>
      <trkpt lat="50.6491" lon="5.37167">
        <ele>163</ele>
        <time>2018-11-02T14:58:37Z</time>
      </trkpt>
      <trkpt lat="50.64908" lon="5.3723">
        <ele>164</ele>
        <time>2018-11-02T14:59:37Z</time>
      </trkpt>
      <trkpt lat="50.64886" lon="5.37218">
        <ele>164</ele>
        <time>2018-11-02T15:00:37Z</time>
      </trkpt>
      <trkpt lat="50.6484" lon="5.37188">
        <ele>165</ele>
        <time>2018-11-02T15:01:37Z</time>
      </trkpt>
      <trkpt lat="50.64783" lon="5.37155">
        <ele>165</ele>
        <time>2018-11-02T15:02:37Z</time>
      </trkpt>
      <trkpt lat="50.64735" lon="5.37127">
        <ele>165</ele>
        <time>2018-11-02T15:03:37Z</time>
      </trkpt>
      <trkpt lat="50.6472" lon="5.37162">
        <ele>165</ele>
        <time>2018-11-02T15:04:37Z</time>
      </trkpt>
      <trkpt lat="50.64548" lon="5.37597">
        <ele>167</ele>
        <time>2018-11-02T15:05:37Z</time>
      </trkpt>
      <trkpt lat="50.64517" lon="5.37675">
        <ele>165</ele>
        <time>2018-11-02T15:06:37Z</time>
      </trkpt>
      <trkpt lat="50.6449" lon="5.37746">
        <ele>163</ele>
        <time>2018-11-02T15:07:37Z</time>
      </trkpt>
      <trkpt lat="50.64481" lon="5.37769">
        <ele>163</ele>
        <time>2018-11-02T15:08:37Z</time>
      </trkpt>
      <trkpt lat="50.64464" lon="5.37811">
        <ele>164</ele>
        <time>2018-11-02T15:09:37Z</time>
      </trkpt>
      <trkpt lat="50.64456" lon="5.3783">
        <ele>164</ele>
        <time>2018-11-02T15:10:37Z</time>
      </trkpt>
      <trkpt lat="50.64423" lon="5.37902">
        <ele>164</ele>
        <time>2018-11-02T15:11:37Z</time>
      </trkpt>
      <trkpt lat="50.6431" lon="5.38108">
        <ele>165</ele>
        <time>2018-11-02T15:12:37Z</time>
      </trkpt>
      <trkpt lat="50.64275" lon="5.38174">
        <ele>167</ele>
        <time>2018-11-02T15:13:37Z</time>
      </trkpt>
      <trkpt lat="50.64257" lon="5.38209">
        <ele>167</ele>
        <time>2018-11-02T15:14:37Z</time>
      </trkpt>
      <trkpt lat="50.64249" lon="5.38224">
        <ele>168</ele>
        <time>2018-11-02T15:15:37Z</time>
      </trkpt>
      <trkpt lat="50.64235" lon="5.38254">
        <ele>168</ele>
        <time>2018-11-02T15:16:37Z</time>
      </trkpt>
      <trkpt lat="50.64218" lon="5.38297">
        <ele>169</ele>
        <time>2018-11-02T15:17:37Z</time>
      </trkpt>
      <trkpt lat="50.6419" lon="5.38379">
        <ele>168</ele>
        <time>2018-11-02T15:18:37Z</time>
      </trkpt>
      <trkpt lat="50.64028" lon="5.38898">
        <ele>171</ele>
        <time>2018-11-02T15:19:37Z</time>
      </trkpt>
      <trkpt lat="50.64011" lon="5.38942">
        <ele>172</ele>
        <time>2018-11-02T15:20:37Z</time>
      </trkpt>
      <trkpt lat="50.64002" lon="5.38965">
        <ele>173</ele>
        <time>2018-11-02T15:21:37Z</time>
      </trkpt>
      <trkpt lat="50.63981" lon="5.3901">
        <ele>173</ele>
        <time>2018-11-02T15:22:37Z</time>
      </trkpt>
      <trkpt lat="50.63969" lon="5.39035">
        <ele>173</ele>
        <time>2018-11-02T15:23:37Z</time>
      </trkpt>
      <trkpt lat="50.63936" lon="5.39077">
        <ele>173</ele>
        <time>2018-11-02T15:24:37Z</time>
      </trkpt>
      <trkpt lat="50.63841" lon="5.39199">
        <ele>169</ele>
        <time>2018-11-02T15:25:37Z</time>
      </trkpt>
      <trkpt lat="50.638" lon="5.39252">
        <ele>168</ele>
        <time>2018-11-02T15:26:37Z</time>
      </trkpt>
      <trkpt lat="50.63665" lon="5.39427">
        <ele>164</ele>
        <time>2018-11-02T15:27:37Z</time>
      </trkpt>
      <trkpt lat="50.63526" lon="5.39605">
        <ele>165</ele>
        <time>2018-11-02T15:28:37Z</time>
      </trkpt>
      <trkpt lat="50.63515" lon="5.39604">
        <ele>165</ele>
        <time>2018-11-02T15:29:37Z</time>
      </trkpt>
      <trkpt lat="50.63499" lon="5.39603">
        <ele>165</ele>
        <time>2018-11-02T15:30:37Z</time>
      </trkpt>
      <trkpt lat="50.63474" lon="5.39579">
        <ele>165</ele>
        <time>2018-11-02T15:31:37Z</time>
      </trkpt>
      <trkpt lat="50.63444" lon="5.3953">
        <ele>164</ele>
        <time>2018-11-02T15:32:37Z</time>
      </trkpt>
      <trkpt lat="50.63417" lon="5.39471">
        <ele>162</ele>
        <time>2018-11-02T15:33:37Z</time>
      </trkpt>
      <trkpt lat="50.63384" lon="5.39422">
        <ele>164</ele>
        <time>2018-11-02T15:34:37Z</time>
      </trkpt>
      <trkpt lat="50.63345" lon="5.39388">
        <ele>165</ele>
        <time>2018-11-02T15:35:37Z</time>
      </trkpt>
      <trkpt lat="50.63308" lon="5.39372">
        <ele>166</ele>
        <time>2018-11-02T15:36:37Z</time>
      </trkpt>
      <trkpt lat="50.63281" lon="5.3937">
        <ele>168</ele>
        <time>2018-11-02T15:37:37Z</time>
      </trkpt>
      <trkpt lat="50.63236" lon="5.39385">
        <ele>169</ele>
        <time>2018-11-02T15:38:37Z</time>
      </trkpt>
      <trkpt lat="50.63141" lon="5.3942">
        <ele>168</ele>
        <time>2018-11-02T15:39:37Z</time>
      </trkpt>
      <trkpt lat="50.63061" lon="5.39453">
        <ele>167</ele>
        <time>2018-11-02T15:40:37Z</time>
      </trkpt>
      <trkpt lat="50.63" lon="5.39475">
        <ele>166</ele>
        <time>2018-11-02T15:41:37Z</time>
      </trkpt>
      <trkpt lat="50.62894" lon="5.39513">
        <ele>163</ele>
        <time>2018-11-02T15:42:37Z</time>
      </trkpt>
      <trkpt lat="50.62792" lon="5.39548">
        <ele>156</ele>
        <time>2018-11-02T15:43:37Z</time>
      </trkpt>
      <trkpt lat="50.62671" lon="5.3959">
        <ele>149</ele>
        <time>2018-11-02T15:44:37Z</time>
      </trkpt>
      <trkpt lat="50.62626" lon="5.39602">
        <ele>146</ele>
        <time>2018-11-02T15:45:37Z</time>
      </trkpt>
      <trkpt lat="50.62544" lon="5.39604">
        <ele>143</ele>
        <time>2018-11-02T15:46:37Z</time>
      </trkpt>
      <trkpt lat="50.62396" lon="5.39608">
        <ele>140</ele>
        <time>2018-11-02T15:47:37Z</time>
      </trkpt>
      <trkpt lat="50.62228" lon="5.39611">
        <ele>135</ele>
        <time>2018-11-02T15:48:37Z</time>
      </trkpt>
      <trkpt lat="50.62167" lon="5.39613">
        <ele>136</ele>
        <time>2018-11-02T15:49:37Z</time>
      </trkpt>
      <trkpt lat="50.62137" lon="5.39595">
        <ele>139</ele>
        <time>2018-11-02T15:50:37Z</time>
      </trkpt>
      <trkpt lat="50.62032" lon="5.39505">
        <ele>137</ele>
        <time>2018-11-02T15:51:37Z</time>
      </trkpt>
      <trkpt lat="50.61933" lon="5.3942">
        <ele>138</ele>
        <time>2018-11-02T15:52:37Z</time>
      </trkpt>
      <trkpt lat="50.61914" lon="5.39403">
        <ele>139</ele>
        <time>2018-11-02T15:53:37Z</time>
      </trkpt>
      <trkpt lat="50.61792" lon="5.39229">
        <ele>134</ele>
        <time>2018-11-02T15:54:37Z</time>
      </trkpt>
      <trkpt lat="50.61705" lon="5.39107">
        <ele>130</ele>
        <time>2018-11-02T15:55:37Z</time>
      </trkpt>
      <trkpt lat="50.61586" lon="5.3901">
        <ele>124</ele>
        <time>2018-11-02T15:56:37Z</time>
      </trkpt>
      <trkpt lat="50.6152" lon="5.38957">
        <ele>124</ele>
        <time>2018-11-02T15:57:37Z</time>
      </trkpt>
      <trkpt lat="50.61481" lon="5.38937">
        <ele>122</ele>
        <time>2018-11-02T15:58:37Z</time>
      </trkpt>
      <trkpt lat="50.61453" lon="5.3893">
        <ele>119</ele>
        <time>2018-11-02T15:59:37Z</time>
      </trkpt>
      <trkpt lat="50.6143" lon="5.3894">
        <ele>118</ele>
        <time>2018-11-02T16:00:37Z</time>
      </trkpt>
      <trkpt lat="50.61403" lon="5.38959">
        <ele>118</ele>
        <time>2018-11-02T16:01:37Z</time>
      </trkpt>
      <trkpt lat="50.61357" lon="5.39006">
        <ele>115</ele>
        <time>2018-11-02T16:02:37Z</time>
      </trkpt>
      <trkpt lat="50.61271" lon="5.39114">
        <ele>112</ele>
        <time>2018-11-02T16:03:37Z</time>
      </trkpt>
      <trkpt lat="50.61219" lon="5.39171">
        <ele>110</ele>
        <time>2018-11-02T16:04:37Z</time>
      </trkpt>
      <trkpt lat="50.61197" lon="5.39186">
        <ele>111</ele>
        <time>2018-11-02T16:05:37Z</time>
      </trkpt>
      <trkpt lat="50.61155" lon="5.39199">
        <ele>111</ele>
        <time>2018-11-02T16:06:37Z</time>
      </trkpt>
      <trkpt lat="50.61106" lon="5.39208">
        <ele>111</ele>
        <time>2018-11-02T16:07:37Z</time>
      </trkpt>
      <trkpt lat="50.6102" lon="5.39222">
        <ele>110</ele>
        <time>2018-11-02T16:08:37Z</time>
      </trkpt>
      <trkpt lat="50.60991" lon="5.39236">
        <ele>110</ele>
        <time>2018-11-02T16:09:37Z</time>
      </trkpt>
      <trkpt lat="50.60959" lon="5.39261">
        <ele>110</ele>
        <time>2018-11-02T16:10:37Z</time>
      </trkpt>
      <trkpt lat="50.60931" lon="5.39293">
        <ele>109</ele>
        <time>2018-11-02T16:11:37Z</time>
      </trkpt>
      <trkpt lat="50.60903" lon="5.39332">
        <ele>110</ele>
        <time>2018-11-02T16:12:37Z</time>
      </trkpt>
      <trkpt lat="50.60873" lon="5.39375">
        <ele>115</ele>
        <time>2018-11-02T16:13:37Z</time>
      </trkpt>
      <trkpt lat="50.60847" lon="5.3943">
        <ele>115</ele>
        <time>2018-11-02T16:14:37Z</time>
      </trkpt>
      <trkpt lat="50.60778" lon="5.39662">
        <ele>110</ele>
        <time>2018-11-02T16:15:37Z</time>
      </trkpt>
      <trkpt lat="50.6071" lon="5.39879">
        <ele>103</ele>
        <time>2018-11-02T16:16:37Z</time>
      </trkpt>
      <trkpt lat="50.60691" lon="5.39938">
        <ele>102</ele>
        <time>2018-11-02T16:17:37Z</time>
      </trkpt>
      <trkpt lat="50.60647" lon="5.40049">
        <ele>100</ele>
        <time>2018-11-02T16:18:37Z</time>
      </trkpt>
      <trkpt lat="50.60631" lon="5.40083">
        <ele>99</ele>
        <time>2018-11-02T16:19:37Z</time>
      </trkpt>
      <trkpt lat="50.60613" lon="5.40114">
        <ele>99</ele>
        <time>2018-11-02T16:20:37Z</time>
      </trkpt>
      <trkpt lat="50.60533" lon="5.40208">
        <ele>98</ele>
        <time>2018-11-02T16:21:37Z</time>
      </trkpt>
      <trkpt lat="50.60475" lon="5.40273">
        <ele>95</ele>
        <time>2018-11-02T16:22:37Z</time>
      </trkpt>
      <trkpt lat="50.60408" lon="5.40318">
        <ele>96</ele>
        <time>2018-11-02T16:23:37Z</time>
      </trkpt>
      <trkpt lat="50.60308" lon="5.40369">
        <ele>98</ele>
        <time>2018-11-02T16:24:37Z</time>
      </trkpt>
      <trkpt lat="50.60248" lon="5.404">
        <ele>96</ele>
        <time>2018-11-02T16:25:37Z</time>
      </trkpt>
      <trkpt lat="50.60204" lon="5.40422">
        <ele>94</ele>
        <time>2018-11-02T16:26:37Z</time>
      </trkpt>
      <trkpt lat="50.60141" lon="5.40464">
        <ele>93</ele>
        <time>2018-11-02T16:27:37Z</time>
      </trkpt>
      <trkpt lat="50.6003" lon="5.40528">
        <ele>90</ele>
        <time>2018-11-02T16:28:37Z</time>
      </trkpt>
      <trkpt lat="50.60018" lon="5.40534">
        <ele>89</ele>
        <time>2018-11-02T16:29:37Z</time>
      </trkpt>
      <trkpt lat="50.60005" lon="5.40554">
        <ele>89</ele>
        <time>2018-11-02T16:30:37Z</time>
      </trkpt>
      <trkpt lat="50.59991" lon="5.40593">
        <ele>89</ele>
        <time>2018-11-02T16:31:37Z</time>
      </trkpt>
      <trkpt lat="50.59948" lon="5.40737">
        <ele>89</ele>
        <time>2018-11-02T16:32:37Z</time>
      </trkpt>
      <trkpt lat="50.59869" lon="5.41009">
        <ele>88</ele>
        <time>2018-11-02T16:33:37Z</time>
      </trkpt>
      <trkpt lat="50.59848" lon="5.41045">
        <ele>88</ele>
        <time>2018-11-02T16:34:37Z</time>
      </trkpt>
      <trkpt lat="50.59824" lon="5.41079">
        <ele>87</ele>
        <time>2018-11-02T16:35:37Z</time>
      </trkpt>
      <trkpt lat="50.59801" lon="5.41099">
        <ele>87</ele>
        <time>2018-11-02T16:36:37Z</time>
      </trkpt>
      <trkpt lat="50.59783" lon="5.41109">
        <ele>87</ele>
        <time>2018-11-02T16:37:37Z</time>
      </trkpt>
      <trkpt lat="50.59658" lon="5.41113">
        <ele>85</ele>
        <time>2018-11-02T16:38:37Z</time>
      </trkpt>
      <trkpt lat="50.59588" lon="5.41098">
        <ele>83</ele>
        <time>2018-11-02T16:39:37Z</time>
      </trkpt>
      <trkpt lat="50.59514" lon="5.41083">
        <ele>81</ele>
        <time>2018-11-02T16:40:37Z</time>
      </trkpt>
      <trkpt lat="50.59425" lon="5.41094">
        <ele>82</ele>
        <time>2018-11-02T16:41:37Z</time>
      </trkpt>
      <trkpt lat="50.59328" lon="5.41113">
        <ele>85</ele>
        <time>2018-11-02T16:42:37Z</time>
      </trkpt>
      <trkpt lat="50.59283" lon="5.41122">
        <ele>88</ele>
        <time>2018-11-02T16:43:37Z</time>
      </trkpt>
      <trkpt lat="50.59231" lon="5.41145">
        <ele>88</ele>
        <time>2018-11-02T16:44:37Z</time>
      </trkpt>
      <trkpt lat="50.59206" lon="5.4115">
        <ele>86</ele>
        <time>2018-11-02T16:45:37Z</time>
      </trkpt>
      <trkpt lat="50.59187" lon="5.41145">
        <ele>85</ele>
        <time>2018-11-02T16:46:37Z</time>
      </trkpt>
      <trkpt lat="50.59122" lon="5.41121">
        <ele>84</ele>
        <time>2018-11-02T16:47:37Z</time>
      </trkpt>
      <trkpt lat="50.59039" lon="5.41087">
        <ele>79</ele>
        <time>2018-11-02T16:48:37Z</time>
      </trkpt>
      <trkpt lat="50.59016" lon="5.41084">
        <ele>77</ele>
        <time>2018-11-02T16:49:37Z</time>
      </trkpt>
      <trkpt lat="50.58996" lon="5.41089">
        <ele>76</ele>
        <time>2018-11-02T16:50:37Z</time>
      </trkpt>
      <trkpt lat="50.58979" lon="5.41103">
        <ele>76</ele>
        <time>2018-11-02T16:51:37Z</time>
      </trkpt>
      <trkpt lat="50.58963" lon="5.41131">
        <ele>77</ele>
        <time>2018-11-02T16:52:37Z</time>
      </trkpt>
      <trkpt lat="50.58901" lon="5.41296">
        <ele>72</ele>
        <time>2018-11-02T16:53:37Z</time>
      </trkpt>
      <trkpt lat="50.58883" lon="5.41334">
        <ele>71</ele>
        <time>2018-11-02T16:54:37Z</time>
      </trkpt>
      <trkpt lat="50.58867" lon="5.41356">
        <ele>71</ele>
        <time>2018-11-02T16:55:37Z</time>
      </trkpt>
      <trkpt lat="50.58821" lon="5.41396">
        <ele>68</ele>
        <time>2018-11-02T16:56:37Z</time>
      </trkpt>
      <trkpt lat="50.58801" lon="5.4142">
        <ele>68</ele>
        <time>2018-11-02T16:57:37Z</time>
      </trkpt>
      <trkpt lat="50.58731" lon="5.41515">
        <ele>70</ele>
        <time>2018-11-02T16:58:37Z</time>
      </trkpt>
      <trkpt lat="50.58715" lon="5.41533">
        <ele>71</ele>
        <time>2018-11-02T16:59:37Z</time>
      </trkpt>
      <trkpt lat="50.58699" lon="5.41543">
        <ele>70</ele>
        <time>2018-11-02T17:00:37Z</time>
      </trkpt>
      <trkpt lat="50.58626" lon="5.41572">
        <ele>67</ele>
        <time>2018-11-02T17:01:37Z</time>
      </trkpt>
      <trkpt lat="50.58611" lon="5.41577">
        <ele>68</ele>
        <time>2018-11-02T17:02:37Z</time>
      </trkpt>
      <trkpt lat="50.58609" lon="5.4166">
        <ele>66</ele>
        <time>2018-11-02T17:03:37Z</time>
      </trkpt>
      <trkpt lat="50.58609" lon="5.41749">
        <ele>65</ele>
        <time>2018-11-02T17:04:37Z</time>
      </trkpt>
      <trkpt lat="50.58633" lon="5.4199">
        <ele>66</ele>
        <time>2018-11-02T17:05:37Z</time>
      </trkpt>
      <trkpt lat="50.58664" lon="5.42285">
        <ele>64</ele>
        <time>2018-11-02T17:06:37Z</time>
      </trkpt>
      <trkpt lat="50.58691" lon="5.42548">
        <ele>64</ele>
        <time>2018-11-02T17:07:37Z</time>
      </trkpt>
      <trkpt lat="50.58706" lon="5.42635">
        <ele>63</ele>
        <time>2018-11-02T17:08:37Z</time>
      </trkpt>
      <trkpt lat="50.58778" lon="5.42928">
        <ele>66</ele>
        <time>2018-11-02T17:09:37Z</time>
      </trkpt>
      <trkpt lat="50.58866" lon="5.43271">
        <ele>73</ele>
        <time>2018-11-02T17:10:37Z</time>
      </trkpt>
      <trkpt lat="50.5887" lon="5.43303">
        <ele>72</ele>
        <time>2018-11-02T17:11:37Z</time>
      </trkpt>
      <trkpt lat="50.58878" lon="5.43368">
        <ele>72</ele>
        <time>2018-11-02T17:12:37Z</time>
      </trkpt>
      <trkpt lat="50.58897" lon="5.43612">
        <ele>70</ele>
        <time>2018-11-02T17:13:37Z</time>
      </trkpt>
      <trkpt lat="50.58899" lon="5.43646">
        <ele>69</ele>
        <time>2018-11-02T17:14:37Z</time>
      </trkpt>
      <trkpt lat="50.58957" lon="5.44075">
        <ele>70</ele>
        <time>2018-11-02T17:15:37Z</time>
      </trkpt>
      <trkpt lat="50.58993" lon="5.44315">
        <ele>70</ele>
        <time>2018-11-02T17:16:37Z</time>
      </trkpt>
      <trkpt lat="50.59042" lon="5.44557">
        <ele>66</ele>
        <time>2018-11-02T17:17:37Z</time>
      </trkpt>
      <trkpt lat="50.59069" lon="5.44633">
        <ele>67</ele>
        <time>2018-11-02T17:18:37Z</time>
      </trkpt>
      <trkpt lat="50.59101" lon="5.44703">
        <ele>65</ele>
        <time>2018-11-02T17:19:37Z</time>
      </trkpt>
      <trkpt lat="50.59154" lon="5.44811">
        <ele>63</ele>
        <time>2018-11-02T17:20:37Z</time>
      </trkpt>
      <trkpt lat="50.5917" lon="5.4485">
        <ele>63</ele>
        <time>2018-11-02T17:21:37Z</time>
      </trkpt>
      <trkpt lat="50.59182" lon="5.4489">
        <ele>65</ele>
        <time>2018-11-02T17:22:37Z</time>
      </trkpt>
      <trkpt lat="50.59221" lon="5.45089">
        <ele>66</ele>
        <time>2018-11-02T17:23:37Z</time>
      </trkpt>
      <trkpt lat="50.5924" lon="5.4523">
        <ele>65</ele>
        <time>2018-11-02T17:24:37Z</time>
      </trkpt>
      <trkpt lat="50.59241" lon="5.45263">
        <ele>64</ele>
        <time>2018-11-02T17:25:37Z</time>
      </trkpt>
      <trkpt lat="50.59235" lon="5.45388">
        <ele>66</ele>
        <time>2018-11-02T17:26:37Z</time>
      </trkpt>
      <trkpt lat="50.59266" lon="5.454">
        <ele>66</ele>
        <time>2018-11-02T17:27:37Z</time>
      </trkpt>
      <trkpt lat="50.59275" lon="5.4541">
        <ele>67</ele>
        <time>2018-11-02T17:28:37Z</time>
      </trkpt>
      <trkpt lat="50.59288" lon="5.45444">
        <ele>67</ele>
        <time>2018-11-02T17:29:37Z</time>
      </trkpt>
      <trkpt lat="50.59306" lon="5.45481">
        <ele>66</ele>
        <time>2018-11-02T17:30:37Z</time>
      </trkpt>
      <trkpt lat="50.59376" lon="5.45606">
        <ele>68</ele>
        <time>2018-11-02T17:31:37Z</time>
      </trkpt>
      <trkpt lat="50.59444" lon="5.45788">
        <ele>66</ele>
        <time>2018-11-02T17:32:37Z</time>
      </trkpt>
      <trkpt lat="50.59521" lon="5.45982">
        <ele>68</ele>
        <time>2018-11-02T17:33:37Z</time>
      </trkpt>
      <trkpt lat="50.59575" lon="5.46115">
        <ele>68</ele>
        <time>2018-11-02T17:34:37Z</time>
      </trkpt>
      <trkpt lat="50.59652" lon="5.46322">
        <ele>66</ele>
        <time>2018-11-02T17:35:37Z</time>
      </trkpt>
      <trkpt lat="50.59735" lon="5.46536">
        <ele>67</ele>
        <time>2018-11-02T17:36:37Z</time>
      </trkpt>
      <trkpt lat="50.59758" lon="5.46594">
        <ele>68</ele>
        <time>2018-11-02T17:37:37Z</time>
      </trkpt>
      <trkpt lat="50.59777" lon="5.46629">
        <ele>67</ele>
        <time>2018-11-02T17:38:37Z</time>
      </trkpt>
      <trkpt lat="50.59806" lon="5.46685">
        <ele>67</ele>
        <time>2018-11-02T17:39:37Z</time>
      </trkpt>
      <trkpt lat="50.59838" lon="5.46762">
        <ele>68</ele>
        <time>2018-11-02T17:40:37Z</time>
      </trkpt>
      <trkpt lat="50.59852" lon="5.46801">
        <ele>68</ele>
        <time>2018-11-02T17:41:37Z</time>
      </trkpt>
      <trkpt lat="50.59871" lon="5.46878">
        <ele>67</ele>
        <time>2018-11-02T17:42:37Z</time>
      </trkpt>
      <trkpt lat="50.59876" lon="5.46901">
        <ele>67</ele>
        <time>2018-11-02T17:43:37Z</time>
      </trkpt>
      <trkpt lat="50.59923" lon="5.47181">
        <ele>64</ele>
        <time>2018-11-02T17:44:37Z</time>
      </trkpt>
      <trkpt lat="50.59939" lon="5.47242">
        <ele>65</ele>
        <time>2018-11-02T17:45:37Z</time>
      </trkpt>
      <trkpt lat="50.59951" lon="5.47274">
        <ele>65</ele>
        <time>2018-11-02T17:46:37Z</time>
      </trkpt>
      <trkpt lat="50.60072" lon="5.47487">
        <ele>66</ele>
        <time>2018-11-02T17:47:37Z</time>
      </trkpt>
      <trkpt lat="50.60179" lon="5.4768">
        <ele>65</ele>
        <time>2018-11-02T17:48:37Z</time>
      </trkpt>
      <trkpt lat="50.60259" lon="5.47819">
        <ele>65</ele>
        <time>2018-11-02T17:49:37Z</time>
      </trkpt>
      <trkpt lat="50.60351" lon="5.47978">
        <ele>67</ele>
        <time>2018-11-02T17:50:37Z</time>
      </trkpt>
      <trkpt lat="50.60381" lon="5.48043">
        <ele>67</ele>
        <time>2018-11-02T17:51:37Z</time>
      </trkpt>
      <trkpt lat="50.6044" lon="5.48187">
        <ele>68</ele>
        <time>2018-11-02T17:52:37Z</time>
      </trkpt>
      <trkpt lat="50.60471" lon="5.48285">
        <ele>68</ele>
        <time>2018-11-02T17:53:37Z</time>
      </trkpt>
      <trkpt lat="50.60493" lon="5.48366">
        <ele>67</ele>
        <time>2018-11-02T17:54:37Z</time>
      </trkpt>
      <trkpt lat="50.60478" lon="5.48401">
        <ele>67</ele>
        <time>2018-11-02T17:55:37Z</time>
      </trkpt>
      <trkpt lat="50.60422" lon="5.48471">
        <ele>64</ele>
        <time>2018-11-02T17:56:37Z</time>
      </trkpt>
      <trkpt lat="50.60399" lon="5.48434">
        <ele>65</ele>
        <time>2018-11-02T17:57:37Z</time>
      </trkpt>
      <trkpt lat="50.60411" lon="5.48415">
        <ele>65</ele>
        <time>2018-11-02T17:58:37Z</time>
      </trkpt>
    </trkseg>
  </trk>
</gpx>